<?xml version="1.0" encoding="UTF-8"?>
<gpx version="1.0" creator="Trackator" xmlns:xsi="http://www.w3.org/2001/XMLSchema-instance" xmlns="http://www.topografix.com/GPX/1/0" xmlns:topografix="http://www.topografix.com/GPX/Private/TopoGrafix/0/1" xsi:schemaLocation="http://www.topografix.com/GPX/1/0 http://www.topografix.com/GPX/1/0/gpx.xsd http://www.topografix.com/GPX/Private/TopoGrafix/0/1 http://www.topografix.com/GPX/Private/TopoGrafix/0/1/topografix.xsd">
<metadata>
<link href="http://www.trackator.com">
<text>Trackator</text>
</link>
</metadata>
<time>2014-06-03T:06:17Z</time>
<trk>
<name>Track: </name>
<desc>Paragliding</desc>
<trkseg>
<trkpt lat="38.08751222" lon="-1.49174347">
<ele>650</ele>
<time>2014-06-03T:06:17Z</time>
</trkpt>
<trkpt lat="38.08751222" lon="-1.49174347">
<ele>650</ele>
<time>2014-06-03T19:06:19Z</time>
</trkpt>
<trkpt lat="38.08751223" lon="-1.49174347">
<ele>650</ele>
<time>2014-06-03T19:06:21Z</time>
</trkpt>
<trkpt lat="38.08751254" lon="-1.49174365">
<ele>650</ele>
<time>2014-06-03T19:06:23Z</time>
</trkpt>
<trkpt lat="38.08751546" lon="-1.49174516">
<ele>651</ele>
<time>2014-06-03T19:06:25Z</time>
</trkpt>
<trkpt lat="38.08751732" lon="-1.49174612">
<ele>651</ele>
<time>2014-06-03T19:06:27Z</time>
</trkpt>
<trkpt lat="38.08751433" lon="-1.49174461">
<ele>651</ele>
<time>2014-06-03T19:06:29Z</time>
</trkpt>
<trkpt lat="38.08751401" lon="-1.49174452">
<ele>651</ele>
<time>2014-06-03T19:06:31Z</time>
</trkpt>
<trkpt lat="38.08751401" lon="-1.49174451">
<ele>651</ele>
<time>2014-06-03T19:06:33Z</time>
</trkpt>
<trkpt lat="38.08751409" lon="-1.49174452">
<ele>651</ele>
<time>2014-06-03T19:06:35Z</time>
</trkpt>
<trkpt lat="38.08751387" lon="-1.49173117">
<ele>648</ele>
<time>2014-06-03T19:06:37Z</time>
</trkpt>
<trkpt lat="38.087519" lon="-1.49173294">
<ele>649</ele>
<time>2014-06-03T19:06:39Z</time>
</trkpt>
<trkpt lat="38.08751721" lon="-1.49172622">
<ele>649</ele>
<time>2014-06-03T19:06:41Z</time>
</trkpt>
<trkpt lat="38.08751097" lon="-1.49173048">
<ele>649</ele>
<time>2014-06-03T19:06:43Z</time>
</trkpt>
<trkpt lat="38.08750589" lon="-1.49173326">
<ele>650</ele>
<time>2014-06-03T19:06:45Z</time>
</trkpt>
<trkpt lat="38.08750731" lon="-1.49173499">
<ele>649</ele>
<time>2014-06-03T19:06:47Z</time>
</trkpt>
<trkpt lat="38.08749572" lon="-1.49172526">
<ele>648</ele>
<time>2014-06-03T19:06:49Z</time>
</trkpt>
<trkpt lat="38.08749458" lon="-1.49172469">
<ele>648</ele>
<time>2014-06-03T19:06:51Z</time>
</trkpt>
<trkpt lat="38.08749592" lon="-1.491727">
<ele>648</ele>
<time>2014-06-03T19:06:53Z</time>
</trkpt>
<trkpt lat="38.08749575" lon="-1.49172687">
<ele>648</ele>
<time>2014-06-03T19:06:55Z</time>
</trkpt>
<trkpt lat="38.08749581" lon="-1.49172692">
<ele>648</ele>
<time>2014-06-03T19:06:57Z</time>
</trkpt>
<trkpt lat="38.08749573" lon="-1.49172678">
<ele>648</ele>
<time>2014-06-03T19:06:59Z</time>
</trkpt>
<trkpt lat="38.08749568" lon="-1.49172674">
<ele>648</ele>
<time>2014-06-03T19:07:01Z</time>
</trkpt>
<trkpt lat="38.08749569" lon="-1.49172671">
<ele>648</ele>
<time>2014-06-03T19:07:03Z</time>
</trkpt>
<trkpt lat="38.08749568" lon="-1.49172667">
<ele>648</ele>
<time>2014-06-03T19:07:05Z</time>
</trkpt>
<trkpt lat="38.0874957" lon="-1.49172665">
<ele>648</ele>
<time>2014-06-03T19:07:07Z</time>
</trkpt>
<trkpt lat="38.08749576" lon="-1.49172659">
<ele>648</ele>
<time>2014-06-03T19:07:09Z</time>
</trkpt>
<trkpt lat="38.08749575" lon="-1.49172659">
<ele>648</ele>
<time>2014-06-03T19:07:11Z</time>
</trkpt>
<trkpt lat="38.08749579" lon="-1.49172657">
<ele>648</ele>
<time>2014-06-03T19:07:13Z</time>
</trkpt>
<trkpt lat="38.08749582" lon="-1.49172657">
<ele>648</ele>
<time>2014-06-03T19:07:15Z</time>
</trkpt>
<trkpt lat="38.08749086" lon="-1.49173265">
<ele>647</ele>
<time>2014-06-03T19:07:17Z</time>
</trkpt>
<trkpt lat="38.08749544" lon="-1.49173427">
<ele>647</ele>
<time>2014-06-03T19:07:19Z</time>
</trkpt>
<trkpt lat="38.08749773" lon="-1.49173029">
<ele>647</ele>
<time>2014-06-03T19:07:21Z</time>
</trkpt>
<trkpt lat="38.08749968" lon="-1.49172592">
<ele>646</ele>
<time>2014-06-03T19:07:23Z</time>
</trkpt>
<trkpt lat="38.08749622" lon="-1.49172768">
<ele>645</ele>
<time>2014-06-03T19:07:25Z</time>
</trkpt>
<trkpt lat="38.08749465" lon="-1.49172864">
<ele>645</ele>
<time>2014-06-03T19:07:27Z</time>
</trkpt>
<trkpt lat="38.08750175" lon="-1.49173577">
<ele>645</ele>
<time>2014-06-03T19:07:29Z</time>
</trkpt>
<trkpt lat="38.08750175" lon="-1.49173577">
<ele>645</ele>
<time>2014-06-03T19:07:31Z</time>
</trkpt>
<trkpt lat="38.08750178" lon="-1.49173514">
<ele>645</ele>
<time>2014-06-03T19:07:33Z</time>
</trkpt>
<trkpt lat="38.08750178" lon="-1.49173514">
<ele>645</ele>
<time>2014-06-03T19:07:35Z</time>
</trkpt>
<trkpt lat="38.08750202" lon="-1.49173448">
<ele>645</ele>
<time>2014-06-03T19:07:37Z</time>
</trkpt>
<trkpt lat="38.08750188" lon="-1.49173449">
<ele>645</ele>
<time>2014-06-03T19:07:39Z</time>
</trkpt>
<trkpt lat="38.08750184" lon="-1.49173447">
<ele>645</ele>
<time>2014-06-03T19:07:41Z</time>
</trkpt>
<trkpt lat="38.08750292" lon="-1.49173347">
<ele>646</ele>
<time>2014-06-03T19:07:43Z</time>
</trkpt>
<trkpt lat="38.08750281" lon="-1.49173345">
<ele>646</ele>
<time>2014-06-03T19:07:45Z</time>
</trkpt>
<trkpt lat="38.08750203" lon="-1.49173318">
<ele>645</ele>
<time>2014-06-03T19:07:47Z</time>
</trkpt>
<trkpt lat="38.08750204" lon="-1.49173317">
<ele>645</ele>
<time>2014-06-03T19:07:49Z</time>
</trkpt>
<trkpt lat="38.08750204" lon="-1.49173317">
<ele>645</ele>
<time>2014-06-03T19:07:51Z</time>
</trkpt>
<trkpt lat="38.0875017" lon="-1.49173307">
<ele>645</ele>
<time>2014-06-03T19:07:53Z</time>
</trkpt>
<trkpt lat="38.0875019" lon="-1.49173153">
<ele>646</ele>
<time>2014-06-03T19:07:55Z</time>
</trkpt>
<trkpt lat="38.08750188" lon="-1.49173149">
<ele>646</ele>
<time>2014-06-03T19:07:57Z</time>
</trkpt>
<trkpt lat="38.0875019" lon="-1.49173141">
<ele>646</ele>
<time>2014-06-03T19:07:59Z</time>
</trkpt>
<trkpt lat="38.08750191" lon="-1.4917314">
<ele>646</ele>
<time>2014-06-03T19:08:01Z</time>
</trkpt>
<trkpt lat="38.08750204" lon="-1.49173148">
<ele>646</ele>
<time>2014-06-03T19:08:03Z</time>
</trkpt>
<trkpt lat="38.0875017" lon="-1.49173199">
<ele>646</ele>
<time>2014-06-03T19:08:05Z</time>
</trkpt>
<trkpt lat="38.0875054" lon="-1.49172507">
<ele>645</ele>
<time>2014-06-03T19:08:07Z</time>
</trkpt>
<trkpt lat="38.08751313" lon="-1.49172593">
<ele>646</ele>
<time>2014-06-03T19:08:09Z</time>
</trkpt>
<trkpt lat="38.0875159" lon="-1.49172569">
<ele>647</ele>
<time>2014-06-03T19:08:11Z</time>
</trkpt>
<trkpt lat="38.08751434" lon="-1.49172271">
<ele>647</ele>
<time>2014-06-03T19:08:13Z</time>
</trkpt>
<trkpt lat="38.08751212" lon="-1.49171752">
<ele>646</ele>
<time>2014-06-03T19:08:15Z</time>
</trkpt>
<trkpt lat="38.08750834" lon="-1.49171261">
<ele>645</ele>
<time>2014-06-03T19:08:17Z</time>
</trkpt>
<trkpt lat="38.08751355" lon="-1.49170903">
<ele>645</ele>
<time>2014-06-03T19:08:19Z</time>
</trkpt>
<trkpt lat="38.087541" lon="-1.49169326">
<ele>644</ele>
<time>2014-06-03T19:08:21Z</time>
</trkpt>
<trkpt lat="38.08755423" lon="-1.49167545">
<ele>645</ele>
<time>2014-06-03T19:08:23Z</time>
</trkpt>
<trkpt lat="38.08756544" lon="-1.49166606">
<ele>645</ele>
<time>2014-06-03T19:08:25Z</time>
</trkpt>
<trkpt lat="38.08756869" lon="-1.49170298">
<ele>645</ele>
<time>2014-06-03T19:08:27Z</time>
</trkpt>
<trkpt lat="38.08756937" lon="-1.49169771">
<ele>645</ele>
<time>2014-06-03T19:08:29Z</time>
</trkpt>
<trkpt lat="38.087566" lon="-1.49170263">
<ele>646</ele>
<time>2014-06-03T19:08:31Z</time>
</trkpt>
<trkpt lat="38.08756499" lon="-1.49170532">
<ele>646</ele>
<time>2014-06-03T19:08:33Z</time>
</trkpt>
<trkpt lat="38.08757066" lon="-1.4917091">
<ele>646</ele>
<time>2014-06-03T19:08:35Z</time>
</trkpt>
<trkpt lat="38.08756887" lon="-1.49170973">
<ele>646</ele>
<time>2014-06-03T19:08:37Z</time>
</trkpt>
<trkpt lat="38.08756505" lon="-1.49170607">
<ele>648</ele>
<time>2014-06-03T19:08:39Z</time>
</trkpt>
<trkpt lat="38.08756088" lon="-1.49171016">
<ele>647</ele>
<time>2014-06-03T19:08:41Z</time>
</trkpt>
<trkpt lat="38.08755855" lon="-1.49171522">
<ele>647</ele>
<time>2014-06-03T19:08:43Z</time>
</trkpt>
<trkpt lat="38.08755855" lon="-1.49171522">
<ele>647</ele>
<time>2014-06-03T19:08:45Z</time>
</trkpt>
<trkpt lat="38.08755655" lon="-1.49171421">
<ele>647</ele>
<time>2014-06-03T19:08:47Z</time>
</trkpt>
<trkpt lat="38.08755328" lon="-1.49171503">
<ele>647</ele>
<time>2014-06-03T19:08:49Z</time>
</trkpt>
<trkpt lat="38.087552" lon="-1.49171543">
<ele>647</ele>
<time>2014-06-03T19:08:51Z</time>
</trkpt>
<trkpt lat="38.08755084" lon="-1.4917149">
<ele>648</ele>
<time>2014-06-03T19:08:53Z</time>
</trkpt>
<trkpt lat="38.08755006" lon="-1.49171443">
<ele>648</ele>
<time>2014-06-03T19:08:55Z</time>
</trkpt>
<trkpt lat="38.08755111" lon="-1.49171105">
<ele>648</ele>
<time>2014-06-03T19:08:57Z</time>
</trkpt>
<trkpt lat="38.08755095" lon="-1.49170954">
<ele>648</ele>
<time>2014-06-03T19:08:59Z</time>
</trkpt>
<trkpt lat="38.08755095" lon="-1.49170954">
<ele>648</ele>
<time>2014-06-03T19:09:01Z</time>
</trkpt>
<trkpt lat="38.08754841" lon="-1.491708">
<ele>648</ele>
<time>2014-06-03T19:09:03Z</time>
</trkpt>
<trkpt lat="38.08754781" lon="-1.49170757">
<ele>648</ele>
<time>2014-06-03T19:09:05Z</time>
</trkpt>
<trkpt lat="38.08754756" lon="-1.49170743">
<ele>648</ele>
<time>2014-06-03T19:09:07Z</time>
</trkpt>
<trkpt lat="38.08754749" lon="-1.49170739">
<ele>648</ele>
<time>2014-06-03T19:09:09Z</time>
</trkpt>
<trkpt lat="38.08754746" lon="-1.49170737">
<ele>648</ele>
<time>2014-06-03T19:09:11Z</time>
</trkpt>
<trkpt lat="38.08754744" lon="-1.49170735">
<ele>648</ele>
<time>2014-06-03T19:09:13Z</time>
</trkpt>
<trkpt lat="38.08754743" lon="-1.49170734">
<ele>648</ele>
<time>2014-06-03T19:09:15Z</time>
</trkpt>
<trkpt lat="38.08754749" lon="-1.49170755">
<ele>648</ele>
<time>2014-06-03T19:09:17Z</time>
</trkpt>
<trkpt lat="38.08754704" lon="-1.49170694">
<ele>648</ele>
<time>2014-06-03T19:09:19Z</time>
</trkpt>
<trkpt lat="38.08754367" lon="-1.49170574">
<ele>648</ele>
<time>2014-06-03T19:09:21Z</time>
</trkpt>
<trkpt lat="38.08753272" lon="-1.49170624">
<ele>646</ele>
<time>2014-06-03T19:09:23Z</time>
</trkpt>
<trkpt lat="38.08753272" lon="-1.49170624">
<ele>646</ele>
<time>2014-06-03T19:09:25Z</time>
</trkpt>
<trkpt lat="38.08753174" lon="-1.49170386">
<ele>645</ele>
<time>2014-06-03T19:09:27Z</time>
</trkpt>
<trkpt lat="38.08753154" lon="-1.49170166">
<ele>646</ele>
<time>2014-06-03T19:09:29Z</time>
</trkpt>
<trkpt lat="38.08753279" lon="-1.49169915">
<ele>645</ele>
<time>2014-06-03T19:09:31Z</time>
</trkpt>
<trkpt lat="38.08753314" lon="-1.49169852">
<ele>645</ele>
<time>2014-06-03T19:09:33Z</time>
</trkpt>
<trkpt lat="38.08753364" lon="-1.49169831">
<ele>645</ele>
<time>2014-06-03T19:09:35Z</time>
</trkpt>
<trkpt lat="38.08753388" lon="-1.49169785">
<ele>645</ele>
<time>2014-06-03T19:09:37Z</time>
</trkpt>
<trkpt lat="38.0875324" lon="-1.49169603">
<ele>645</ele>
<time>2014-06-03T19:09:39Z</time>
</trkpt>
<trkpt lat="38.08753192" lon="-1.49169574">
<ele>645</ele>
<time>2014-06-03T19:09:41Z</time>
</trkpt>
<trkpt lat="38.08753177" lon="-1.49169567">
<ele>645</ele>
<time>2014-06-03T19:09:43Z</time>
</trkpt>
<trkpt lat="38.0875312" lon="-1.49169504">
<ele>645</ele>
<time>2014-06-03T19:09:45Z</time>
</trkpt>
<trkpt lat="38.08753236" lon="-1.49169505">
<ele>645</ele>
<time>2014-06-03T19:09:47Z</time>
</trkpt>
<trkpt lat="38.08752545" lon="-1.49171064">
<ele>645</ele>
<time>2014-06-03T19:09:49Z</time>
</trkpt>
<trkpt lat="38.08752545" lon="-1.49171064">
<ele>645</ele>
<time>2014-06-03T19:09:51Z</time>
</trkpt>
<trkpt lat="38.08752218" lon="-1.49172248">
<ele>645</ele>
<time>2014-06-03T19:09:53Z</time>
</trkpt>
<trkpt lat="38.0875188" lon="-1.49173251">
<ele>646</ele>
<time>2014-06-03T19:09:55Z</time>
</trkpt>
<trkpt lat="38.08751395" lon="-1.49174222">
<ele>646</ele>
<time>2014-06-03T19:09:57Z</time>
</trkpt>
<trkpt lat="38.08750868" lon="-1.49174549">
<ele>647</ele>
<time>2014-06-03T19:09:59Z</time>
</trkpt>
<trkpt lat="38.0875052" lon="-1.49174758">
<ele>648</ele>
<time>2014-06-03T19:10:01Z</time>
</trkpt>
<trkpt lat="38.08750349" lon="-1.49174954">
<ele>648</ele>
<time>2014-06-03T19:10:03Z</time>
</trkpt>
<trkpt lat="38.08750284" lon="-1.4917499">
<ele>648</ele>
<time>2014-06-03T19:10:05Z</time>
</trkpt>
<trkpt lat="38.08750249" lon="-1.49174978">
<ele>649</ele>
<time>2014-06-03T19:10:07Z</time>
</trkpt>
<trkpt lat="38.08750243" lon="-1.49174992">
<ele>648</ele>
<time>2014-06-03T19:10:09Z</time>
</trkpt>
<trkpt lat="38.0875022" lon="-1.49174945">
<ele>649</ele>
<time>2014-06-03T19:10:11Z</time>
</trkpt>
<trkpt lat="38.08750209" lon="-1.49174922">
<ele>649</ele>
<time>2014-06-03T19:10:13Z</time>
</trkpt>
<trkpt lat="38.08750206" lon="-1.49174919">
<ele>649</ele>
<time>2014-06-03T19:10:15Z</time>
</trkpt>
<trkpt lat="38.08750204" lon="-1.49174926">
<ele>649</ele>
<time>2014-06-03T19:10:17Z</time>
</trkpt>
<trkpt lat="38.08750201" lon="-1.49174925">
<ele>649</ele>
<time>2014-06-03T19:10:19Z</time>
</trkpt>
<trkpt lat="38.08750198" lon="-1.49174925">
<ele>649</ele>
<time>2014-06-03T19:10:21Z</time>
</trkpt>
<trkpt lat="38.08750196" lon="-1.4917492">
<ele>649</ele>
<time>2014-06-03T19:10:23Z</time>
</trkpt>
<trkpt lat="38.08750194" lon="-1.49174908">
<ele>649</ele>
<time>2014-06-03T19:10:25Z</time>
</trkpt>
<trkpt lat="38.08750173" lon="-1.4917484">
<ele>649</ele>
<time>2014-06-03T19:10:27Z</time>
</trkpt>
<trkpt lat="38.08750165" lon="-1.49174816">
<ele>649</ele>
<time>2014-06-03T19:10:29Z</time>
</trkpt>
<trkpt lat="38.0875016" lon="-1.49174801">
<ele>649</ele>
<time>2014-06-03T19:10:31Z</time>
</trkpt>
<trkpt lat="38.08750149" lon="-1.4917477">
<ele>649</ele>
<time>2014-06-03T19:10:33Z</time>
</trkpt>
<trkpt lat="38.08750144" lon="-1.49174756">
<ele>649</ele>
<time>2014-06-03T19:10:35Z</time>
</trkpt>
<trkpt lat="38.08750138" lon="-1.49174739">
<ele>649</ele>
<time>2014-06-03T19:10:37Z</time>
</trkpt>
<trkpt lat="38.08750132" lon="-1.49174719">
<ele>649</ele>
<time>2014-06-03T19:10:39Z</time>
</trkpt>
<trkpt lat="38.08750141" lon="-1.49174693">
<ele>649</ele>
<time>2014-06-03T19:10:41Z</time>
</trkpt>
<trkpt lat="38.08750147" lon="-1.49174675">
<ele>649</ele>
<time>2014-06-03T19:10:43Z</time>
</trkpt>
<trkpt lat="38.08750146" lon="-1.49174666">
<ele>649</ele>
<time>2014-06-03T19:10:45Z</time>
</trkpt>
<trkpt lat="38.08750144" lon="-1.49174661">
<ele>649</ele>
<time>2014-06-03T19:10:47Z</time>
</trkpt>
<trkpt lat="38.08750141" lon="-1.49174655">
<ele>649</ele>
<time>2014-06-03T19:10:49Z</time>
</trkpt>
<trkpt lat="38.08750134" lon="-1.4917463">
<ele>649</ele>
<time>2014-06-03T19:10:51Z</time>
</trkpt>
<trkpt lat="38.08750132" lon="-1.49174622">
<ele>649</ele>
<time>2014-06-03T19:10:53Z</time>
</trkpt>
<trkpt lat="38.0875013" lon="-1.49174614">
<ele>649</ele>
<time>2014-06-03T19:10:55Z</time>
</trkpt>
<trkpt lat="38.08750131" lon="-1.49174587">
<ele>649</ele>
<time>2014-06-03T19:10:57Z</time>
</trkpt>
<trkpt lat="38.0875071" lon="-1.49175144">
<ele>649</ele>
<time>2014-06-03T19:10:59Z</time>
</trkpt>
<trkpt lat="38.08751823" lon="-1.4917546">
<ele>650</ele>
<time>2014-06-03T19:11:01Z</time>
</trkpt>
<trkpt lat="38.08751389" lon="-1.49174116">
<ele>650</ele>
<time>2014-06-03T19:11:03Z</time>
</trkpt>
<trkpt lat="38.08751344" lon="-1.49173231">
<ele>650</ele>
<time>2014-06-03T19:11:05Z</time>
</trkpt>
<trkpt lat="38.08751395" lon="-1.49172026">
<ele>649</ele>
<time>2014-06-03T19:11:07Z</time>
</trkpt>
<trkpt lat="38.08751309" lon="-1.49171738">
<ele>649</ele>
<time>2014-06-03T19:11:09Z</time>
</trkpt>
<trkpt lat="38.08751508" lon="-1.49171789">
<ele>650</ele>
<time>2014-06-03T19:11:11Z</time>
</trkpt>
<trkpt lat="38.0875189" lon="-1.49171967">
<ele>651</ele>
<time>2014-06-03T19:11:13Z</time>
</trkpt>
<trkpt lat="38.08752248" lon="-1.49171962">
<ele>652</ele>
<time>2014-06-03T19:11:15Z</time>
</trkpt>
<trkpt lat="38.08752472" lon="-1.49172088">
<ele>651</ele>
<time>2014-06-03T19:11:17Z</time>
</trkpt>
<trkpt lat="38.0875246" lon="-1.49172094">
<ele>651</ele>
<time>2014-06-03T19:11:19Z</time>
</trkpt>
<trkpt lat="38.08754088" lon="-1.49173738">
<ele>651</ele>
<time>2014-06-03T19:11:21Z</time>
</trkpt>
<trkpt lat="38.08753722" lon="-1.49170942">
<ele>652</ele>
<time>2014-06-03T19:11:23Z</time>
</trkpt>
<trkpt lat="38.08753368" lon="-1.49169125">
<ele>650</ele>
<time>2014-06-03T19:11:25Z</time>
</trkpt>
<trkpt lat="38.08734886" lon="-1.49170308">
<ele>651</ele>
<time>2014-06-03T19:11:27Z</time>
</trkpt>
<trkpt lat="38.08729292" lon="-1.49164241">
<ele>651</ele>
<time>2014-06-03T19:11:29Z</time>
</trkpt>
<trkpt lat="38.0872254" lon="-1.49153688">
<ele>650</ele>
<time>2014-06-03T19:11:31Z</time>
</trkpt>
<trkpt lat="38.08716118" lon="-1.49140357">
<ele>653</ele>
<time>2014-06-03T19:11:33Z</time>
</trkpt>
<trkpt lat="38.08715673" lon="-1.4912238">
<ele>653</ele>
<time>2014-06-03T19:11:35Z</time>
</trkpt>
<trkpt lat="38.08717378" lon="-1.49103745">
<ele>653</ele>
<time>2014-06-03T19:11:37Z</time>
</trkpt>
<trkpt lat="38.08716594" lon="-1.49085217">
<ele>657</ele>
<time>2014-06-03T19:11:39Z</time>
</trkpt>
<trkpt lat="38.0872428" lon="-1.49067277">
<ele>662</ele>
<time>2014-06-03T19:11:41Z</time>
</trkpt>
<trkpt lat="38.0873666" lon="-1.49051402">
<ele>666</ele>
<time>2014-06-03T19:11:43Z</time>
</trkpt>
<trkpt lat="38.08747612" lon="-1.49036757">
<ele>674</ele>
<time>2014-06-03T19:11:45Z</time>
</trkpt>
<trkpt lat="38.08755466" lon="-1.49025559">
<ele>678</ele>
<time>2014-06-03T19:11:47Z</time>
</trkpt>
<trkpt lat="38.08756581" lon="-1.49010583">
<ele>683</ele>
<time>2014-06-03T19:11:49Z</time>
</trkpt>
<trkpt lat="38.08758183" lon="-1.4900048">
<ele>685</ele>
<time>2014-06-03T19:11:51Z</time>
</trkpt>
<trkpt lat="38.08759787" lon="-1.48994389">
<ele>688</ele>
<time>2014-06-03T19:11:53Z</time>
</trkpt>
<trkpt lat="38.08759411" lon="-1.48988012">
<ele>690</ele>
<time>2014-06-03T19:11:55Z</time>
</trkpt>
<trkpt lat="38.08757717" lon="-1.48983461">
<ele>689</ele>
<time>2014-06-03T19:11:57Z</time>
</trkpt>
<trkpt lat="38.08754751" lon="-1.48976761">
<ele>692</ele>
<time>2014-06-03T19:11:59Z</time>
</trkpt>
<trkpt lat="38.08753043" lon="-1.48970983">
<ele>695</ele>
<time>2014-06-03T19:12:01Z</time>
</trkpt>
<trkpt lat="38.08748135" lon="-1.48967385">
<ele>695</ele>
<time>2014-06-03T19:12:03Z</time>
</trkpt>
<trkpt lat="38.08745826" lon="-1.48957224">
<ele>698</ele>
<time>2014-06-03T19:12:05Z</time>
</trkpt>
<trkpt lat="38.0874982" lon="-1.48944367">
<ele>698</ele>
<time>2014-06-03T19:12:07Z</time>
</trkpt>
<trkpt lat="38.08751783" lon="-1.48930412">
<ele>699</ele>
<time>2014-06-03T19:12:09Z</time>
</trkpt>
<trkpt lat="38.08755151" lon="-1.48915874">
<ele>703</ele>
<time>2014-06-03T19:12:11Z</time>
</trkpt>
<trkpt lat="38.08760041" lon="-1.48902072">
<ele>703</ele>
<time>2014-06-03T19:12:13Z</time>
</trkpt>
<trkpt lat="38.08761583" lon="-1.4888694">
<ele>705</ele>
<time>2014-06-03T19:12:15Z</time>
</trkpt>
<trkpt lat="38.08764514" lon="-1.48875273">
<ele>707</ele>
<time>2014-06-03T19:12:17Z</time>
</trkpt>
<trkpt lat="38.08768669" lon="-1.48863619">
<ele>709</ele>
<time>2014-06-03T19:12:19Z</time>
</trkpt>
<trkpt lat="38.08774989" lon="-1.48843886">
<ele>709</ele>
<time>2014-06-03T19:12:21Z</time>
</trkpt>
<trkpt lat="38.08782018" lon="-1.48828938">
<ele>711</ele>
<time>2014-06-03T19:12:23Z</time>
</trkpt>
<trkpt lat="38.08785063" lon="-1.48814692">
<ele>708</ele>
<time>2014-06-03T19:12:25Z</time>
</trkpt>
<trkpt lat="38.08788185" lon="-1.48800865">
<ele>706</ele>
<time>2014-06-03T19:12:27Z</time>
</trkpt>
<trkpt lat="38.0879303" lon="-1.48784781">
<ele>707</ele>
<time>2014-06-03T19:12:29Z</time>
</trkpt>
<trkpt lat="38.08797187" lon="-1.48767853">
<ele>706</ele>
<time>2014-06-03T19:12:31Z</time>
</trkpt>
<trkpt lat="38.08800836" lon="-1.48746815">
<ele>708</ele>
<time>2014-06-03T19:12:33Z</time>
</trkpt>
<trkpt lat="38.08804909" lon="-1.48726542">
<ele>711</ele>
<time>2014-06-03T19:12:35Z</time>
</trkpt>
<trkpt lat="38.08811474" lon="-1.48709457">
<ele>713</ele>
<time>2014-06-03T19:12:37Z</time>
</trkpt>
<trkpt lat="38.08817628" lon="-1.48693819">
<ele>715</ele>
<time>2014-06-03T19:12:39Z</time>
</trkpt>
<trkpt lat="38.0882348" lon="-1.48677879">
<ele>715</ele>
<time>2014-06-03T19:12:41Z</time>
</trkpt>
<trkpt lat="38.08830611" lon="-1.48660366">
<ele>716</ele>
<time>2014-06-03T19:12:43Z</time>
</trkpt>
<trkpt lat="38.08835605" lon="-1.4864464">
<ele>716</ele>
<time>2014-06-03T19:12:45Z</time>
</trkpt>
<trkpt lat="38.08837464" lon="-1.48630847">
<ele>715</ele>
<time>2014-06-03T19:12:47Z</time>
</trkpt>
<trkpt lat="38.08842979" lon="-1.48617903">
<ele>712</ele>
<time>2014-06-03T19:12:49Z</time>
</trkpt>
<trkpt lat="38.08847295" lon="-1.48604399">
<ele>710</ele>
<time>2014-06-03T19:12:51Z</time>
</trkpt>
<trkpt lat="38.08849219" lon="-1.48589249">
<ele>710</ele>
<time>2014-06-03T19:12:53Z</time>
</trkpt>
<trkpt lat="38.08851009" lon="-1.48574297">
<ele>711</ele>
<time>2014-06-03T19:12:55Z</time>
</trkpt>
<trkpt lat="38.08851713" lon="-1.48558252">
<ele>710</ele>
<time>2014-06-03T19:12:57Z</time>
</trkpt>
<trkpt lat="38.08854136" lon="-1.48544574">
<ele>712</ele>
<time>2014-06-03T19:12:59Z</time>
</trkpt>
<trkpt lat="38.08859057" lon="-1.48528591">
<ele>713</ele>
<time>2014-06-03T19:13:01Z</time>
</trkpt>
<trkpt lat="38.08861405" lon="-1.48510895">
<ele>713</ele>
<time>2014-06-03T19:13:03Z</time>
</trkpt>
<trkpt lat="38.08866455" lon="-1.48491667">
<ele>714</ele>
<time>2014-06-03T19:13:05Z</time>
</trkpt>
<trkpt lat="38.08872072" lon="-1.48473116">
<ele>715</ele>
<time>2014-06-03T19:13:07Z</time>
</trkpt>
<trkpt lat="38.08879436" lon="-1.48453904">
<ele>715</ele>
<time>2014-06-03T19:13:09Z</time>
</trkpt>
<trkpt lat="38.0888639" lon="-1.48435664">
<ele>716</ele>
<time>2014-06-03T19:13:11Z</time>
</trkpt>
<trkpt lat="38.08893444" lon="-1.48420212">
<ele>719</ele>
<time>2014-06-03T19:13:13Z</time>
</trkpt>
<trkpt lat="38.0890157" lon="-1.48404948">
<ele>720</ele>
<time>2014-06-03T19:13:15Z</time>
</trkpt>
<trkpt lat="38.0890778" lon="-1.48387145">
<ele>718</ele>
<time>2014-06-03T19:13:17Z</time>
</trkpt>
<trkpt lat="38.08913527" lon="-1.48368677">
<ele>721</ele>
<time>2014-06-03T19:13:19Z</time>
</trkpt>
<trkpt lat="38.08919158" lon="-1.48351544">
<ele>725</ele>
<time>2014-06-03T19:13:21Z</time>
</trkpt>
<trkpt lat="38.08924254" lon="-1.48333458">
<ele>728</ele>
<time>2014-06-03T19:13:23Z</time>
</trkpt>
<trkpt lat="38.08931161" lon="-1.48313705">
<ele>732</ele>
<time>2014-06-03T19:13:25Z</time>
</trkpt>
<trkpt lat="38.08939847" lon="-1.48297556">
<ele>735</ele>
<time>2014-06-03T19:13:27Z</time>
</trkpt>
<trkpt lat="38.08948446" lon="-1.4827998">
<ele>734</ele>
<time>2014-06-03T19:13:29Z</time>
</trkpt>
<trkpt lat="38.08956305" lon="-1.4826051">
<ele>732</ele>
<time>2014-06-03T19:13:31Z</time>
</trkpt>
<trkpt lat="38.08971424" lon="-1.48240914">
<ele>740</ele>
<time>2014-06-03T19:13:33Z</time>
</trkpt>
<trkpt lat="38.08981998" lon="-1.48221168">
<ele>739</ele>
<time>2014-06-03T19:13:35Z</time>
</trkpt>
<trkpt lat="38.0899411" lon="-1.48200963">
<ele>736</ele>
<time>2014-06-03T19:13:37Z</time>
</trkpt>
<trkpt lat="38.09009307" lon="-1.48180923">
<ele>737</ele>
<time>2014-06-03T19:13:39Z</time>
</trkpt>
<trkpt lat="38.09021417" lon="-1.48161117">
<ele>737</ele>
<time>2014-06-03T19:13:41Z</time>
</trkpt>
<trkpt lat="38.09034642" lon="-1.48142053">
<ele>740</ele>
<time>2014-06-03T19:13:43Z</time>
</trkpt>
<trkpt lat="38.09046335" lon="-1.48122464">
<ele>742</ele>
<time>2014-06-03T19:13:45Z</time>
</trkpt>
<trkpt lat="38.09055035" lon="-1.48103189">
<ele>744</ele>
<time>2014-06-03T19:13:47Z</time>
</trkpt>
<trkpt lat="38.0906328" lon="-1.48082459">
<ele>747</ele>
<time>2014-06-03T19:13:49Z</time>
</trkpt>
<trkpt lat="38.09071903" lon="-1.4806267">
<ele>750</ele>
<time>2014-06-03T19:13:51Z</time>
</trkpt>
<trkpt lat="38.09078821" lon="-1.48044674">
<ele>751</ele>
<time>2014-06-03T19:13:53Z</time>
</trkpt>
<trkpt lat="38.09085542" lon="-1.48025672">
<ele>754</ele>
<time>2014-06-03T19:13:55Z</time>
</trkpt>
<trkpt lat="38.0909372" lon="-1.48009675">
<ele>755</ele>
<time>2014-06-03T19:13:57Z</time>
</trkpt>
<trkpt lat="38.09101146" lon="-1.47990674">
<ele>756</ele>
<time>2014-06-03T19:13:59Z</time>
</trkpt>
<trkpt lat="38.09108794" lon="-1.47972143">
<ele>758</ele>
<time>2014-06-03T19:14:01Z</time>
</trkpt>
<trkpt lat="38.09116047" lon="-1.47956496">
<ele>763</ele>
<time>2014-06-03T19:14:03Z</time>
</trkpt>
<trkpt lat="38.09123976" lon="-1.47940291">
<ele>765</ele>
<time>2014-06-03T19:14:05Z</time>
</trkpt>
<trkpt lat="38.09133105" lon="-1.47919564">
<ele>766</ele>
<time>2014-06-03T19:14:07Z</time>
</trkpt>
<trkpt lat="38.09140936" lon="-1.47899467">
<ele>767</ele>
<time>2014-06-03T19:14:09Z</time>
</trkpt>
<trkpt lat="38.09147592" lon="-1.47880299">
<ele>769</ele>
<time>2014-06-03T19:14:11Z</time>
</trkpt>
<trkpt lat="38.09155908" lon="-1.47861866">
<ele>768</ele>
<time>2014-06-03T19:14:13Z</time>
</trkpt>
<trkpt lat="38.09162222" lon="-1.47841718">
<ele>769</ele>
<time>2014-06-03T19:14:15Z</time>
</trkpt>
<trkpt lat="38.09168034" lon="-1.47823914">
<ele>773</ele>
<time>2014-06-03T19:14:17Z</time>
</trkpt>
<trkpt lat="38.09173487" lon="-1.47807406">
<ele>773</ele>
<time>2014-06-03T19:14:19Z</time>
</trkpt>
<trkpt lat="38.09179517" lon="-1.47795832">
<ele>773</ele>
<time>2014-06-03T19:14:21Z</time>
</trkpt>
<trkpt lat="38.09180254" lon="-1.47773877">
<ele>773</ele>
<time>2014-06-03T19:14:23Z</time>
</trkpt>
<trkpt lat="38.09182612" lon="-1.47755156">
<ele>777</ele>
<time>2014-06-03T19:14:25Z</time>
</trkpt>
<trkpt lat="38.09186348" lon="-1.47739891">
<ele>780</ele>
<time>2014-06-03T19:14:27Z</time>
</trkpt>
<trkpt lat="38.09188817" lon="-1.47727785">
<ele>786</ele>
<time>2014-06-03T19:14:29Z</time>
</trkpt>
<trkpt lat="38.09188198" lon="-1.47713843">
<ele>786</ele>
<time>2014-06-03T19:14:31Z</time>
</trkpt>
<trkpt lat="38.09190661" lon="-1.47699433">
<ele>787</ele>
<time>2014-06-03T19:14:33Z</time>
</trkpt>
<trkpt lat="38.09193238" lon="-1.47685279">
<ele>789</ele>
<time>2014-06-03T19:14:35Z</time>
</trkpt>
<trkpt lat="38.09195519" lon="-1.47672213">
<ele>788</ele>
<time>2014-06-03T19:14:37Z</time>
</trkpt>
<trkpt lat="38.09199223" lon="-1.47660182">
<ele>788</ele>
<time>2014-06-03T19:14:39Z</time>
</trkpt>
<trkpt lat="38.09202678" lon="-1.47639304">
<ele>786</ele>
<time>2014-06-03T19:14:41Z</time>
</trkpt>
<trkpt lat="38.09204319" lon="-1.4762045">
<ele>794</ele>
<time>2014-06-03T19:14:43Z</time>
</trkpt>
<trkpt lat="38.09209218" lon="-1.47608045">
<ele>801</ele>
<time>2014-06-03T19:14:45Z</time>
</trkpt>
<trkpt lat="38.09215775" lon="-1.47599006">
<ele>805</ele>
<time>2014-06-03T19:14:47Z</time>
</trkpt>
<trkpt lat="38.09216715" lon="-1.47577863">
<ele>803</ele>
<time>2014-06-03T19:14:49Z</time>
</trkpt>
<trkpt lat="38.09217897" lon="-1.47560828">
<ele>804</ele>
<time>2014-06-03T19:14:51Z</time>
</trkpt>
<trkpt lat="38.09221588" lon="-1.47545883">
<ele>805</ele>
<time>2014-06-03T19:14:53Z</time>
</trkpt>
<trkpt lat="38.09225956" lon="-1.4752789">
<ele>805</ele>
<time>2014-06-03T19:14:55Z</time>
</trkpt>
<trkpt lat="38.09227958" lon="-1.47505911">
<ele>810</ele>
<time>2014-06-03T19:14:57Z</time>
</trkpt>
<trkpt lat="38.09234623" lon="-1.47490754">
<ele>813</ele>
<time>2014-06-03T19:14:59Z</time>
</trkpt>
<trkpt lat="38.09242768" lon="-1.47475518">
<ele>812</ele>
<time>2014-06-03T19:15:01Z</time>
</trkpt>
<trkpt lat="38.09251448" lon="-1.47458519">
<ele>814</ele>
<time>2014-06-03T19:15:03Z</time>
</trkpt>
<trkpt lat="38.09257922" lon="-1.47442082">
<ele>816</ele>
<time>2014-06-03T19:15:05Z</time>
</trkpt>
<trkpt lat="38.09264616" lon="-1.47425457">
<ele>817</ele>
<time>2014-06-03T19:15:07Z</time>
</trkpt>
<trkpt lat="38.09269394" lon="-1.47405998">
<ele>817</ele>
<time>2014-06-03T19:15:09Z</time>
</trkpt>
<trkpt lat="38.09275055" lon="-1.47385575">
<ele>818</ele>
<time>2014-06-03T19:15:11Z</time>
</trkpt>
<trkpt lat="38.09280717" lon="-1.47367522">
<ele>818</ele>
<time>2014-06-03T19:15:13Z</time>
</trkpt>
<trkpt lat="38.09287497" lon="-1.47348103">
<ele>819</ele>
<time>2014-06-03T19:15:15Z</time>
</trkpt>
<trkpt lat="38.09294257" lon="-1.47328858">
<ele>820</ele>
<time>2014-06-03T19:15:17Z</time>
</trkpt>
<trkpt lat="38.09299249" lon="-1.47312158">
<ele>820</ele>
<time>2014-06-03T19:15:19Z</time>
</trkpt>
<trkpt lat="38.0930751" lon="-1.47292242">
<ele>822</ele>
<time>2014-06-03T19:15:21Z</time>
</trkpt>
<trkpt lat="38.09315451" lon="-1.47274">
<ele>826</ele>
<time>2014-06-03T19:15:23Z</time>
</trkpt>
<trkpt lat="38.09322047" lon="-1.47255517">
<ele>827</ele>
<time>2014-06-03T19:15:25Z</time>
</trkpt>
<trkpt lat="38.09328968" lon="-1.47238843">
<ele>828</ele>
<time>2014-06-03T19:15:27Z</time>
</trkpt>
<trkpt lat="38.09334248" lon="-1.47220086">
<ele>827</ele>
<time>2014-06-03T19:15:29Z</time>
</trkpt>
<trkpt lat="38.0934084" lon="-1.4720396">
<ele>828</ele>
<time>2014-06-03T19:15:31Z</time>
</trkpt>
<trkpt lat="38.09346767" lon="-1.47187658">
<ele>827</ele>
<time>2014-06-03T19:15:33Z</time>
</trkpt>
<trkpt lat="38.0935397" lon="-1.47168711">
<ele>825</ele>
<time>2014-06-03T19:15:35Z</time>
</trkpt>
<trkpt lat="38.09363091" lon="-1.47150292">
<ele>825</ele>
<time>2014-06-03T19:15:37Z</time>
</trkpt>
<trkpt lat="38.09369921" lon="-1.47128421">
<ele>827</ele>
<time>2014-06-03T19:15:39Z</time>
</trkpt>
<trkpt lat="38.09374342" lon="-1.47111217">
<ele>828</ele>
<time>2014-06-03T19:15:41Z</time>
</trkpt>
<trkpt lat="38.09378173" lon="-1.47092821">
<ele>829</ele>
<time>2014-06-03T19:15:43Z</time>
</trkpt>
<trkpt lat="38.09381096" lon="-1.47073512">
<ele>831</ele>
<time>2014-06-03T19:15:45Z</time>
</trkpt>
<trkpt lat="38.09378929" lon="-1.47058951">
<ele>835</ele>
<time>2014-06-03T19:15:47Z</time>
</trkpt>
<trkpt lat="38.09380569" lon="-1.47041548">
<ele>839</ele>
<time>2014-06-03T19:15:49Z</time>
</trkpt>
<trkpt lat="38.09380788" lon="-1.47021944">
<ele>845</ele>
<time>2014-06-03T19:15:51Z</time>
</trkpt>
<trkpt lat="38.09381862" lon="-1.47002983">
<ele>851</ele>
<time>2014-06-03T19:15:53Z</time>
</trkpt>
<trkpt lat="38.09384821" lon="-1.46984407">
<ele>856</ele>
<time>2014-06-03T19:15:55Z</time>
</trkpt>
<trkpt lat="38.09388228" lon="-1.4696435">
<ele>854</ele>
<time>2014-06-03T19:15:57Z</time>
</trkpt>
<trkpt lat="38.09391242" lon="-1.46945623">
<ele>855</ele>
<time>2014-06-03T19:15:59Z</time>
</trkpt>
<trkpt lat="38.09394965" lon="-1.46926717">
<ele>856</ele>
<time>2014-06-03T19:16:01Z</time>
</trkpt>
<trkpt lat="38.09400972" lon="-1.46901173">
<ele>858</ele>
<time>2014-06-03T19:16:03Z</time>
</trkpt>
<trkpt lat="38.09413131" lon="-1.46882822">
<ele>863</ele>
<time>2014-06-03T19:16:05Z</time>
</trkpt>
<trkpt lat="38.09422384" lon="-1.46863603">
<ele>865</ele>
<time>2014-06-03T19:16:07Z</time>
</trkpt>
<trkpt lat="38.09429931" lon="-1.46842655">
<ele>865</ele>
<time>2014-06-03T19:16:09Z</time>
</trkpt>
<trkpt lat="38.0943636" lon="-1.46822899">
<ele>867</ele>
<time>2014-06-03T19:16:11Z</time>
</trkpt>
<trkpt lat="38.0944495" lon="-1.46802712">
<ele>868</ele>
<time>2014-06-03T19:16:13Z</time>
</trkpt>
<trkpt lat="38.09452596" lon="-1.46782989">
<ele>870</ele>
<time>2014-06-03T19:16:15Z</time>
</trkpt>
<trkpt lat="38.09460224" lon="-1.46763903">
<ele>870</ele>
<time>2014-06-03T19:16:17Z</time>
</trkpt>
<trkpt lat="38.09468479" lon="-1.46743175">
<ele>869</ele>
<time>2014-06-03T19:16:19Z</time>
</trkpt>
<trkpt lat="38.0947629" lon="-1.46723169">
<ele>867</ele>
<time>2014-06-03T19:16:21Z</time>
</trkpt>
<trkpt lat="38.0948675" lon="-1.46702901">
<ele>868</ele>
<time>2014-06-03T19:16:23Z</time>
</trkpt>
<trkpt lat="38.09495459" lon="-1.46681697">
<ele>869</ele>
<time>2014-06-03T19:16:25Z</time>
</trkpt>
<trkpt lat="38.09504607" lon="-1.46661377">
<ele>871</ele>
<time>2014-06-03T19:16:27Z</time>
</trkpt>
<trkpt lat="38.09512866" lon="-1.46642147">
<ele>871</ele>
<time>2014-06-03T19:16:29Z</time>
</trkpt>
<trkpt lat="38.09521244" lon="-1.46618366">
<ele>872</ele>
<time>2014-06-03T19:16:31Z</time>
</trkpt>
<trkpt lat="38.09532227" lon="-1.465983">
<ele>873</ele>
<time>2014-06-03T19:16:33Z</time>
</trkpt>
<trkpt lat="38.09540081" lon="-1.46577705">
<ele>871</ele>
<time>2014-06-03T19:16:35Z</time>
</trkpt>
<trkpt lat="38.09546796" lon="-1.46556017">
<ele>871</ele>
<time>2014-06-03T19:16:37Z</time>
</trkpt>
<trkpt lat="38.09553042" lon="-1.46533925">
<ele>872</ele>
<time>2014-06-03T19:16:39Z</time>
</trkpt>
<trkpt lat="38.09559068" lon="-1.46512766">
<ele>872</ele>
<time>2014-06-03T19:16:41Z</time>
</trkpt>
<trkpt lat="38.0956563" lon="-1.46490293">
<ele>872</ele>
<time>2014-06-03T19:16:43Z</time>
</trkpt>
<trkpt lat="38.09573853" lon="-1.46469959">
<ele>873</ele>
<time>2014-06-03T19:16:45Z</time>
</trkpt>
<trkpt lat="38.09581667" lon="-1.46448496">
<ele>873</ele>
<time>2014-06-03T19:16:47Z</time>
</trkpt>
<trkpt lat="38.09588896" lon="-1.46421582">
<ele>877</ele>
<time>2014-06-03T19:16:49Z</time>
</trkpt>
<trkpt lat="38.09596819" lon="-1.46399107">
<ele>878</ele>
<time>2014-06-03T19:16:51Z</time>
</trkpt>
<trkpt lat="38.09603232" lon="-1.46377333">
<ele>878</ele>
<time>2014-06-03T19:16:53Z</time>
</trkpt>
<trkpt lat="38.09609553" lon="-1.46354501">
<ele>879</ele>
<time>2014-06-03T19:16:55Z</time>
</trkpt>
<trkpt lat="38.09612909" lon="-1.46332681">
<ele>882</ele>
<time>2014-06-03T19:16:57Z</time>
</trkpt>
<trkpt lat="38.09617591" lon="-1.46312874">
<ele>884</ele>
<time>2014-06-03T19:16:59Z</time>
</trkpt>
<trkpt lat="38.0962203" lon="-1.46290605">
<ele>885</ele>
<time>2014-06-03T19:17:01Z</time>
</trkpt>
<trkpt lat="38.09628508" lon="-1.46266739">
<ele>890</ele>
<time>2014-06-03T19:17:03Z</time>
</trkpt>
<trkpt lat="38.09634984" lon="-1.46246499">
<ele>891</ele>
<time>2014-06-03T19:17:05Z</time>
</trkpt>
<trkpt lat="38.09642021" lon="-1.46225963">
<ele>892</ele>
<time>2014-06-03T19:17:07Z</time>
</trkpt>
<trkpt lat="38.09645952" lon="-1.46208539">
<ele>893</ele>
<time>2014-06-03T19:17:09Z</time>
</trkpt>
<trkpt lat="38.09644612" lon="-1.46196071">
<ele>895</ele>
<time>2014-06-03T19:17:11Z</time>
</trkpt>
<trkpt lat="38.09639006" lon="-1.46189603">
<ele>897</ele>
<time>2014-06-03T19:17:13Z</time>
</trkpt>
<trkpt lat="38.09633951" lon="-1.46191546">
<ele>899</ele>
<time>2014-06-03T19:17:15Z</time>
</trkpt>
<trkpt lat="38.09625152" lon="-1.46208323">
<ele>901</ele>
<time>2014-06-03T19:17:19Z</time>
</trkpt>
<trkpt lat="38.09623381" lon="-1.46215433">
<ele>902</ele>
<time>2014-06-03T19:17:21Z</time>
</trkpt>
<trkpt lat="38.09618828" lon="-1.46224587">
<ele>905</ele>
<time>2014-06-03T19:17:23Z</time>
</trkpt>
<trkpt lat="38.09612485" lon="-1.4623275">
<ele>908</ele>
<time>2014-06-03T19:17:25Z</time>
</trkpt>
<trkpt lat="38.09609032" lon="-1.46236038">
<ele>911</ele>
<time>2014-06-03T19:17:27Z</time>
</trkpt>
<trkpt lat="38.09605594" lon="-1.46247382">
<ele>916</ele>
<time>2014-06-03T19:17:29Z</time>
</trkpt>
<trkpt lat="38.09600733" lon="-1.462591">
<ele>917</ele>
<time>2014-06-03T19:17:31Z</time>
</trkpt>
<trkpt lat="38.09597231" lon="-1.46269268">
<ele>918</ele>
<time>2014-06-03T19:17:33Z</time>
</trkpt>
<trkpt lat="38.09594726" lon="-1.46281839">
<ele>920</ele>
<time>2014-06-03T19:17:35Z</time>
</trkpt>
<trkpt lat="38.09592749" lon="-1.46293134">
<ele>923</ele>
<time>2014-06-03T19:17:37Z</time>
</trkpt>
<trkpt lat="38.09589258" lon="-1.46302987">
<ele>923</ele>
<time>2014-06-03T19:17:39Z</time>
</trkpt>
<trkpt lat="38.09585761" lon="-1.46312223">
<ele>925</ele>
<time>2014-06-03T19:17:41Z</time>
</trkpt>
<trkpt lat="38.09582918" lon="-1.46324245">
<ele>927</ele>
<time>2014-06-03T19:17:43Z</time>
</trkpt>
<trkpt lat="38.09580065" lon="-1.4633634">
<ele>929</ele>
<time>2014-06-03T19:17:45Z</time>
</trkpt>
<trkpt lat="38.09579151" lon="-1.46348085">
<ele>932</ele>
<time>2014-06-03T19:17:47Z</time>
</trkpt>
<trkpt lat="38.09578819" lon="-1.46363397">
<ele>930</ele>
<time>2014-06-03T19:17:49Z</time>
</trkpt>
<trkpt lat="38.09578438" lon="-1.46378072">
<ele>931</ele>
<time>2014-06-03T19:17:51Z</time>
</trkpt>
<trkpt lat="38.09578139" lon="-1.46390939">
<ele>932</ele>
<time>2014-06-03T19:17:53Z</time>
</trkpt>
<trkpt lat="38.09574027" lon="-1.46398871">
<ele>934</ele>
<time>2014-06-03T19:17:55Z</time>
</trkpt>
<trkpt lat="38.0956931" lon="-1.46401617">
<ele>935</ele>
<time>2014-06-03T19:17:57Z</time>
</trkpt>
<trkpt lat="38.09563852" lon="-1.46395848">
<ele>939</ele>
<time>2014-06-03T19:17:59Z</time>
</trkpt>
<trkpt lat="38.09558008" lon="-1.4638526">
<ele>942</ele>
<time>2014-06-03T19:18:01Z</time>
</trkpt>
<trkpt lat="38.0955464" lon="-1.4636967">
<ele>942</ele>
<time>2014-06-03T19:18:03Z</time>
</trkpt>
<trkpt lat="38.09555678" lon="-1.4634892">
<ele>943</ele>
<time>2014-06-03T19:18:05Z</time>
</trkpt>
<trkpt lat="38.09558566" lon="-1.46325314">
<ele>943</ele>
<time>2014-06-03T19:18:07Z</time>
</trkpt>
<trkpt lat="38.09563782" lon="-1.46302556">
<ele>944</ele>
<time>2014-06-03T19:18:09Z</time>
</trkpt>
<trkpt lat="38.09571101" lon="-1.46278972">
<ele>945</ele>
<time>2014-06-03T19:18:11Z</time>
</trkpt>
<trkpt lat="38.09579515" lon="-1.4625624">
<ele>947</ele>
<time>2014-06-03T19:18:13Z</time>
</trkpt>
<trkpt lat="38.09589644" lon="-1.46232081">
<ele>947</ele>
<time>2014-06-03T19:18:15Z</time>
</trkpt>
<trkpt lat="38.09598044" lon="-1.46209183">
<ele>946</ele>
<time>2014-06-03T19:18:17Z</time>
</trkpt>
<trkpt lat="38.09608485" lon="-1.46185987">
<ele>949</ele>
<time>2014-06-03T19:18:19Z</time>
</trkpt>
<trkpt lat="38.09620036" lon="-1.46164595">
<ele>950</ele>
<time>2014-06-03T19:18:21Z</time>
</trkpt>
<trkpt lat="38.0962924" lon="-1.46141994">
<ele>947</ele>
<time>2014-06-03T19:18:23Z</time>
</trkpt>
<trkpt lat="38.09642961" lon="-1.46118307">
<ele>950</ele>
<time>2014-06-03T19:18:25Z</time>
</trkpt>
<trkpt lat="38.09655658" lon="-1.46096257">
<ele>954</ele>
<time>2014-06-03T19:18:27Z</time>
</trkpt>
<trkpt lat="38.09666558" lon="-1.46073288">
<ele>957</ele>
<time>2014-06-03T19:18:29Z</time>
</trkpt>
<trkpt lat="38.09673855" lon="-1.46049049">
<ele>959</ele>
<time>2014-06-03T19:18:31Z</time>
</trkpt>
<trkpt lat="38.09676277" lon="-1.4602654">
<ele>959</ele>
<time>2014-06-03T19:18:33Z</time>
</trkpt>
<trkpt lat="38.09675082" lon="-1.46006968">
<ele>963</ele>
<time>2014-06-03T19:18:35Z</time>
</trkpt>
<trkpt lat="38.09670721" lon="-1.45995789">
<ele>965</ele>
<time>2014-06-03T19:18:37Z</time>
</trkpt>
<trkpt lat="38.09664725" lon="-1.45991953">
<ele>966</ele>
<time>2014-06-03T19:18:39Z</time>
</trkpt>
<trkpt lat="38.09657466" lon="-1.45993935">
<ele>966</ele>
<time>2014-06-03T19:18:41Z</time>
</trkpt>
<trkpt lat="38.0965204" lon="-1.46001132">
<ele>967</ele>
<time>2014-06-03T19:18:43Z</time>
</trkpt>
<trkpt lat="38.09650599" lon="-1.46011577">
<ele>967</ele>
<time>2014-06-03T19:18:45Z</time>
</trkpt>
<trkpt lat="38.09649937" lon="-1.46025468">
<ele>967</ele>
<time>2014-06-03T19:18:47Z</time>
</trkpt>
<trkpt lat="38.09649915" lon="-1.46038195">
<ele>967</ele>
<time>2014-06-03T19:18:49Z</time>
</trkpt>
<trkpt lat="38.09648267" lon="-1.46051647">
<ele>968</ele>
<time>2014-06-03T19:18:51Z</time>
</trkpt>
<trkpt lat="38.09646639" lon="-1.46065933">
<ele>969</ele>
<time>2014-06-03T19:18:53Z</time>
</trkpt>
<trkpt lat="38.09644333" lon="-1.46076723">
<ele>970</ele>
<time>2014-06-03T19:18:55Z</time>
</trkpt>
<trkpt lat="38.09641209" lon="-1.4608814">
<ele>972</ele>
<time>2014-06-03T19:18:57Z</time>
</trkpt>
<trkpt lat="38.09636075" lon="-1.46097341">
<ele>973</ele>
<time>2014-06-03T19:18:59Z</time>
</trkpt>
<trkpt lat="38.09631615" lon="-1.46110206">
<ele>974</ele>
<time>2014-06-03T19:19:01Z</time>
</trkpt>
<trkpt lat="38.0962692" lon="-1.46121074">
<ele>975</ele>
<time>2014-06-03T19:19:03Z</time>
</trkpt>
<trkpt lat="38.09624768" lon="-1.46129402">
<ele>979</ele>
<time>2014-06-03T19:19:05Z</time>
</trkpt>
<trkpt lat="38.09621539" lon="-1.46137433">
<ele>983</ele>
<time>2014-06-03T19:19:07Z</time>
</trkpt>
<trkpt lat="38.0961967" lon="-1.46147764">
<ele>984</ele>
<time>2014-06-03T19:19:09Z</time>
</trkpt>
<trkpt lat="38.09614665" lon="-1.46153274">
<ele>986</ele>
<time>2014-06-03T19:19:11Z</time>
</trkpt>
<trkpt lat="38.09608662" lon="-1.46153206">
<ele>990</ele>
<time>2014-06-03T19:19:13Z</time>
</trkpt>
<trkpt lat="38.09606682" lon="-1.46147102">
<ele>1001</ele>
<time>2014-06-03T19:19:15Z</time>
</trkpt>
<trkpt lat="38.09603866" lon="-1.46130953">
<ele>1003</ele>
<time>2014-06-03T19:19:17Z</time>
</trkpt>
<trkpt lat="38.0960882" lon="-1.46109579">
<ele>1007</ele>
<time>2014-06-03T19:19:19Z</time>
</trkpt>
<trkpt lat="38.09622955" lon="-1.46090895">
<ele>1009</ele>
<time>2014-06-03T19:19:21Z</time>
</trkpt>
<trkpt lat="38.09642004" lon="-1.46078248">
<ele>1010</ele>
<time>2014-06-03T19:19:23Z</time>
</trkpt>
<trkpt lat="38.09665239" lon="-1.46080531">
<ele>1010</ele>
<time>2014-06-03T19:19:25Z</time>
</trkpt>
<trkpt lat="38.09685175" lon="-1.46094261">
<ele>1012</ele>
<time>2014-06-03T19:19:27Z</time>
</trkpt>
<trkpt lat="38.09697901" lon="-1.46112697">
<ele>1013</ele>
<time>2014-06-03T19:19:29Z</time>
</trkpt>
<trkpt lat="38.09704968" lon="-1.46129247">
<ele>1017</ele>
<time>2014-06-03T19:19:31Z</time>
</trkpt>
<trkpt lat="38.09708235" lon="-1.4614444">
<ele>1018</ele>
<time>2014-06-03T19:19:33Z</time>
</trkpt>
<trkpt lat="38.09707447" lon="-1.46156449">
<ele>1019</ele>
<time>2014-06-03T19:19:35Z</time>
</trkpt>
<trkpt lat="38.09703677" lon="-1.46167475">
<ele>1022</ele>
<time>2014-06-03T19:19:37Z</time>
</trkpt>
<trkpt lat="38.09698026" lon="-1.46175024">
<ele>1023</ele>
<time>2014-06-03T19:19:39Z</time>
</trkpt>
<trkpt lat="38.09693439" lon="-1.46178281">
<ele>1024</ele>
<time>2014-06-03T19:19:41Z</time>
</trkpt>
<trkpt lat="38.09685324" lon="-1.4618078">
<ele>1025</ele>
<time>2014-06-03T19:19:43Z</time>
</trkpt>
<trkpt lat="38.09677116" lon="-1.46182558">
<ele>1028</ele>
<time>2014-06-03T19:19:45Z</time>
</trkpt>
<trkpt lat="38.09670153" lon="-1.46183205">
<ele>1031</ele>
<time>2014-06-03T19:19:47Z</time>
</trkpt>
<trkpt lat="38.09662095" lon="-1.46178019">
<ele>1032</ele>
<time>2014-06-03T19:19:49Z</time>
</trkpt>
<trkpt lat="38.09655242" lon="-1.46174226">
<ele>1032</ele>
<time>2014-06-03T19:19:51Z</time>
</trkpt>
<trkpt lat="38.0964673" lon="-1.46166904">
<ele>1030</ele>
<time>2014-06-03T19:19:53Z</time>
</trkpt>
<trkpt lat="38.09637965" lon="-1.46158085">
<ele>1029</ele>
<time>2014-06-03T19:19:55Z</time>
</trkpt>
<trkpt lat="38.09628877" lon="-1.46150082">
<ele>1032</ele>
<time>2014-06-03T19:19:57Z</time>
</trkpt>
<trkpt lat="38.09618448" lon="-1.46140753">
<ele>1031</ele>
<time>2014-06-03T19:19:59Z</time>
</trkpt>
<trkpt lat="38.09609787" lon="-1.46135099">
<ele>1031</ele>
<time>2014-06-03T19:20:01Z</time>
</trkpt>
<trkpt lat="38.0960556" lon="-1.46127691">
<ele>1034</ele>
<time>2014-06-03T19:20:03Z</time>
</trkpt>
<trkpt lat="38.09601134" lon="-1.46110269">
<ele>1034</ele>
<time>2014-06-03T19:20:05Z</time>
</trkpt>
<trkpt lat="38.09596614" lon="-1.46087121">
<ele>1035</ele>
<time>2014-06-03T19:20:07Z</time>
</trkpt>
<trkpt lat="38.09592708" lon="-1.46064477">
<ele>1036</ele>
<time>2014-06-03T19:20:09Z</time>
</trkpt>
<trkpt lat="38.09591203" lon="-1.4604027">
<ele>1039</ele>
<time>2014-06-03T19:20:11Z</time>
</trkpt>
<trkpt lat="38.09591452" lon="-1.46016562">
<ele>1040</ele>
<time>2014-06-03T19:20:13Z</time>
</trkpt>
<trkpt lat="38.09594224" lon="-1.45989903">
<ele>1040</ele>
<time>2014-06-03T19:20:15Z</time>
</trkpt>
<trkpt lat="38.09598898" lon="-1.45964829">
<ele>1042</ele>
<time>2014-06-03T19:20:17Z</time>
</trkpt>
<trkpt lat="38.09603169" lon="-1.45938111">
<ele>1040</ele>
<time>2014-06-03T19:20:19Z</time>
</trkpt>
<trkpt lat="38.09610607" lon="-1.45911761">
<ele>1039</ele>
<time>2014-06-03T19:20:21Z</time>
</trkpt>
<trkpt lat="38.09619451" lon="-1.45884251">
<ele>1039</ele>
<time>2014-06-03T19:20:23Z</time>
</trkpt>
<trkpt lat="38.09630077" lon="-1.4586079">
<ele>1040</ele>
<time>2014-06-03T19:20:25Z</time>
</trkpt>
<trkpt lat="38.09642694" lon="-1.45834517">
<ele>1040</ele>
<time>2014-06-03T19:20:27Z</time>
</trkpt>
<trkpt lat="38.09655563" lon="-1.45812066">
<ele>1040</ele>
<time>2014-06-03T19:20:29Z</time>
</trkpt>
<trkpt lat="38.09669713" lon="-1.45788735">
<ele>1041</ele>
<time>2014-06-03T19:20:31Z</time>
</trkpt>
<trkpt lat="38.0968543" lon="-1.45767031">
<ele>1041</ele>
<time>2014-06-03T19:20:33Z</time>
</trkpt>
<trkpt lat="38.09701383" lon="-1.45746531">
<ele>1042</ele>
<time>2014-06-03T19:20:35Z</time>
</trkpt>
<trkpt lat="38.0971883" lon="-1.45726341">
<ele>1041</ele>
<time>2014-06-03T19:20:37Z</time>
</trkpt>
<trkpt lat="38.09734989" lon="-1.45705476">
<ele>1041</ele>
<time>2014-06-03T19:20:39Z</time>
</trkpt>
<trkpt lat="38.09751568" lon="-1.4568304">
<ele>1038</ele>
<time>2014-06-03T19:20:41Z</time>
</trkpt>
<trkpt lat="38.0976855" lon="-1.45659774">
<ele>1038</ele>
<time>2014-06-03T19:20:43Z</time>
</trkpt>
<trkpt lat="38.09785829" lon="-1.45636981">
<ele>1038</ele>
<time>2014-06-03T19:20:45Z</time>
</trkpt>
<trkpt lat="38.09802139" lon="-1.45613339">
<ele>1039</ele>
<time>2014-06-03T19:20:47Z</time>
</trkpt>
<trkpt lat="38.09816996" lon="-1.4559054">
<ele>1040</ele>
<time>2014-06-03T19:20:49Z</time>
</trkpt>
<trkpt lat="38.09833119" lon="-1.45567728">
<ele>1040</ele>
<time>2014-06-03T19:20:51Z</time>
</trkpt>
<trkpt lat="38.09845477" lon="-1.45545439">
<ele>1035</ele>
<time>2014-06-03T19:20:53Z</time>
</trkpt>
<trkpt lat="38.09862335" lon="-1.45521403">
<ele>1034</ele>
<time>2014-06-03T19:20:55Z</time>
</trkpt>
<trkpt lat="38.09879303" lon="-1.45499605">
<ele>1034</ele>
<time>2014-06-03T19:20:57Z</time>
</trkpt>
<trkpt lat="38.09896306" lon="-1.45475954">
<ele>1032</ele>
<time>2014-06-03T19:20:59Z</time>
</trkpt>
<trkpt lat="38.0991359" lon="-1.45452572">
<ele>1033</ele>
<time>2014-06-03T19:21:01Z</time>
</trkpt>
<trkpt lat="38.09928702" lon="-1.45429379">
<ele>1032</ele>
<time>2014-06-03T19:21:03Z</time>
</trkpt>
<trkpt lat="38.09944666" lon="-1.45407653">
<ele>1030</ele>
<time>2014-06-03T19:21:05Z</time>
</trkpt>
<trkpt lat="38.09962006" lon="-1.45383604">
<ele>1031</ele>
<time>2014-06-03T19:21:07Z</time>
</trkpt>
<trkpt lat="38.09978233" lon="-1.45364081">
<ele>1031</ele>
<time>2014-06-03T19:21:09Z</time>
</trkpt>
<trkpt lat="38.09993229" lon="-1.45340852">
<ele>1030</ele>
<time>2014-06-03T19:21:11Z</time>
</trkpt>
<trkpt lat="38.10008207" lon="-1.45319545">
<ele>1032</ele>
<time>2014-06-03T19:21:13Z</time>
</trkpt>
<trkpt lat="38.10019495" lon="-1.45296289">
<ele>1029</ele>
<time>2014-06-03T19:21:15Z</time>
</trkpt>
<trkpt lat="38.1003267" lon="-1.45271753">
<ele>1026</ele>
<time>2014-06-03T19:21:17Z</time>
</trkpt>
<trkpt lat="38.10045647" lon="-1.45247628">
<ele>1026</ele>
<time>2014-06-03T19:21:19Z</time>
</trkpt>
<trkpt lat="38.10057833" lon="-1.45224212">
<ele>1025</ele>
<time>2014-06-03T19:21:21Z</time>
</trkpt>
<trkpt lat="38.10071377" lon="-1.45203469">
<ele>1020</ele>
<time>2014-06-03T19:21:23Z</time>
</trkpt>
<trkpt lat="38.1008523" lon="-1.45180288">
<ele>1020</ele>
<time>2014-06-03T19:21:25Z</time>
</trkpt>
<trkpt lat="38.10102409" lon="-1.45156755">
<ele>1024</ele>
<time>2014-06-03T19:21:27Z</time>
</trkpt>
<trkpt lat="38.10116708" lon="-1.45133947">
<ele>1022</ele>
<time>2014-06-03T19:21:29Z</time>
</trkpt>
<trkpt lat="38.10133249" lon="-1.45109031">
<ele>1026</ele>
<time>2014-06-03T19:21:31Z</time>
</trkpt>
<trkpt lat="38.10150777" lon="-1.45086795">
<ele>1031</ele>
<time>2014-06-03T19:21:33Z</time>
</trkpt>
<trkpt lat="38.10164541" lon="-1.45062707">
<ele>1030</ele>
<time>2014-06-03T19:21:35Z</time>
</trkpt>
<trkpt lat="38.1017818" lon="-1.45039836">
<ele>1028</ele>
<time>2014-06-03T19:21:37Z</time>
</trkpt>
<trkpt lat="38.10192256" lon="-1.45016542">
<ele>1025</ele>
<time>2014-06-03T19:21:39Z</time>
</trkpt>
<trkpt lat="38.10203806" lon="-1.4499089">
<ele>1024</ele>
<time>2014-06-03T19:21:41Z</time>
</trkpt>
<trkpt lat="38.10216339" lon="-1.44968621">
<ele>1020</ele>
<time>2014-06-03T19:21:43Z</time>
</trkpt>
<trkpt lat="38.10230428" lon="-1.44946773">
<ele>1020</ele>
<time>2014-06-03T19:21:45Z</time>
</trkpt>
<trkpt lat="38.1024442" lon="-1.44922805">
<ele>1018</ele>
<time>2014-06-03T19:21:47Z</time>
</trkpt>
<trkpt lat="38.10257604" lon="-1.44899037">
<ele>1016</ele>
<time>2014-06-03T19:21:49Z</time>
</trkpt>
<trkpt lat="38.10273208" lon="-1.44879187">
<ele>1014</ele>
<time>2014-06-03T19:21:51Z</time>
</trkpt>
<trkpt lat="38.10291252" lon="-1.44857192">
<ele>1011</ele>
<time>2014-06-03T19:21:53Z</time>
</trkpt>
<trkpt lat="38.10308056" lon="-1.44833753">
<ele>1011</ele>
<time>2014-06-03T19:21:55Z</time>
</trkpt>
<trkpt lat="38.10326814" lon="-1.44814687">
<ele>1011</ele>
<time>2014-06-03T19:21:57Z</time>
</trkpt>
<trkpt lat="38.10342823" lon="-1.4479487">
<ele>1011</ele>
<time>2014-06-03T19:21:59Z</time>
</trkpt>
<trkpt lat="38.10359307" lon="-1.44767356">
<ele>1009</ele>
<time>2014-06-03T19:22:01Z</time>
</trkpt>
<trkpt lat="38.10376234" lon="-1.44744652">
<ele>1011</ele>
<time>2014-06-03T19:22:03Z</time>
</trkpt>
<trkpt lat="38.1039288" lon="-1.44720528">
<ele>1011</ele>
<time>2014-06-03T19:22:05Z</time>
</trkpt>
<trkpt lat="38.10410559" lon="-1.44696165">
<ele>1012</ele>
<time>2014-06-03T19:22:07Z</time>
</trkpt>
<trkpt lat="38.10426561" lon="-1.44672527">
<ele>1013</ele>
<time>2014-06-03T19:22:09Z</time>
</trkpt>
<trkpt lat="38.10440446" lon="-1.44648716">
<ele>1009</ele>
<time>2014-06-03T19:22:11Z</time>
</trkpt>
<trkpt lat="38.10458024" lon="-1.44623139">
<ele>1011</ele>
<time>2014-06-03T19:22:13Z</time>
</trkpt>
<trkpt lat="38.10476934" lon="-1.44598916">
<ele>1007</ele>
<time>2014-06-03T19:22:15Z</time>
</trkpt>
<trkpt lat="38.10494772" lon="-1.44577709">
<ele>1006</ele>
<time>2014-06-03T19:22:17Z</time>
</trkpt>
<trkpt lat="38.10511524" lon="-1.44555112">
<ele>1008</ele>
<time>2014-06-03T19:22:19Z</time>
</trkpt>
<trkpt lat="38.10529467" lon="-1.44530177">
<ele>1012</ele>
<time>2014-06-03T19:22:21Z</time>
</trkpt>
<trkpt lat="38.10545882" lon="-1.4450847">
<ele>1012</ele>
<time>2014-06-03T19:22:23Z</time>
</trkpt>
<trkpt lat="38.10562839" lon="-1.44482241">
<ele>1013</ele>
<time>2014-06-03T19:22:25Z</time>
</trkpt>
<trkpt lat="38.10579716" lon="-1.44459364">
<ele>1016</ele>
<time>2014-06-03T19:22:27Z</time>
</trkpt>
<trkpt lat="38.10594836" lon="-1.4443634">
<ele>1018</ele>
<time>2014-06-03T19:22:29Z</time>
</trkpt>
<trkpt lat="38.10610549" lon="-1.44411523">
<ele>1019</ele>
<time>2014-06-03T19:22:31Z</time>
</trkpt>
<trkpt lat="38.10626347" lon="-1.44386118">
<ele>1018</ele>
<time>2014-06-03T19:22:33Z</time>
</trkpt>
<trkpt lat="38.10642014" lon="-1.44362269">
<ele>1019</ele>
<time>2014-06-03T19:22:35Z</time>
</trkpt>
<trkpt lat="38.10659584" lon="-1.44339317">
<ele>1022</ele>
<time>2014-06-03T19:22:37Z</time>
</trkpt>
<trkpt lat="38.10677365" lon="-1.44315481">
<ele>1021</ele>
<time>2014-06-03T19:22:39Z</time>
</trkpt>
<trkpt lat="38.1069387" lon="-1.44292213">
<ele>1022</ele>
<time>2014-06-03T19:22:41Z</time>
</trkpt>
<trkpt lat="38.10710876" lon="-1.44269592">
<ele>1022</ele>
<time>2014-06-03T19:22:43Z</time>
</trkpt>
<trkpt lat="38.10728454" lon="-1.44245529">
<ele>1022</ele>
<time>2014-06-03T19:22:45Z</time>
</trkpt>
<trkpt lat="38.1074578" lon="-1.44222295">
<ele>1023</ele>
<time>2014-06-03T19:22:47Z</time>
</trkpt>
<trkpt lat="38.10762541" lon="-1.44200506">
<ele>1023</ele>
<time>2014-06-03T19:22:49Z</time>
</trkpt>
<trkpt lat="38.10780343" lon="-1.44176333">
<ele>1023</ele>
<time>2014-06-03T19:22:51Z</time>
</trkpt>
<trkpt lat="38.10800822" lon="-1.44151143">
<ele>1027</ele>
<time>2014-06-03T19:22:53Z</time>
</trkpt>
<trkpt lat="38.10816687" lon="-1.44126783">
<ele>1026</ele>
<time>2014-06-03T19:22:55Z</time>
</trkpt>
<trkpt lat="38.10831676" lon="-1.44101458">
<ele>1025</ele>
<time>2014-06-03T19:22:57Z</time>
</trkpt>
<trkpt lat="38.1084763" lon="-1.440783">
<ele>1027</ele>
<time>2014-06-03T19:22:59Z</time>
</trkpt>
<trkpt lat="38.10863989" lon="-1.44052842">
<ele>1029</ele>
<time>2014-06-03T19:23:01Z</time>
</trkpt>
<trkpt lat="38.10881043" lon="-1.44029294">
<ele>1030</ele>
<time>2014-06-03T19:23:03Z</time>
</trkpt>
<trkpt lat="38.10897765" lon="-1.44007742">
<ele>1029</ele>
<time>2014-06-03T19:23:05Z</time>
</trkpt>
<trkpt lat="38.10914561" lon="-1.43983447">
<ele>1030</ele>
<time>2014-06-03T19:23:07Z</time>
</trkpt>
<trkpt lat="38.10931304" lon="-1.43959965">
<ele>1026</ele>
<time>2014-06-03T19:23:09Z</time>
</trkpt>
<trkpt lat="38.10949244" lon="-1.43935246">
<ele>1027</ele>
<time>2014-06-03T19:23:11Z</time>
</trkpt>
<trkpt lat="38.10967014" lon="-1.43914919">
<ele>1027</ele>
<time>2014-06-03T19:23:13Z</time>
</trkpt>
<trkpt lat="38.1098272" lon="-1.43893539">
<ele>1026</ele>
<time>2014-06-03T19:23:15Z</time>
</trkpt>
<trkpt lat="38.11002126" lon="-1.43874986">
<ele>1027</ele>
<time>2014-06-03T19:23:17Z</time>
</trkpt>
<trkpt lat="38.11020117" lon="-1.43855699">
<ele>1025</ele>
<time>2014-06-03T19:23:19Z</time>
</trkpt>
<trkpt lat="38.11038441" lon="-1.43836947">
<ele>1021</ele>
<time>2014-06-03T19:23:21Z</time>
</trkpt>
<trkpt lat="38.11055685" lon="-1.43818986">
<ele>1017</ele>
<time>2014-06-03T19:23:23Z</time>
</trkpt>
<trkpt lat="38.11069634" lon="-1.43798581">
<ele>1016</ele>
<time>2014-06-03T19:23:25Z</time>
</trkpt>
<trkpt lat="38.11084978" lon="-1.43776862">
<ele>1017</ele>
<time>2014-06-03T19:23:27Z</time>
</trkpt>
<trkpt lat="38.11095172" lon="-1.43755553">
<ele>1016</ele>
<time>2014-06-03T19:23:29Z</time>
</trkpt>
<trkpt lat="38.11108073" lon="-1.43732503">
<ele>1015</ele>
<time>2014-06-03T19:23:31Z</time>
</trkpt>
<trkpt lat="38.11116807" lon="-1.4371339">
<ele>1011</ele>
<time>2014-06-03T19:23:33Z</time>
</trkpt>
<trkpt lat="38.11121688" lon="-1.43694017">
<ele>1007</ele>
<time>2014-06-03T19:23:35Z</time>
</trkpt>
<trkpt lat="38.11126992" lon="-1.43676288">
<ele>1006</ele>
<time>2014-06-03T19:23:37Z</time>
</trkpt>
<trkpt lat="38.11115517" lon="-1.43670772">
<ele>999</ele>
<time>2014-06-03T19:23:39Z</time>
</trkpt>
<trkpt lat="38.11109726" lon="-1.43660914">
<ele>997</ele>
<time>2014-06-03T19:23:41Z</time>
</trkpt>
<trkpt lat="38.11102281" lon="-1.43653028">
<ele>1004</ele>
<time>2014-06-03T19:23:43Z</time>
</trkpt>
<trkpt lat="38.11097267" lon="-1.43646588">
<ele>1005</ele>
<time>2014-06-03T19:23:45Z</time>
</trkpt>
<trkpt lat="38.11092209" lon="-1.43638566">
<ele>1005</ele>
<time>2014-06-03T19:23:47Z</time>
</trkpt>
<trkpt lat="38.11084074" lon="-1.43634656">
<ele>1004</ele>
<time>2014-06-03T19:23:49Z</time>
</trkpt>
<trkpt lat="38.1107659" lon="-1.43631476">
<ele>1002</ele>
<time>2014-06-03T19:23:51Z</time>
</trkpt>
<trkpt lat="38.11067229" lon="-1.43626065">
<ele>1001</ele>
<time>2014-06-03T19:23:53Z</time>
</trkpt>
<trkpt lat="38.11058119" lon="-1.43621085">
<ele>1000</ele>
<time>2014-06-03T19:23:55Z</time>
</trkpt>
<trkpt lat="38.11048908" lon="-1.43619346">
<ele>1000</ele>
<time>2014-06-03T19:23:57Z</time>
</trkpt>
<trkpt lat="38.11039654" lon="-1.43618071">
<ele>1000</ele>
<time>2014-06-03T19:23:59Z</time>
</trkpt>
<trkpt lat="38.11029969" lon="-1.4361585">
<ele>1001</ele>
<time>2014-06-03T19:24:01Z</time>
</trkpt>
<trkpt lat="38.11020549" lon="-1.43616106">
<ele>1002</ele>
<time>2014-06-03T19:24:03Z</time>
</trkpt>
<trkpt lat="38.1101476" lon="-1.43618571">
<ele>1002</ele>
<time>2014-06-03T19:24:05Z</time>
</trkpt>
<trkpt lat="38.1101048" lon="-1.436205">
<ele>1001</ele>
<time>2014-06-03T19:24:07Z</time>
</trkpt>
<trkpt lat="38.11002927" lon="-1.43620693">
<ele>996</ele>
<time>2014-06-03T19:24:09Z</time>
</trkpt>
<trkpt lat="38.1099563" lon="-1.43621937">
<ele>998</ele>
<time>2014-06-03T19:24:11Z</time>
</trkpt>
<trkpt lat="38.10988321" lon="-1.43619552">
<ele>1001</ele>
<time>2014-06-03T19:24:13Z</time>
</trkpt>
<trkpt lat="38.1098029" lon="-1.43615659">
<ele>999</ele>
<time>2014-06-03T19:24:15Z</time>
</trkpt>
<trkpt lat="38.10973679" lon="-1.43614195">
<ele>998</ele>
<time>2014-06-03T19:24:17Z</time>
</trkpt>
<trkpt lat="38.10967321" lon="-1.43613874">
<ele>996</ele>
<time>2014-06-03T19:24:19Z</time>
</trkpt>
<trkpt lat="38.10962414" lon="-1.43615587">
<ele>995</ele>
<time>2014-06-03T19:24:21Z</time>
</trkpt>
<trkpt lat="38.10955925" lon="-1.43620529">
<ele>993</ele>
<time>2014-06-03T19:24:23Z</time>
</trkpt>
<trkpt lat="38.10951576" lon="-1.43623235">
<ele>995</ele>
<time>2014-06-03T19:24:25Z</time>
</trkpt>
<trkpt lat="38.10946373" lon="-1.43625393">
<ele>995</ele>
<time>2014-06-03T19:24:27Z</time>
</trkpt>
<trkpt lat="38.10940449" lon="-1.43626612">
<ele>995</ele>
<time>2014-06-03T19:24:29Z</time>
</trkpt>
<trkpt lat="38.10935454" lon="-1.43627369">
<ele>995</ele>
<time>2014-06-03T19:24:31Z</time>
</trkpt>
<trkpt lat="38.10931525" lon="-1.43629355">
<ele>995</ele>
<time>2014-06-03T19:24:33Z</time>
</trkpt>
<trkpt lat="38.10927095" lon="-1.43631284">
<ele>995</ele>
<time>2014-06-03T19:24:35Z</time>
</trkpt>
<trkpt lat="38.10922137" lon="-1.43636435">
<ele>994</ele>
<time>2014-06-03T19:24:37Z</time>
</trkpt>
<trkpt lat="38.10917624" lon="-1.43640007">
<ele>995</ele>
<time>2014-06-03T19:24:39Z</time>
</trkpt>
<trkpt lat="38.1091416" lon="-1.43644359">
<ele>994</ele>
<time>2014-06-03T19:24:41Z</time>
</trkpt>
<trkpt lat="38.10909595" lon="-1.43651332">
<ele>992</ele>
<time>2014-06-03T19:24:43Z</time>
</trkpt>
<trkpt lat="38.10904104" lon="-1.43659671">
<ele>992</ele>
<time>2014-06-03T19:24:45Z</time>
</trkpt>
<trkpt lat="38.10901421" lon="-1.43665735">
<ele>992</ele>
<time>2014-06-03T19:24:47Z</time>
</trkpt>
<trkpt lat="38.10898884" lon="-1.43670564">
<ele>991</ele>
<time>2014-06-03T19:24:49Z</time>
</trkpt>
<trkpt lat="38.10894338" lon="-1.43675362">
<ele>989</ele>
<time>2014-06-03T19:24:51Z</time>
</trkpt>
<trkpt lat="38.10889512" lon="-1.43679855">
<ele>987</ele>
<time>2014-06-03T19:24:53Z</time>
</trkpt>
<trkpt lat="38.10884064" lon="-1.43686164">
<ele>986</ele>
<time>2014-06-03T19:24:55Z</time>
</trkpt>
<trkpt lat="38.10879207" lon="-1.4369237">
<ele>984</ele>
<time>2014-06-03T19:24:57Z</time>
</trkpt>
<trkpt lat="38.10874218" lon="-1.43699155">
<ele>980</ele>
<time>2014-06-03T19:24:59Z</time>
</trkpt>
<trkpt lat="38.10871688" lon="-1.43707589">
<ele>978</ele>
<time>2014-06-03T19:25:01Z</time>
</trkpt>
<trkpt lat="38.10867878" lon="-1.43715923">
<ele>976</ele>
<time>2014-06-03T19:25:03Z</time>
</trkpt>
<trkpt lat="38.10862309" lon="-1.43722181">
<ele>976</ele>
<time>2014-06-03T19:25:05Z</time>
</trkpt>
<trkpt lat="38.10855469" lon="-1.43731808">
<ele>977</ele>
<time>2014-06-03T19:25:07Z</time>
</trkpt>
<trkpt lat="38.10847897" lon="-1.43741657">
<ele>979</ele>
<time>2014-06-03T19:25:09Z</time>
</trkpt>
<trkpt lat="38.10840934" lon="-1.43747849">
<ele>981</ele>
<time>2014-06-03T19:25:11Z</time>
</trkpt>
<trkpt lat="38.10833989" lon="-1.43752911">
<ele>981</ele>
<time>2014-06-03T19:25:13Z</time>
</trkpt>
<trkpt lat="38.10826371" lon="-1.4375589">
<ele>981</ele>
<time>2014-06-03T19:25:15Z</time>
</trkpt>
<trkpt lat="38.10819311" lon="-1.43757453">
<ele>979</ele>
<time>2014-06-03T19:25:17Z</time>
</trkpt>
<trkpt lat="38.10814756" lon="-1.43764454">
<ele>979</ele>
<time>2014-06-03T19:25:19Z</time>
</trkpt>
<trkpt lat="38.1081139" lon="-1.43769232">
<ele>979</ele>
<time>2014-06-03T19:25:21Z</time>
</trkpt>
<trkpt lat="38.1080443" lon="-1.43773931">
<ele>979</ele>
<time>2014-06-03T19:25:23Z</time>
</trkpt>
<trkpt lat="38.10798632" lon="-1.4377804">
<ele>983</ele>
<time>2014-06-03T19:25:25Z</time>
</trkpt>
<trkpt lat="38.10797798" lon="-1.43780124">
<ele>983</ele>
<time>2014-06-03T19:25:27Z</time>
</trkpt>
<trkpt lat="38.10791554" lon="-1.43785563">
<ele>978</ele>
<time>2014-06-03T19:25:29Z</time>
</trkpt>
<trkpt lat="38.10783451" lon="-1.43786473">
<ele>978</ele>
<time>2014-06-03T19:25:31Z</time>
</trkpt>
<trkpt lat="38.10781503" lon="-1.43786919">
<ele>979</ele>
<time>2014-06-03T19:25:33Z</time>
</trkpt>
<trkpt lat="38.10777323" lon="-1.43790006">
<ele>975</ele>
<time>2014-06-03T19:25:35Z</time>
</trkpt>
<trkpt lat="38.10771142" lon="-1.43793284">
<ele>976</ele>
<time>2014-06-03T19:25:37Z</time>
</trkpt>
<trkpt lat="38.10765512" lon="-1.43792474">
<ele>978</ele>
<time>2014-06-03T19:25:39Z</time>
</trkpt>
<trkpt lat="38.10761784" lon="-1.43793567">
<ele>979</ele>
<time>2014-06-03T19:25:41Z</time>
</trkpt>
<trkpt lat="38.10754416" lon="-1.43792769">
<ele>979</ele>
<time>2014-06-03T19:25:43Z</time>
</trkpt>
<trkpt lat="38.1074872" lon="-1.43790371">
<ele>982</ele>
<time>2014-06-03T19:25:45Z</time>
</trkpt>
<trkpt lat="38.10745852" lon="-1.43787891">
<ele>983</ele>
<time>2014-06-03T19:25:47Z</time>
</trkpt>
<trkpt lat="38.10740195" lon="-1.43786922">
<ele>983</ele>
<time>2014-06-03T19:25:49Z</time>
</trkpt>
<trkpt lat="38.1073318" lon="-1.4378247">
<ele>984</ele>
<time>2014-06-03T19:25:51Z</time>
</trkpt>
<trkpt lat="38.10729771" lon="-1.43779572">
<ele>985</ele>
<time>2014-06-03T19:25:53Z</time>
</trkpt>
<trkpt lat="38.10722824" lon="-1.43779866">
<ele>983</ele>
<time>2014-06-03T19:25:55Z</time>
</trkpt>
<trkpt lat="38.10714661" lon="-1.4377575">
<ele>984</ele>
<time>2014-06-03T19:25:57Z</time>
</trkpt>
<trkpt lat="38.10709206" lon="-1.43771021">
<ele>986</ele>
<time>2014-06-03T19:25:59Z</time>
</trkpt>
<trkpt lat="38.10703483" lon="-1.43770964">
<ele>986</ele>
<time>2014-06-03T19:26:01Z</time>
</trkpt>
<trkpt lat="38.10696923" lon="-1.43769295">
<ele>985</ele>
<time>2014-06-03T19:26:03Z</time>
</trkpt>
<trkpt lat="38.10690874" lon="-1.43770393">
<ele>986</ele>
<time>2014-06-03T19:26:05Z</time>
</trkpt>
<trkpt lat="38.10684624" lon="-1.43775107">
<ele>985</ele>
<time>2014-06-03T19:26:07Z</time>
</trkpt>
<trkpt lat="38.1067909" lon="-1.4377826">
<ele>987</ele>
<time>2014-06-03T19:26:09Z</time>
</trkpt>
<trkpt lat="38.10673484" lon="-1.43782688">
<ele>986</ele>
<time>2014-06-03T19:26:11Z</time>
</trkpt>
<trkpt lat="38.10667916" lon="-1.43796298">
<ele>983</ele>
<time>2014-06-03T19:26:13Z</time>
</trkpt>
<trkpt lat="38.10663676" lon="-1.43798786">
<ele>982</ele>
<time>2014-06-03T19:26:15Z</time>
</trkpt>
<trkpt lat="38.10658986" lon="-1.43806462">
<ele>982</ele>
<time>2014-06-03T19:26:17Z</time>
</trkpt>
<trkpt lat="38.10652462" lon="-1.43813916">
<ele>980</ele>
<time>2014-06-03T19:26:19Z</time>
</trkpt>
<trkpt lat="38.10646441" lon="-1.43814751">
<ele>981</ele>
<time>2014-06-03T19:26:21Z</time>
</trkpt>
<trkpt lat="38.10641901" lon="-1.4381509">
<ele>980</ele>
<time>2014-06-03T19:26:23Z</time>
</trkpt>
<trkpt lat="38.10638326" lon="-1.43816167">
<ele>978</ele>
<time>2014-06-03T19:26:25Z</time>
</trkpt>
<trkpt lat="38.10632333" lon="-1.43815439">
<ele>979</ele>
<time>2014-06-03T19:26:27Z</time>
</trkpt>
<trkpt lat="38.10626904" lon="-1.43815143">
<ele>981</ele>
<time>2014-06-03T19:26:29Z</time>
</trkpt>
<trkpt lat="38.10620915" lon="-1.4381451">
<ele>980</ele>
<time>2014-06-03T19:26:31Z</time>
</trkpt>
<trkpt lat="38.10614792" lon="-1.43813031">
<ele>980</ele>
<time>2014-06-03T19:26:33Z</time>
</trkpt>
<trkpt lat="38.10606554" lon="-1.43808615">
<ele>983</ele>
<time>2014-06-03T19:26:35Z</time>
</trkpt>
<trkpt lat="38.10600479" lon="-1.43805425">
<ele>985</ele>
<time>2014-06-03T19:26:37Z</time>
</trkpt>
<trkpt lat="38.10592723" lon="-1.43802653">
<ele>986</ele>
<time>2014-06-03T19:26:39Z</time>
</trkpt>
<trkpt lat="38.10586538" lon="-1.43796379">
<ele>987</ele>
<time>2014-06-03T19:26:41Z</time>
</trkpt>
<trkpt lat="38.10580759" lon="-1.43790538">
<ele>986</ele>
<time>2014-06-03T19:26:43Z</time>
</trkpt>
<trkpt lat="38.10574606" lon="-1.43785549">
<ele>989</ele>
<time>2014-06-03T19:26:45Z</time>
</trkpt>
<trkpt lat="38.10567816" lon="-1.43779634">
<ele>990</ele>
<time>2014-06-03T19:26:47Z</time>
</trkpt>
<trkpt lat="38.10560183" lon="-1.43774849">
<ele>990</ele>
<time>2014-06-03T19:26:49Z</time>
</trkpt>
<trkpt lat="38.10552942" lon="-1.43769659">
<ele>990</ele>
<time>2014-06-03T19:26:51Z</time>
</trkpt>
<trkpt lat="38.10545182" lon="-1.43764234">
<ele>991</ele>
<time>2014-06-03T19:26:53Z</time>
</trkpt>
<trkpt lat="38.10537557" lon="-1.43759789">
<ele>992</ele>
<time>2014-06-03T19:26:55Z</time>
</trkpt>
<trkpt lat="38.10529547" lon="-1.43755603">
<ele>993</ele>
<time>2014-06-03T19:26:57Z</time>
</trkpt>
<trkpt lat="38.10522506" lon="-1.43752265">
<ele>993</ele>
<time>2014-06-03T19:26:59Z</time>
</trkpt>
<trkpt lat="38.10515123" lon="-1.43748394">
<ele>994</ele>
<time>2014-06-03T19:27:01Z</time>
</trkpt>
<trkpt lat="38.10509837" lon="-1.43741424">
<ele>994</ele>
<time>2014-06-03T19:27:03Z</time>
</trkpt>
<trkpt lat="38.10502736" lon="-1.43733783">
<ele>993</ele>
<time>2014-06-03T19:27:05Z</time>
</trkpt>
<trkpt lat="38.10496146" lon="-1.43726807">
<ele>992</ele>
<time>2014-06-03T19:27:07Z</time>
</trkpt>
<trkpt lat="38.10488966" lon="-1.43719394">
<ele>991</ele>
<time>2014-06-03T19:27:09Z</time>
</trkpt>
<trkpt lat="38.10481914" lon="-1.43705041">
<ele>988</ele>
<time>2014-06-03T19:27:11Z</time>
</trkpt>
<trkpt lat="38.10474626" lon="-1.43690895">
<ele>986</ele>
<time>2014-06-03T19:27:13Z</time>
</trkpt>
<trkpt lat="38.10467143" lon="-1.43683">
<ele>986</ele>
<time>2014-06-03T19:27:15Z</time>
</trkpt>
<trkpt lat="38.10458815" lon="-1.43677451">
<ele>986</ele>
<time>2014-06-03T19:27:17Z</time>
</trkpt>
<trkpt lat="38.10453544" lon="-1.43670237">
<ele>989</ele>
<time>2014-06-03T19:27:19Z</time>
</trkpt>
<trkpt lat="38.10449376" lon="-1.43663197">
<ele>989</ele>
<time>2014-06-03T19:27:21Z</time>
</trkpt>
<trkpt lat="38.10442436" lon="-1.43658875">
<ele>989</ele>
<time>2014-06-03T19:27:23Z</time>
</trkpt>
<trkpt lat="38.10435183" lon="-1.43654712">
<ele>990</ele>
<time>2014-06-03T19:27:25Z</time>
</trkpt>
<trkpt lat="38.1042817" lon="-1.43649113">
<ele>991</ele>
<time>2014-06-03T19:27:27Z</time>
</trkpt>
<trkpt lat="38.10422696" lon="-1.43643889">
<ele>992</ele>
<time>2014-06-03T19:27:29Z</time>
</trkpt>
<trkpt lat="38.10415547" lon="-1.43638059">
<ele>990</ele>
<time>2014-06-03T19:27:31Z</time>
</trkpt>
<trkpt lat="38.10406826" lon="-1.43630089">
<ele>989</ele>
<time>2014-06-03T19:27:33Z</time>
</trkpt>
<trkpt lat="38.10398553" lon="-1.43619121">
<ele>988</ele>
<time>2014-06-03T19:27:35Z</time>
</trkpt>
<trkpt lat="38.10390394" lon="-1.43606417">
<ele>985</ele>
<time>2014-06-03T19:27:37Z</time>
</trkpt>
<trkpt lat="38.10382157" lon="-1.43590785">
<ele>981</ele>
<time>2014-06-03T19:27:39Z</time>
</trkpt>
<trkpt lat="38.10377659" lon="-1.43574659">
<ele>979</ele>
<time>2014-06-03T19:27:41Z</time>
</trkpt>
<trkpt lat="38.10371631" lon="-1.43559209">
<ele>976</ele>
<time>2014-06-03T19:27:43Z</time>
</trkpt>
<trkpt lat="38.10363262" lon="-1.43547694">
<ele>970</ele>
<time>2014-06-03T19:27:45Z</time>
</trkpt>
<trkpt lat="38.10356033" lon="-1.43538866">
<ele>968</ele>
<time>2014-06-03T19:27:47Z</time>
</trkpt>
<trkpt lat="38.10346641" lon="-1.4353641">
<ele>964</ele>
<time>2014-06-03T19:27:49Z</time>
</trkpt>
<trkpt lat="38.1033955" lon="-1.4353348">
<ele>962</ele>
<time>2014-06-03T19:27:51Z</time>
</trkpt>
<trkpt lat="38.10330188" lon="-1.43533129">
<ele>959</ele>
<time>2014-06-03T19:27:53Z</time>
</trkpt>
<trkpt lat="38.10321952" lon="-1.43533264">
<ele>953</ele>
<time>2014-06-03T19:27:55Z</time>
</trkpt>
<trkpt lat="38.10315207" lon="-1.43537399">
<ele>952</ele>
<time>2014-06-03T19:27:57Z</time>
</trkpt>
<trkpt lat="38.10308545" lon="-1.43540964">
<ele>952</ele>
<time>2014-06-03T19:27:59Z</time>
</trkpt>
<trkpt lat="38.10299915" lon="-1.43549899">
<ele>949</ele>
<time>2014-06-03T19:28:01Z</time>
</trkpt>
<trkpt lat="38.10294089" lon="-1.43553808">
<ele>948</ele>
<time>2014-06-03T19:28:03Z</time>
</trkpt>
<trkpt lat="38.1028966" lon="-1.43559084">
<ele>946</ele>
<time>2014-06-03T19:28:05Z</time>
</trkpt>
<trkpt lat="38.10283575" lon="-1.43566447">
<ele>945</ele>
<time>2014-06-03T19:28:07Z</time>
</trkpt>
<trkpt lat="38.10278181" lon="-1.43575365">
<ele>946</ele>
<time>2014-06-03T19:28:09Z</time>
</trkpt>
<trkpt lat="38.10274302" lon="-1.43583724">
<ele>944</ele>
<time>2014-06-03T19:28:11Z</time>
</trkpt>
<trkpt lat="38.10269726" lon="-1.43590687">
<ele>941</ele>
<time>2014-06-03T19:28:13Z</time>
</trkpt>
<trkpt lat="38.10267689" lon="-1.43599351">
<ele>939</ele>
<time>2014-06-03T19:28:15Z</time>
</trkpt>
<trkpt lat="38.10263939" lon="-1.43608255">
<ele>938</ele>
<time>2014-06-03T19:28:17Z</time>
</trkpt>
<trkpt lat="38.10260805" lon="-1.4361569">
<ele>937</ele>
<time>2014-06-03T19:28:19Z</time>
</trkpt>
<trkpt lat="38.10258687" lon="-1.43624084">
<ele>936</ele>
<time>2014-06-03T19:28:21Z</time>
</trkpt>
<trkpt lat="38.10254838" lon="-1.4363471">
<ele>934</ele>
<time>2014-06-03T19:28:23Z</time>
</trkpt>
<trkpt lat="38.10250071" lon="-1.43643966">
<ele>932</ele>
<time>2014-06-03T19:28:25Z</time>
</trkpt>
<trkpt lat="38.10244205" lon="-1.43652647">
<ele>931</ele>
<time>2014-06-03T19:28:27Z</time>
</trkpt>
<trkpt lat="38.10239825" lon="-1.43659905">
<ele>932</ele>
<time>2014-06-03T19:28:29Z</time>
</trkpt>
<trkpt lat="38.10235136" lon="-1.43662269">
<ele>932</ele>
<time>2014-06-03T19:28:31Z</time>
</trkpt>
<trkpt lat="38.10230119" lon="-1.43668346">
<ele>930</ele>
<time>2014-06-03T19:28:33Z</time>
</trkpt>
<trkpt lat="38.10225661" lon="-1.43676103">
<ele>931</ele>
<time>2014-06-03T19:28:35Z</time>
</trkpt>
<trkpt lat="38.10221578" lon="-1.43677921">
<ele>931</ele>
<time>2014-06-03T19:28:37Z</time>
</trkpt>
<trkpt lat="38.10215452" lon="-1.43682837">
<ele>929</ele>
<time>2014-06-03T19:28:39Z</time>
</trkpt>
<trkpt lat="38.10206869" lon="-1.43686761">
<ele>929</ele>
<time>2014-06-03T19:28:41Z</time>
</trkpt>
<trkpt lat="38.10198895" lon="-1.43684544">
<ele>928</ele>
<time>2014-06-03T19:28:43Z</time>
</trkpt>
<trkpt lat="38.1019209" lon="-1.43684733">
<ele>927</ele>
<time>2014-06-03T19:28:45Z</time>
</trkpt>
<trkpt lat="38.10183084" lon="-1.43686172">
<ele>926</ele>
<time>2014-06-03T19:28:47Z</time>
</trkpt>
<trkpt lat="38.10176529" lon="-1.43688614">
<ele>926</ele>
<time>2014-06-03T19:28:49Z</time>
</trkpt>
<trkpt lat="38.10169588" lon="-1.4369087">
<ele>924</ele>
<time>2014-06-03T19:28:51Z</time>
</trkpt>
<trkpt lat="38.10159674" lon="-1.43688559">
<ele>922</ele>
<time>2014-06-03T19:28:53Z</time>
</trkpt>
<trkpt lat="38.10152569" lon="-1.43693371">
<ele>920</ele>
<time>2014-06-03T19:28:55Z</time>
</trkpt>
<trkpt lat="38.10144384" lon="-1.4369805">
<ele>919</ele>
<time>2014-06-03T19:28:57Z</time>
</trkpt>
<trkpt lat="38.1013869" lon="-1.43702063">
<ele>918</ele>
<time>2014-06-03T19:28:59Z</time>
</trkpt>
<trkpt lat="38.10135563" lon="-1.43713125">
<ele>917</ele>
<time>2014-06-03T19:29:01Z</time>
</trkpt>
<trkpt lat="38.10130651" lon="-1.43721991">
<ele>918</ele>
<time>2014-06-03T19:29:03Z</time>
</trkpt>
<trkpt lat="38.10126396" lon="-1.43733535">
<ele>916</ele>
<time>2014-06-03T19:29:05Z</time>
</trkpt>
<trkpt lat="38.10122121" lon="-1.43745059">
<ele>918</ele>
<time>2014-06-03T19:29:07Z</time>
</trkpt>
<trkpt lat="38.10119025" lon="-1.43755334">
<ele>918</ele>
<time>2014-06-03T19:29:09Z</time>
</trkpt>
<trkpt lat="38.10116504" lon="-1.43767898">
<ele>918</ele>
<time>2014-06-03T19:29:11Z</time>
</trkpt>
<trkpt lat="38.10113361" lon="-1.43781352">
<ele>919</ele>
<time>2014-06-03T19:29:13Z</time>
</trkpt>
<trkpt lat="38.10109775" lon="-1.43792578">
<ele>919</ele>
<time>2014-06-03T19:29:15Z</time>
</trkpt>
<trkpt lat="38.10108115" lon="-1.43806947">
<ele>917</ele>
<time>2014-06-03T19:29:17Z</time>
</trkpt>
<trkpt lat="38.1010632" lon="-1.43821984">
<ele>916</ele>
<time>2014-06-03T19:29:19Z</time>
</trkpt>
<trkpt lat="38.10106724" lon="-1.43836677">
<ele>917</ele>
<time>2014-06-03T19:29:21Z</time>
</trkpt>
<trkpt lat="38.10106159" lon="-1.43849716">
<ele>919</ele>
<time>2014-06-03T19:29:23Z</time>
</trkpt>
<trkpt lat="38.10102874" lon="-1.43863755">
<ele>917</ele>
<time>2014-06-03T19:29:25Z</time>
</trkpt>
<trkpt lat="38.10100527" lon="-1.43877135">
<ele>916</ele>
<time>2014-06-03T19:29:27Z</time>
</trkpt>
<trkpt lat="38.10097603" lon="-1.43891415">
<ele>914</ele>
<time>2014-06-03T19:29:29Z</time>
</trkpt>
<trkpt lat="38.10095001" lon="-1.43903408">
<ele>914</ele>
<time>2014-06-03T19:29:31Z</time>
</trkpt>
<trkpt lat="38.10093973" lon="-1.43912472">
<ele>910</ele>
<time>2014-06-03T19:29:33Z</time>
</trkpt>
<trkpt lat="38.1009007" lon="-1.4392636">
<ele>909</ele>
<time>2014-06-03T19:29:35Z</time>
</trkpt>
<trkpt lat="38.10087816" lon="-1.43939236">
<ele>910</ele>
<time>2014-06-03T19:29:37Z</time>
</trkpt>
<trkpt lat="38.10085445" lon="-1.43951402">
<ele>912</ele>
<time>2014-06-03T19:29:39Z</time>
</trkpt>
<trkpt lat="38.10083238" lon="-1.4396242">
<ele>913</ele>
<time>2014-06-03T19:29:41Z</time>
</trkpt>
<trkpt lat="38.1007998" lon="-1.439736">
<ele>913</ele>
<time>2014-06-03T19:29:43Z</time>
</trkpt>
<trkpt lat="38.1008067" lon="-1.43989157">
<ele>912</ele>
<time>2014-06-03T19:29:45Z</time>
</trkpt>
<trkpt lat="38.10078031" lon="-1.44002419">
<ele>913</ele>
<time>2014-06-03T19:29:47Z</time>
</trkpt>
<trkpt lat="38.10077127" lon="-1.44016979">
<ele>912</ele>
<time>2014-06-03T19:29:49Z</time>
</trkpt>
<trkpt lat="38.10075926" lon="-1.44031184">
<ele>912</ele>
<time>2014-06-03T19:29:51Z</time>
</trkpt>
<trkpt lat="38.10074735" lon="-1.44046077">
<ele>914</ele>
<time>2014-06-03T19:29:53Z</time>
</trkpt>
<trkpt lat="38.10073634" lon="-1.44058643">
<ele>912</ele>
<time>2014-06-03T19:29:55Z</time>
</trkpt>
<trkpt lat="38.10071668" lon="-1.44070394">
<ele>911</ele>
<time>2014-06-03T19:29:57Z</time>
</trkpt>
<trkpt lat="38.10070103" lon="-1.44081206">
<ele>912</ele>
<time>2014-06-03T19:29:59Z</time>
</trkpt>
<trkpt lat="38.10067436" lon="-1.44093044">
<ele>909</ele>
<time>2014-06-03T19:30:01Z</time>
</trkpt>
<trkpt lat="38.10065176" lon="-1.44108132">
<ele>910</ele>
<time>2014-06-03T19:30:03Z</time>
</trkpt>
<trkpt lat="38.10062753" lon="-1.44123464">
<ele>910</ele>
<time>2014-06-03T19:30:05Z</time>
</trkpt>
<trkpt lat="38.10059976" lon="-1.44134847">
<ele>911</ele>
<time>2014-06-03T19:30:07Z</time>
</trkpt>
<trkpt lat="38.10056262" lon="-1.44146217">
<ele>910</ele>
<time>2014-06-03T19:30:09Z</time>
</trkpt>
<trkpt lat="38.10052854" lon="-1.4416046">
<ele>908</ele>
<time>2014-06-03T19:30:11Z</time>
</trkpt>
<trkpt lat="38.10050308" lon="-1.44174112">
<ele>905</ele>
<time>2014-06-03T19:30:13Z</time>
</trkpt>
<trkpt lat="38.10047076" lon="-1.44187451">
<ele>906</ele>
<time>2014-06-03T19:30:15Z</time>
</trkpt>
<trkpt lat="38.10044949" lon="-1.4419879">
<ele>908</ele>
<time>2014-06-03T19:30:17Z</time>
</trkpt>
<trkpt lat="38.10043314" lon="-1.44211127">
<ele>909</ele>
<time>2014-06-03T19:30:19Z</time>
</trkpt>
<trkpt lat="38.10040196" lon="-1.44224034">
<ele>908</ele>
<time>2014-06-03T19:30:21Z</time>
</trkpt>
<trkpt lat="38.10038125" lon="-1.44237103">
<ele>908</ele>
<time>2014-06-03T19:30:23Z</time>
</trkpt>
<trkpt lat="38.10035393" lon="-1.44250834">
<ele>908</ele>
<time>2014-06-03T19:30:25Z</time>
</trkpt>
<trkpt lat="38.10031852" lon="-1.44265041">
<ele>910</ele>
<time>2014-06-03T19:30:27Z</time>
</trkpt>
<trkpt lat="38.10029518" lon="-1.4427649">
<ele>910</ele>
<time>2014-06-03T19:30:29Z</time>
</trkpt>
<trkpt lat="38.10028812" lon="-1.44292456">
<ele>910</ele>
<time>2014-06-03T19:30:31Z</time>
</trkpt>
<trkpt lat="38.10027127" lon="-1.4430825">
<ele>908</ele>
<time>2014-06-03T19:30:33Z</time>
</trkpt>
<trkpt lat="38.10025064" lon="-1.44321559">
<ele>908</ele>
<time>2014-06-03T19:30:35Z</time>
</trkpt>
<trkpt lat="38.10022518" lon="-1.44334456">
<ele>909</ele>
<time>2014-06-03T19:30:37Z</time>
</trkpt>
<trkpt lat="38.10018708" lon="-1.44347734">
<ele>910</ele>
<time>2014-06-03T19:30:39Z</time>
</trkpt>
<trkpt lat="38.10014741" lon="-1.4436153">
<ele>911</ele>
<time>2014-06-03T19:30:41Z</time>
</trkpt>
<trkpt lat="38.10010864" lon="-1.44378436">
<ele>914</ele>
<time>2014-06-03T19:30:43Z</time>
</trkpt>
<trkpt lat="38.10006131" lon="-1.44390959">
<ele>914</ele>
<time>2014-06-03T19:30:45Z</time>
</trkpt>
<trkpt lat="38.10002557" lon="-1.44396916">
<ele>911</ele>
<time>2014-06-03T19:30:47Z</time>
</trkpt>
<trkpt lat="38.09998466" lon="-1.44408707">
<ele>911</ele>
<time>2014-06-03T19:30:49Z</time>
</trkpt>
<trkpt lat="38.0999323" lon="-1.44419947">
<ele>909</ele>
<time>2014-06-03T19:30:51Z</time>
</trkpt>
<trkpt lat="38.09986238" lon="-1.4442942">
<ele>907</ele>
<time>2014-06-03T19:30:53Z</time>
</trkpt>
<trkpt lat="38.09980384" lon="-1.44440779">
<ele>906</ele>
<time>2014-06-03T19:30:55Z</time>
</trkpt>
<trkpt lat="38.09975629" lon="-1.44451504">
<ele>906</ele>
<time>2014-06-03T19:30:57Z</time>
</trkpt>
<trkpt lat="38.09970359" lon="-1.44461033">
<ele>906</ele>
<time>2014-06-03T19:30:59Z</time>
</trkpt>
<trkpt lat="38.09966107" lon="-1.44473111">
<ele>905</ele>
<time>2014-06-03T19:31:01Z</time>
</trkpt>
<trkpt lat="38.09959614" lon="-1.44481664">
<ele>901</ele>
<time>2014-06-03T19:31:03Z</time>
</trkpt>
<trkpt lat="38.09954141" lon="-1.44495995">
<ele>901</ele>
<time>2014-06-03T19:31:05Z</time>
</trkpt>
<trkpt lat="38.09950365" lon="-1.44508698">
<ele>900</ele>
<time>2014-06-03T19:31:07Z</time>
</trkpt>
<trkpt lat="38.09945722" lon="-1.44520342">
<ele>903</ele>
<time>2014-06-03T19:31:09Z</time>
</trkpt>
<trkpt lat="38.09940557" lon="-1.44531782">
<ele>902</ele>
<time>2014-06-03T19:31:11Z</time>
</trkpt>
<trkpt lat="38.099358" lon="-1.44541909">
<ele>903</ele>
<time>2014-06-03T19:31:13Z</time>
</trkpt>
<trkpt lat="38.09929811" lon="-1.4455397">
<ele>903</ele>
<time>2014-06-03T19:31:15Z</time>
</trkpt>
<trkpt lat="38.09923189" lon="-1.44563072">
<ele>903</ele>
<time>2014-06-03T19:31:17Z</time>
</trkpt>
<trkpt lat="38.09917056" lon="-1.44574112">
<ele>900</ele>
<time>2014-06-03T19:31:19Z</time>
</trkpt>
<trkpt lat="38.09911671" lon="-1.44585509">
<ele>901</ele>
<time>2014-06-03T19:31:21Z</time>
</trkpt>
<trkpt lat="38.0990753" lon="-1.4459572">
<ele>903</ele>
<time>2014-06-03T19:31:23Z</time>
</trkpt>
<trkpt lat="38.09903186" lon="-1.44605874">
<ele>902</ele>
<time>2014-06-03T19:31:25Z</time>
</trkpt>
<trkpt lat="38.09898042" lon="-1.44619369">
<ele>900</ele>
<time>2014-06-03T19:31:27Z</time>
</trkpt>
<trkpt lat="38.09892941" lon="-1.44630847">
<ele>901</ele>
<time>2014-06-03T19:31:29Z</time>
</trkpt>
<trkpt lat="38.0988942" lon="-1.4464148">
<ele>899</ele>
<time>2014-06-03T19:31:31Z</time>
</trkpt>
<trkpt lat="38.09885795" lon="-1.44654483">
<ele>897</ele>
<time>2014-06-03T19:31:33Z</time>
</trkpt>
<trkpt lat="38.09882238" lon="-1.44668683">
<ele>896</ele>
<time>2014-06-03T19:31:35Z</time>
</trkpt>
<trkpt lat="38.09879113" lon="-1.44681433">
<ele>897</ele>
<time>2014-06-03T19:31:37Z</time>
</trkpt>
<trkpt lat="38.09876378" lon="-1.44695399">
<ele>897</ele>
<time>2014-06-03T19:31:39Z</time>
</trkpt>
<trkpt lat="38.09872521" lon="-1.44707491">
<ele>896</ele>
<time>2014-06-03T19:31:41Z</time>
</trkpt>
<trkpt lat="38.0986814" lon="-1.44719352">
<ele>895</ele>
<time>2014-06-03T19:31:43Z</time>
</trkpt>
<trkpt lat="38.09864767" lon="-1.4473349">
<ele>895</ele>
<time>2014-06-03T19:31:45Z</time>
</trkpt>
<trkpt lat="38.09859629" lon="-1.44747272">
<ele>894</ele>
<time>2014-06-03T19:31:47Z</time>
</trkpt>
<trkpt lat="38.09856069" lon="-1.44758856">
<ele>894</ele>
<time>2014-06-03T19:31:49Z</time>
</trkpt>
<trkpt lat="38.0985053" lon="-1.4477018">
<ele>895</ele>
<time>2014-06-03T19:31:51Z</time>
</trkpt>
<trkpt lat="38.09846442" lon="-1.4477943">
<ele>896</ele>
<time>2014-06-03T19:31:53Z</time>
</trkpt>
<trkpt lat="38.09841105" lon="-1.44787087">
<ele>897</ele>
<time>2014-06-03T19:31:55Z</time>
</trkpt>
<trkpt lat="38.09835174" lon="-1.44797531">
<ele>895</ele>
<time>2014-06-03T19:31:57Z</time>
</trkpt>
<trkpt lat="38.09828612" lon="-1.44809508">
<ele>894</ele>
<time>2014-06-03T19:31:59Z</time>
</trkpt>
<trkpt lat="38.09823556" lon="-1.44820893">
<ele>893</ele>
<time>2014-06-03T19:32:01Z</time>
</trkpt>
<trkpt lat="38.09818779" lon="-1.4483378">
<ele>891</ele>
<time>2014-06-03T19:32:03Z</time>
</trkpt>
<trkpt lat="38.09814842" lon="-1.44847579">
<ele>890</ele>
<time>2014-06-03T19:32:05Z</time>
</trkpt>
<trkpt lat="38.09809675" lon="-1.44861521">
<ele>889</ele>
<time>2014-06-03T19:32:07Z</time>
</trkpt>
<trkpt lat="38.09804457" lon="-1.44872933">
<ele>890</ele>
<time>2014-06-03T19:32:09Z</time>
</trkpt>
<trkpt lat="38.09800439" lon="-1.44884839">
<ele>891</ele>
<time>2014-06-03T19:32:11Z</time>
</trkpt>
<trkpt lat="38.09795446" lon="-1.44898349">
<ele>891</ele>
<time>2014-06-03T19:32:13Z</time>
</trkpt>
<trkpt lat="38.09790978" lon="-1.44909735">
<ele>891</ele>
<time>2014-06-03T19:32:15Z</time>
</trkpt>
<trkpt lat="38.09787473" lon="-1.44918738">
<ele>889</ele>
<time>2014-06-03T19:32:17Z</time>
</trkpt>
<trkpt lat="38.09782454" lon="-1.44931922">
<ele>890</ele>
<time>2014-06-03T19:32:19Z</time>
</trkpt>
<trkpt lat="38.0977872" lon="-1.44944957">
<ele>892</ele>
<time>2014-06-03T19:32:21Z</time>
</trkpt>
<trkpt lat="38.0977609" lon="-1.4495629">
<ele>893</ele>
<time>2014-06-03T19:32:23Z</time>
</trkpt>
<trkpt lat="38.09769586" lon="-1.44967286">
<ele>892</ele>
<time>2014-06-03T19:32:25Z</time>
</trkpt>
<trkpt lat="38.09765467" lon="-1.44975783">
<ele>892</ele>
<time>2014-06-03T19:32:27Z</time>
</trkpt>
<trkpt lat="38.09762348" lon="-1.44989158">
<ele>895</ele>
<time>2014-06-03T19:32:29Z</time>
</trkpt>
<trkpt lat="38.09756297" lon="-1.44999018">
<ele>894</ele>
<time>2014-06-03T19:32:31Z</time>
</trkpt>
<trkpt lat="38.0974855" lon="-1.45008315">
<ele>894</ele>
<time>2014-06-03T19:32:33Z</time>
</trkpt>
<trkpt lat="38.09740949" lon="-1.45013708">
<ele>894</ele>
<time>2014-06-03T19:32:35Z</time>
</trkpt>
<trkpt lat="38.09731597" lon="-1.45018139">
<ele>894</ele>
<time>2014-06-03T19:32:37Z</time>
</trkpt>
<trkpt lat="38.09722851" lon="-1.45021218">
<ele>896</ele>
<time>2014-06-03T19:32:39Z</time>
</trkpt>
<trkpt lat="38.09714942" lon="-1.45027096">
<ele>896</ele>
<time>2014-06-03T19:32:41Z</time>
</trkpt>
<trkpt lat="38.09704335" lon="-1.45028968">
<ele>895</ele>
<time>2014-06-03T19:32:43Z</time>
</trkpt>
<trkpt lat="38.0969539" lon="-1.45032242">
<ele>896</ele>
<time>2014-06-03T19:32:45Z</time>
</trkpt>
<trkpt lat="38.09689515" lon="-1.45035795">
<ele>894</ele>
<time>2014-06-03T19:32:47Z</time>
</trkpt>
<trkpt lat="38.09681834" lon="-1.45044357">
<ele>893</ele>
<time>2014-06-03T19:32:49Z</time>
</trkpt>
<trkpt lat="38.09674833" lon="-1.45055702">
<ele>893</ele>
<time>2014-06-03T19:32:51Z</time>
</trkpt>
<trkpt lat="38.0966888" lon="-1.45066863">
<ele>891</ele>
<time>2014-06-03T19:32:53Z</time>
</trkpt>
<trkpt lat="38.09663581" lon="-1.45078328">
<ele>888</ele>
<time>2014-06-03T19:32:55Z</time>
</trkpt>
<trkpt lat="38.09658166" lon="-1.4509097">
<ele>886</ele>
<time>2014-06-03T19:32:57Z</time>
</trkpt>
<trkpt lat="38.09653494" lon="-1.45104373">
<ele>886</ele>
<time>2014-06-03T19:32:59Z</time>
</trkpt>
<trkpt lat="38.09646494" lon="-1.45113529">
<ele>882</ele>
<time>2014-06-03T19:33:01Z</time>
</trkpt>
<trkpt lat="38.09639104" lon="-1.45125049">
<ele>881</ele>
<time>2014-06-03T19:33:03Z</time>
</trkpt>
<trkpt lat="38.0963184" lon="-1.45133841">
<ele>882</ele>
<time>2014-06-03T19:33:05Z</time>
</trkpt>
<trkpt lat="38.09625655" lon="-1.45142867">
<ele>881</ele>
<time>2014-06-03T19:33:07Z</time>
</trkpt>
<trkpt lat="38.0961872" lon="-1.45154741">
<ele>881</ele>
<time>2014-06-03T19:33:09Z</time>
</trkpt>
<trkpt lat="38.09611707" lon="-1.45166435">
<ele>880</ele>
<time>2014-06-03T19:33:11Z</time>
</trkpt>
<trkpt lat="38.09604722" lon="-1.45177336">
<ele>880</ele>
<time>2014-06-03T19:33:13Z</time>
</trkpt>
<trkpt lat="38.09596012" lon="-1.45188979">
<ele>880</ele>
<time>2014-06-03T19:33:15Z</time>
</trkpt>
<trkpt lat="38.09588001" lon="-1.4519955">
<ele>881</ele>
<time>2014-06-03T19:33:17Z</time>
</trkpt>
<trkpt lat="38.09580608" lon="-1.45211714">
<ele>881</ele>
<time>2014-06-03T19:33:19Z</time>
</trkpt>
<trkpt lat="38.09573538" lon="-1.45223967">
<ele>883</ele>
<time>2014-06-03T19:33:21Z</time>
</trkpt>
<trkpt lat="38.09565804" lon="-1.45235091">
<ele>884</ele>
<time>2014-06-03T19:33:23Z</time>
</trkpt>
<trkpt lat="38.09559124" lon="-1.45243793">
<ele>884</ele>
<time>2014-06-03T19:33:25Z</time>
</trkpt>
<trkpt lat="38.09551963" lon="-1.45254006">
<ele>883</ele>
<time>2014-06-03T19:33:27Z</time>
</trkpt>
<trkpt lat="38.0954474" lon="-1.45261872">
<ele>883</ele>
<time>2014-06-03T19:33:29Z</time>
</trkpt>
<trkpt lat="38.09540094" lon="-1.45276414">
<ele>882</ele>
<time>2014-06-03T19:33:31Z</time>
</trkpt>
<trkpt lat="38.09532309" lon="-1.45286353">
<ele>882</ele>
<time>2014-06-03T19:33:33Z</time>
</trkpt>
<trkpt lat="38.09525393" lon="-1.45294653">
<ele>882</ele>
<time>2014-06-03T19:33:35Z</time>
</trkpt>
<trkpt lat="38.09517588" lon="-1.45301401">
<ele>882</ele>
<time>2014-06-03T19:33:37Z</time>
</trkpt>
<trkpt lat="38.09508852" lon="-1.4531034">
<ele>883</ele>
<time>2014-06-03T19:33:39Z</time>
</trkpt>
<trkpt lat="38.09501795" lon="-1.45319082">
<ele>884</ele>
<time>2014-06-03T19:33:41Z</time>
</trkpt>
<trkpt lat="38.09496032" lon="-1.45328128">
<ele>885</ele>
<time>2014-06-03T19:33:43Z</time>
</trkpt>
<trkpt lat="38.09491071" lon="-1.45339386">
<ele>886</ele>
<time>2014-06-03T19:33:45Z</time>
</trkpt>
<trkpt lat="38.09484371" lon="-1.45349423">
<ele>883</ele>
<time>2014-06-03T19:33:47Z</time>
</trkpt>
<trkpt lat="38.09480144" lon="-1.45359443">
<ele>881</ele>
<time>2014-06-03T19:33:49Z</time>
</trkpt>
<trkpt lat="38.09473971" lon="-1.45372457">
<ele>878</ele>
<time>2014-06-03T19:33:51Z</time>
</trkpt>
<trkpt lat="38.09467685" lon="-1.45385248">
<ele>878</ele>
<time>2014-06-03T19:33:53Z</time>
</trkpt>
<trkpt lat="38.09461704" lon="-1.4539976">
<ele>876</ele>
<time>2014-06-03T19:33:55Z</time>
</trkpt>
<trkpt lat="38.09457186" lon="-1.45413485">
<ele>875</ele>
<time>2014-06-03T19:33:57Z</time>
</trkpt>
<trkpt lat="38.09453659" lon="-1.45426857">
<ele>877</ele>
<time>2014-06-03T19:33:59Z</time>
</trkpt>
<trkpt lat="38.09450477" lon="-1.45440446">
<ele>877</ele>
<time>2014-06-03T19:34:01Z</time>
</trkpt>
<trkpt lat="38.09445237" lon="-1.45455371">
<ele>877</ele>
<time>2014-06-03T19:34:03Z</time>
</trkpt>
<trkpt lat="38.09439597" lon="-1.45467613">
<ele>878</ele>
<time>2014-06-03T19:34:05Z</time>
</trkpt>
<trkpt lat="38.0943361" lon="-1.45482245">
<ele>878</ele>
<time>2014-06-03T19:34:07Z</time>
</trkpt>
<trkpt lat="38.09427858" lon="-1.4549442">
<ele>877</ele>
<time>2014-06-03T19:34:09Z</time>
</trkpt>
<trkpt lat="38.09421521" lon="-1.45508442">
<ele>878</ele>
<time>2014-06-03T19:34:11Z</time>
</trkpt>
<trkpt lat="38.09414002" lon="-1.45521253">
<ele>874</ele>
<time>2014-06-03T19:34:13Z</time>
</trkpt>
<trkpt lat="38.09406846" lon="-1.45529691">
<ele>874</ele>
<time>2014-06-03T19:34:15Z</time>
</trkpt>
<trkpt lat="38.09399569" lon="-1.45540313">
<ele>875</ele>
<time>2014-06-03T19:34:17Z</time>
</trkpt>
<trkpt lat="38.0939237" lon="-1.45553566">
<ele>874</ele>
<time>2014-06-03T19:34:19Z</time>
</trkpt>
<trkpt lat="38.09386405" lon="-1.45562684">
<ele>876</ele>
<time>2014-06-03T19:34:21Z</time>
</trkpt>
<trkpt lat="38.09381407" lon="-1.45574616">
<ele>876</ele>
<time>2014-06-03T19:34:23Z</time>
</trkpt>
<trkpt lat="38.09374829" lon="-1.4558612">
<ele>876</ele>
<time>2014-06-03T19:34:25Z</time>
</trkpt>
<trkpt lat="38.09366915" lon="-1.45596576">
<ele>872</ele>
<time>2014-06-03T19:34:27Z</time>
</trkpt>
<trkpt lat="38.0935931" lon="-1.45605209">
<ele>872</ele>
<time>2014-06-03T19:34:29Z</time>
</trkpt>
<trkpt lat="38.09353559" lon="-1.45612637">
<ele>872</ele>
<time>2014-06-03T19:34:31Z</time>
</trkpt>
<trkpt lat="38.09346962" lon="-1.45622504">
<ele>869</ele>
<time>2014-06-03T19:34:33Z</time>
</trkpt>
<trkpt lat="38.09339258" lon="-1.45635574">
<ele>867</ele>
<time>2014-06-03T19:34:35Z</time>
</trkpt>
<trkpt lat="38.09332822" lon="-1.45648312">
<ele>867</ele>
<time>2014-06-03T19:34:37Z</time>
</trkpt>
<trkpt lat="38.09326702" lon="-1.45661078">
<ele>867</ele>
<time>2014-06-03T19:34:39Z</time>
</trkpt>
<trkpt lat="38.09320978" lon="-1.45672802">
<ele>869</ele>
<time>2014-06-03T19:34:41Z</time>
</trkpt>
<trkpt lat="38.09315487" lon="-1.45685879">
<ele>869</ele>
<time>2014-06-03T19:34:43Z</time>
</trkpt>
<trkpt lat="38.09311602" lon="-1.45700286">
<ele>872</ele>
<time>2014-06-03T19:34:45Z</time>
</trkpt>
<trkpt lat="38.0930846" lon="-1.4571405">
<ele>873</ele>
<time>2014-06-03T19:34:47Z</time>
</trkpt>
<trkpt lat="38.093053" lon="-1.45729399">
<ele>875</ele>
<time>2014-06-03T19:34:49Z</time>
</trkpt>
<trkpt lat="38.09300698" lon="-1.45742942">
<ele>875</ele>
<time>2014-06-03T19:34:51Z</time>
</trkpt>
<trkpt lat="38.09296453" lon="-1.45758636">
<ele>874</ele>
<time>2014-06-03T19:34:53Z</time>
</trkpt>
<trkpt lat="38.0929261" lon="-1.4577555">
<ele>875</ele>
<time>2014-06-03T19:34:55Z</time>
</trkpt>
<trkpt lat="38.09287758" lon="-1.45791536">
<ele>873</ele>
<time>2014-06-03T19:34:57Z</time>
</trkpt>
<trkpt lat="38.09285487" lon="-1.45806169">
<ele>874</ele>
<time>2014-06-03T19:34:59Z</time>
</trkpt>
<trkpt lat="38.09283372" lon="-1.4581888">
<ele>870</ele>
<time>2014-06-03T19:35:01Z</time>
</trkpt>
<trkpt lat="38.09280663" lon="-1.45834321">
<ele>869</ele>
<time>2014-06-03T19:35:03Z</time>
</trkpt>
<trkpt lat="38.09277345" lon="-1.4584981">
<ele>869</ele>
<time>2014-06-03T19:35:05Z</time>
</trkpt>
<trkpt lat="38.09275514" lon="-1.45863673">
<ele>870</ele>
<time>2014-06-03T19:35:07Z</time>
</trkpt>
<trkpt lat="38.09273616" lon="-1.4587931">
<ele>870</ele>
<time>2014-06-03T19:35:09Z</time>
</trkpt>
<trkpt lat="38.09272764" lon="-1.45893749">
<ele>867</ele>
<time>2014-06-03T19:35:11Z</time>
</trkpt>
<trkpt lat="38.09272256" lon="-1.45910037">
<ele>867</ele>
<time>2014-06-03T19:35:13Z</time>
</trkpt>
<trkpt lat="38.09269996" lon="-1.45927349">
<ele>866</ele>
<time>2014-06-03T19:35:15Z</time>
</trkpt>
<trkpt lat="38.09268204" lon="-1.45943433">
<ele>865</ele>
<time>2014-06-03T19:35:17Z</time>
</trkpt>
<trkpt lat="38.09270922" lon="-1.45964822">
<ele>867</ele>
<time>2014-06-03T19:35:19Z</time>
</trkpt>
<trkpt lat="38.09272769" lon="-1.45983356">
<ele>867</ele>
<time>2014-06-03T19:35:21Z</time>
</trkpt>
<trkpt lat="38.09275826" lon="-1.46001089">
<ele>867</ele>
<time>2014-06-03T19:35:23Z</time>
</trkpt>
<trkpt lat="38.09278945" lon="-1.46018151">
<ele>865</ele>
<time>2014-06-03T19:35:25Z</time>
</trkpt>
<trkpt lat="38.09281098" lon="-1.4603878">
<ele>864</ele>
<time>2014-06-03T19:35:27Z</time>
</trkpt>
<trkpt lat="38.09284878" lon="-1.46055679">
<ele>862</ele>
<time>2014-06-03T19:35:29Z</time>
</trkpt>
<trkpt lat="38.09290054" lon="-1.46075877">
<ele>861</ele>
<time>2014-06-03T19:35:31Z</time>
</trkpt>
<trkpt lat="38.09291949" lon="-1.46093739">
<ele>861</ele>
<time>2014-06-03T19:35:33Z</time>
</trkpt>
<trkpt lat="38.09293208" lon="-1.46110971">
<ele>861</ele>
<time>2014-06-03T19:35:35Z</time>
</trkpt>
<trkpt lat="38.0929473" lon="-1.46131145">
<ele>857</ele>
<time>2014-06-03T19:35:37Z</time>
</trkpt>
<trkpt lat="38.09295108" lon="-1.4614812">
<ele>857</ele>
<time>2014-06-03T19:35:39Z</time>
</trkpt>
<trkpt lat="38.09296136" lon="-1.46165041">
<ele>857</ele>
<time>2014-06-03T19:35:41Z</time>
</trkpt>
<trkpt lat="38.09297418" lon="-1.46181782">
<ele>859</ele>
<time>2014-06-03T19:35:43Z</time>
</trkpt>
<trkpt lat="38.0929845" lon="-1.46198818">
<ele>859</ele>
<time>2014-06-03T19:35:45Z</time>
</trkpt>
<trkpt lat="38.09302858" lon="-1.46220851">
<ele>862</ele>
<time>2014-06-03T19:35:47Z</time>
</trkpt>
<trkpt lat="38.09307091" lon="-1.46239734">
<ele>863</ele>
<time>2014-06-03T19:35:49Z</time>
</trkpt>
<trkpt lat="38.09308034" lon="-1.46257767">
<ele>861</ele>
<time>2014-06-03T19:35:51Z</time>
</trkpt>
<trkpt lat="38.09307275" lon="-1.46276433">
<ele>861</ele>
<time>2014-06-03T19:35:53Z</time>
</trkpt>
<trkpt lat="38.09308408" lon="-1.46292853">
<ele>862</ele>
<time>2014-06-03T19:35:55Z</time>
</trkpt>
<trkpt lat="38.09307868" lon="-1.46311379">
<ele>860</ele>
<time>2014-06-03T19:35:57Z</time>
</trkpt>
<trkpt lat="38.09305554" lon="-1.46334092">
<ele>859</ele>
<time>2014-06-03T19:35:59Z</time>
</trkpt>
<trkpt lat="38.09303256" lon="-1.46351316">
<ele>859</ele>
<time>2014-06-03T19:36:01Z</time>
</trkpt>
<trkpt lat="38.0930267" lon="-1.46369333">
<ele>858</ele>
<time>2014-06-03T19:36:03Z</time>
</trkpt>
<trkpt lat="38.09301436" lon="-1.46388024">
<ele>860</ele>
<time>2014-06-03T19:36:05Z</time>
</trkpt>
<trkpt lat="38.09298619" lon="-1.46403734">
<ele>862</ele>
<time>2014-06-03T19:36:07Z</time>
</trkpt>
<trkpt lat="38.09297835" lon="-1.46421553">
<ele>861</ele>
<time>2014-06-03T19:36:09Z</time>
</trkpt>
<trkpt lat="38.09292481" lon="-1.46442901">
<ele>861</ele>
<time>2014-06-03T19:36:11Z</time>
</trkpt>
<trkpt lat="38.09289891" lon="-1.46461321">
<ele>862</ele>
<time>2014-06-03T19:36:13Z</time>
</trkpt>
<trkpt lat="38.09287761" lon="-1.4647659">
<ele>864</ele>
<time>2014-06-03T19:36:15Z</time>
</trkpt>
<trkpt lat="38.09285938" lon="-1.46495656">
<ele>863</ele>
<time>2014-06-03T19:36:17Z</time>
</trkpt>
<trkpt lat="38.09286694" lon="-1.46514439">
<ele>863</ele>
<time>2014-06-03T19:36:19Z</time>
</trkpt>
<trkpt lat="38.0928577" lon="-1.46534407">
<ele>864</ele>
<time>2014-06-03T19:36:21Z</time>
</trkpt>
<trkpt lat="38.09286206" lon="-1.46554311">
<ele>863</ele>
<time>2014-06-03T19:36:23Z</time>
</trkpt>
<trkpt lat="38.09282881" lon="-1.46572408">
<ele>864</ele>
<time>2014-06-03T19:36:25Z</time>
</trkpt>
<trkpt lat="38.09281478" lon="-1.46589616">
<ele>865</ele>
<time>2014-06-03T19:36:27Z</time>
</trkpt>
<trkpt lat="38.09277404" lon="-1.46609807">
<ele>864</ele>
<time>2014-06-03T19:36:29Z</time>
</trkpt>
<trkpt lat="38.09274376" lon="-1.46629886">
<ele>867</ele>
<time>2014-06-03T19:36:31Z</time>
</trkpt>
<trkpt lat="38.0927203" lon="-1.4664572">
<ele>869</ele>
<time>2014-06-03T19:36:33Z</time>
</trkpt>
<trkpt lat="38.09268686" lon="-1.46666459">
<ele>868</ele>
<time>2014-06-03T19:36:35Z</time>
</trkpt>
<trkpt lat="38.09267126" lon="-1.46682903">
<ele>869</ele>
<time>2014-06-03T19:36:37Z</time>
</trkpt>
<trkpt lat="38.09264451" lon="-1.46700868">
<ele>869</ele>
<time>2014-06-03T19:36:39Z</time>
</trkpt>
<trkpt lat="38.09263" lon="-1.46718653">
<ele>867</ele>
<time>2014-06-03T19:36:41Z</time>
</trkpt>
<trkpt lat="38.09259168" lon="-1.46734115">
<ele>867</ele>
<time>2014-06-03T19:36:43Z</time>
</trkpt>
<trkpt lat="38.09255118" lon="-1.46746194">
<ele>864</ele>
<time>2014-06-03T19:36:45Z</time>
</trkpt>
<trkpt lat="38.0925316" lon="-1.467628">
<ele>864</ele>
<time>2014-06-03T19:36:47Z</time>
</trkpt>
<trkpt lat="38.09252384" lon="-1.46779757">
<ele>862</ele>
<time>2014-06-03T19:36:49Z</time>
</trkpt>
<trkpt lat="38.092499" lon="-1.46797322">
<ele>864</ele>
<time>2014-06-03T19:36:51Z</time>
</trkpt>
<trkpt lat="38.09248455" lon="-1.46813208">
<ele>860</ele>
<time>2014-06-03T19:36:53Z</time>
</trkpt>
<trkpt lat="38.09247554" lon="-1.46829752">
<ele>858</ele>
<time>2014-06-03T19:36:55Z</time>
</trkpt>
<trkpt lat="38.09247478" lon="-1.46849163">
<ele>858</ele>
<time>2014-06-03T19:36:57Z</time>
</trkpt>
<trkpt lat="38.09247457" lon="-1.46864651">
<ele>860</ele>
<time>2014-06-03T19:36:59Z</time>
</trkpt>
<trkpt lat="38.09247804" lon="-1.46879664">
<ele>857</ele>
<time>2014-06-03T19:37:01Z</time>
</trkpt>
<trkpt lat="38.09246401" lon="-1.46897206">
<ele>858</ele>
<time>2014-06-03T19:37:03Z</time>
</trkpt>
<trkpt lat="38.09245697" lon="-1.46916794">
<ele>859</ele>
<time>2014-06-03T19:37:05Z</time>
</trkpt>
<trkpt lat="38.09246561" lon="-1.46936226">
<ele>859</ele>
<time>2014-06-03T19:37:07Z</time>
</trkpt>
<trkpt lat="38.09246283" lon="-1.46955559">
<ele>859</ele>
<time>2014-06-03T19:37:09Z</time>
</trkpt>
<trkpt lat="38.09244465" lon="-1.46974985">
<ele>858</ele>
<time>2014-06-03T19:37:11Z</time>
</trkpt>
<trkpt lat="38.09241792" lon="-1.4699272">
<ele>858</ele>
<time>2014-06-03T19:37:13Z</time>
</trkpt>
<trkpt lat="38.09237722" lon="-1.47007434">
<ele>854</ele>
<time>2014-06-03T19:37:15Z</time>
</trkpt>
<trkpt lat="38.09234299" lon="-1.47025812">
<ele>855</ele>
<time>2014-06-03T19:37:17Z</time>
</trkpt>
<trkpt lat="38.09231112" lon="-1.47046857">
<ele>854</ele>
<time>2014-06-03T19:37:19Z</time>
</trkpt>
<trkpt lat="38.09228576" lon="-1.47067953">
<ele>852</ele>
<time>2014-06-03T19:37:21Z</time>
</trkpt>
<trkpt lat="38.09226593" lon="-1.47088049">
<ele>851</ele>
<time>2014-06-03T19:37:23Z</time>
</trkpt>
<trkpt lat="38.09222695" lon="-1.4710645">
<ele>851</ele>
<time>2014-06-03T19:37:25Z</time>
</trkpt>
<trkpt lat="38.09218277" lon="-1.4712483">
<ele>850</ele>
<time>2014-06-03T19:37:27Z</time>
</trkpt>
<trkpt lat="38.09212719" lon="-1.47140693">
<ele>846</ele>
<time>2014-06-03T19:37:29Z</time>
</trkpt>
<trkpt lat="38.09209044" lon="-1.47161456">
<ele>845</ele>
<time>2014-06-03T19:37:31Z</time>
</trkpt>
<trkpt lat="38.09206596" lon="-1.4717838">
<ele>844</ele>
<time>2014-06-03T19:37:33Z</time>
</trkpt>
<trkpt lat="38.09204708" lon="-1.47196557">
<ele>844</ele>
<time>2014-06-03T19:37:35Z</time>
</trkpt>
<trkpt lat="38.09203263" lon="-1.4721584">
<ele>845</ele>
<time>2014-06-03T19:37:37Z</time>
</trkpt>
<trkpt lat="38.09200238" lon="-1.47232706">
<ele>846</ele>
<time>2014-06-03T19:37:39Z</time>
</trkpt>
<trkpt lat="38.09193982" lon="-1.47256746">
<ele>845</ele>
<time>2014-06-03T19:37:41Z</time>
</trkpt>
<trkpt lat="38.09190109" lon="-1.47279548">
<ele>845</ele>
<time>2014-06-03T19:37:43Z</time>
</trkpt>
<trkpt lat="38.09187659" lon="-1.47299218">
<ele>844</ele>
<time>2014-06-03T19:37:45Z</time>
</trkpt>
<trkpt lat="38.09184124" lon="-1.47320891">
<ele>842</ele>
<time>2014-06-03T19:37:47Z</time>
</trkpt>
<trkpt lat="38.09179911" lon="-1.47343066">
<ele>842</ele>
<time>2014-06-03T19:37:49Z</time>
</trkpt>
<trkpt lat="38.09178317" lon="-1.47365322">
<ele>841</ele>
<time>2014-06-03T19:37:51Z</time>
</trkpt>
<trkpt lat="38.09176057" lon="-1.47382603">
<ele>838</ele>
<time>2014-06-03T19:37:53Z</time>
</trkpt>
<trkpt lat="38.09176169" lon="-1.47400736">
<ele>838</ele>
<time>2014-06-03T19:37:55Z</time>
</trkpt>
<trkpt lat="38.09169647" lon="-1.47419515">
<ele>836</ele>
<time>2014-06-03T19:37:57Z</time>
</trkpt>
<trkpt lat="38.09163748" lon="-1.47441645">
<ele>837</ele>
<time>2014-06-03T19:37:59Z</time>
</trkpt>
<trkpt lat="38.09156743" lon="-1.47460515">
<ele>838</ele>
<time>2014-06-03T19:38:01Z</time>
</trkpt>
<trkpt lat="38.0914808" lon="-1.47478224">
<ele>840</ele>
<time>2014-06-03T19:38:03Z</time>
</trkpt>
<trkpt lat="38.09142823" lon="-1.47493835">
<ele>840</ele>
<time>2014-06-03T19:38:05Z</time>
</trkpt>
<trkpt lat="38.09138407" lon="-1.4751067">
<ele>842</ele>
<time>2014-06-03T19:38:07Z</time>
</trkpt>
<trkpt lat="38.09132859" lon="-1.47527934">
<ele>839</ele>
<time>2014-06-03T19:38:09Z</time>
</trkpt>
<trkpt lat="38.09128499" lon="-1.47544054">
<ele>839</ele>
<time>2014-06-03T19:38:11Z</time>
</trkpt>
<trkpt lat="38.09124595" lon="-1.47560181">
<ele>840</ele>
<time>2014-06-03T19:38:13Z</time>
</trkpt>
<trkpt lat="38.09118301" lon="-1.47577755">
<ele>839</ele>
<time>2014-06-03T19:38:15Z</time>
</trkpt>
<trkpt lat="38.09113215" lon="-1.47593079">
<ele>837</ele>
<time>2014-06-03T19:38:17Z</time>
</trkpt>
<trkpt lat="38.09107507" lon="-1.47608577">
<ele>838</ele>
<time>2014-06-03T19:38:19Z</time>
</trkpt>
<trkpt lat="38.09101914" lon="-1.47624832">
<ele>837</ele>
<time>2014-06-03T19:38:21Z</time>
</trkpt>
<trkpt lat="38.09096132" lon="-1.47644171">
<ele>838</ele>
<time>2014-06-03T19:38:23Z</time>
</trkpt>
<trkpt lat="38.09091175" lon="-1.47657858">
<ele>840</ele>
<time>2014-06-03T19:38:25Z</time>
</trkpt>
<trkpt lat="38.09085409" lon="-1.47671539">
<ele>841</ele>
<time>2014-06-03T19:38:27Z</time>
</trkpt>
<trkpt lat="38.0908027" lon="-1.47685599">
<ele>840</ele>
<time>2014-06-03T19:38:29Z</time>
</trkpt>
<trkpt lat="38.09075569" lon="-1.47700079">
<ele>844</ele>
<time>2014-06-03T19:38:31Z</time>
</trkpt>
<trkpt lat="38.09070514" lon="-1.47712631">
<ele>843</ele>
<time>2014-06-03T19:38:33Z</time>
</trkpt>
<trkpt lat="38.09066985" lon="-1.47726423">
<ele>842</ele>
<time>2014-06-03T19:38:35Z</time>
</trkpt>
<trkpt lat="38.090608" lon="-1.47741424">
<ele>842</ele>
<time>2014-06-03T19:38:37Z</time>
</trkpt>
<trkpt lat="38.09056853" lon="-1.47756412">
<ele>841</ele>
<time>2014-06-03T19:38:39Z</time>
</trkpt>
<trkpt lat="38.09051915" lon="-1.47774462">
<ele>838</ele>
<time>2014-06-03T19:38:41Z</time>
</trkpt>
<trkpt lat="38.09048853" lon="-1.47792089">
<ele>835</ele>
<time>2014-06-03T19:38:43Z</time>
</trkpt>
<trkpt lat="38.09045745" lon="-1.47806881">
<ele>834</ele>
<time>2014-06-03T19:38:45Z</time>
</trkpt>
<trkpt lat="38.09041681" lon="-1.47819842">
<ele>831</ele>
<time>2014-06-03T19:38:47Z</time>
</trkpt>
<trkpt lat="38.09037701" lon="-1.47833569">
<ele>832</ele>
<time>2014-06-03T19:38:49Z</time>
</trkpt>
<trkpt lat="38.09034305" lon="-1.47846163">
<ele>833</ele>
<time>2014-06-03T19:38:51Z</time>
</trkpt>
<trkpt lat="38.09031464" lon="-1.47859112">
<ele>830</ele>
<time>2014-06-03T19:38:53Z</time>
</trkpt>
<trkpt lat="38.09028396" lon="-1.47873704">
<ele>829</ele>
<time>2014-06-03T19:38:55Z</time>
</trkpt>
<trkpt lat="38.09023169" lon="-1.47890529">
<ele>826</ele>
<time>2014-06-03T19:38:57Z</time>
</trkpt>
<trkpt lat="38.0901665" lon="-1.47906135">
<ele>823</ele>
<time>2014-06-03T19:38:59Z</time>
</trkpt>
<trkpt lat="38.09012681" lon="-1.47922131">
<ele>824</ele>
<time>2014-06-03T19:39:01Z</time>
</trkpt>
<trkpt lat="38.09008293" lon="-1.4793688">
<ele>823</ele>
<time>2014-06-03T19:39:03Z</time>
</trkpt>
<trkpt lat="38.09003381" lon="-1.47954402">
<ele>821</ele>
<time>2014-06-03T19:39:05Z</time>
</trkpt>
<trkpt lat="38.08996516" lon="-1.47970418">
<ele>824</ele>
<time>2014-06-03T19:39:07Z</time>
</trkpt>
<trkpt lat="38.08992434" lon="-1.47988397">
<ele>824</ele>
<time>2014-06-03T19:39:09Z</time>
</trkpt>
<trkpt lat="38.08986965" lon="-1.48005425">
<ele>822</ele>
<time>2014-06-03T19:39:11Z</time>
</trkpt>
<trkpt lat="38.08983677" lon="-1.48019852">
<ele>822</ele>
<time>2014-06-03T19:39:13Z</time>
</trkpt>
<trkpt lat="38.08981132" lon="-1.48037301">
<ele>822</ele>
<time>2014-06-03T19:39:15Z</time>
</trkpt>
<trkpt lat="38.08979434" lon="-1.48054134">
<ele>822</ele>
<time>2014-06-03T19:39:17Z</time>
</trkpt>
<trkpt lat="38.08975577" lon="-1.48073203">
<ele>822</ele>
<time>2014-06-03T19:39:19Z</time>
</trkpt>
<trkpt lat="38.08971751" lon="-1.48090782">
<ele>821</ele>
<time>2014-06-03T19:39:21Z</time>
</trkpt>
<trkpt lat="38.08966714" lon="-1.48108069">
<ele>821</ele>
<time>2014-06-03T19:39:23Z</time>
</trkpt>
<trkpt lat="38.08961823" lon="-1.4812554">
<ele>819</ele>
<time>2014-06-03T19:39:25Z</time>
</trkpt>
<trkpt lat="38.08955958" lon="-1.48138695">
<ele>821</ele>
<time>2014-06-03T19:39:27Z</time>
</trkpt>
<trkpt lat="38.08949692" lon="-1.4815251">
<ele>821</ele>
<time>2014-06-03T19:39:29Z</time>
</trkpt>
<trkpt lat="38.0894092" lon="-1.48165417">
<ele>822</ele>
<time>2014-06-03T19:39:31Z</time>
</trkpt>
<trkpt lat="38.08931158" lon="-1.48174533">
<ele>822</ele>
<time>2014-06-03T19:39:33Z</time>
</trkpt>
<trkpt lat="38.0892462" lon="-1.4818313">
<ele>824</ele>
<time>2014-06-03T19:39:35Z</time>
</trkpt>
<trkpt lat="38.08920023" lon="-1.48191256">
<ele>825</ele>
<time>2014-06-03T19:39:37Z</time>
</trkpt>
<trkpt lat="38.08914459" lon="-1.48202178">
<ele>821</ele>
<time>2014-06-03T19:39:39Z</time>
</trkpt>
<trkpt lat="38.08907294" lon="-1.48215494">
<ele>821</ele>
<time>2014-06-03T19:39:41Z</time>
</trkpt>
<trkpt lat="38.08903706" lon="-1.48223491">
<ele>822</ele>
<time>2014-06-03T19:39:43Z</time>
</trkpt>
<trkpt lat="38.08898074" lon="-1.48235079">
<ele>821</ele>
<time>2014-06-03T19:39:45Z</time>
</trkpt>
<trkpt lat="38.08892261" lon="-1.48251159">
<ele>820</ele>
<time>2014-06-03T19:39:47Z</time>
</trkpt>
<trkpt lat="38.08888028" lon="-1.48264207">
<ele>821</ele>
<time>2014-06-03T19:39:49Z</time>
</trkpt>
<trkpt lat="38.08883324" lon="-1.48278185">
<ele>821</ele>
<time>2014-06-03T19:39:51Z</time>
</trkpt>
<trkpt lat="38.08877175" lon="-1.4829355">
<ele>823</ele>
<time>2014-06-03T19:39:53Z</time>
</trkpt>
<trkpt lat="38.08873051" lon="-1.48308807">
<ele>822</ele>
<time>2014-06-03T19:39:55Z</time>
</trkpt>
<trkpt lat="38.08868323" lon="-1.48325301">
<ele>821</ele>
<time>2014-06-03T19:39:57Z</time>
</trkpt>
<trkpt lat="38.08866377" lon="-1.48339681">
<ele>820</ele>
<time>2014-06-03T19:39:59Z</time>
</trkpt>
<trkpt lat="38.08863989" lon="-1.4835543">
<ele>820</ele>
<time>2014-06-03T19:40:01Z</time>
</trkpt>
<trkpt lat="38.08860732" lon="-1.48374729">
<ele>818</ele>
<time>2014-06-03T19:40:03Z</time>
</trkpt>
<trkpt lat="38.08858546" lon="-1.48391915">
<ele>818</ele>
<time>2014-06-03T19:40:05Z</time>
</trkpt>
<trkpt lat="38.0885518" lon="-1.48408382">
<ele>815</ele>
<time>2014-06-03T19:40:07Z</time>
</trkpt>
<trkpt lat="38.08852291" lon="-1.48426441">
<ele>816</ele>
<time>2014-06-03T19:40:09Z</time>
</trkpt>
<trkpt lat="38.08850873" lon="-1.4844286">
<ele>816</ele>
<time>2014-06-03T19:40:11Z</time>
</trkpt>
<trkpt lat="38.08845083" lon="-1.48459834">
<ele>815</ele>
<time>2014-06-03T19:40:13Z</time>
</trkpt>
<trkpt lat="38.08839661" lon="-1.48476753">
<ele>816</ele>
<time>2014-06-03T19:40:15Z</time>
</trkpt>
<trkpt lat="38.08834525" lon="-1.48488898">
<ele>815</ele>
<time>2014-06-03T19:40:17Z</time>
</trkpt>
<trkpt lat="38.08829457" lon="-1.48503805">
<ele>815</ele>
<time>2014-06-03T19:40:19Z</time>
</trkpt>
<trkpt lat="38.08823891" lon="-1.4851805">
<ele>815</ele>
<time>2014-06-03T19:40:21Z</time>
</trkpt>
<trkpt lat="38.08819365" lon="-1.48534779">
<ele>813</ele>
<time>2014-06-03T19:40:23Z</time>
</trkpt>
<trkpt lat="38.08815541" lon="-1.48551532">
<ele>812</ele>
<time>2014-06-03T19:40:25Z</time>
</trkpt>
<trkpt lat="38.08812889" lon="-1.4856923">
<ele>811</ele>
<time>2014-06-03T19:40:27Z</time>
</trkpt>
<trkpt lat="38.08810683" lon="-1.48586461">
<ele>812</ele>
<time>2014-06-03T19:40:29Z</time>
</trkpt>
<trkpt lat="38.08806411" lon="-1.48602784">
<ele>809</ele>
<time>2014-06-03T19:40:31Z</time>
</trkpt>
<trkpt lat="38.08803822" lon="-1.48620305">
<ele>806</ele>
<time>2014-06-03T19:40:33Z</time>
</trkpt>
<trkpt lat="38.08800342" lon="-1.48638491">
<ele>804</ele>
<time>2014-06-03T19:40:35Z</time>
</trkpt>
<trkpt lat="38.08796525" lon="-1.48656177">
<ele>802</ele>
<time>2014-06-03T19:40:37Z</time>
</trkpt>
<trkpt lat="38.08790675" lon="-1.48675423">
<ele>799</ele>
<time>2014-06-03T19:40:39Z</time>
</trkpt>
<trkpt lat="38.08786582" lon="-1.48691944">
<ele>797</ele>
<time>2014-06-03T19:40:41Z</time>
</trkpt>
<trkpt lat="38.08783442" lon="-1.48708445">
<ele>796</ele>
<time>2014-06-03T19:40:43Z</time>
</trkpt>
<trkpt lat="38.08780104" lon="-1.48725316">
<ele>793</ele>
<time>2014-06-03T19:40:45Z</time>
</trkpt>
<trkpt lat="38.08777873" lon="-1.48743901">
<ele>795</ele>
<time>2014-06-03T19:40:47Z</time>
</trkpt>
<trkpt lat="38.08774849" lon="-1.48760712">
<ele>795</ele>
<time>2014-06-03T19:40:49Z</time>
</trkpt>
<trkpt lat="38.08770946" lon="-1.48776133">
<ele>793</ele>
<time>2014-06-03T19:40:51Z</time>
</trkpt>
<trkpt lat="38.08767902" lon="-1.48791405">
<ele>795</ele>
<time>2014-06-03T19:40:53Z</time>
</trkpt>
<trkpt lat="38.08763922" lon="-1.4880675">
<ele>796</ele>
<time>2014-06-03T19:40:55Z</time>
</trkpt>
<trkpt lat="38.08759925" lon="-1.488243">
<ele>794</ele>
<time>2014-06-03T19:40:57Z</time>
</trkpt>
<trkpt lat="38.08753487" lon="-1.48841392">
<ele>792</ele>
<time>2014-06-03T19:40:59Z</time>
</trkpt>
<trkpt lat="38.08750088" lon="-1.48857347">
<ele>793</ele>
<time>2014-06-03T19:41:01Z</time>
</trkpt>
<trkpt lat="38.08746186" lon="-1.4887446">
<ele>792</ele>
<time>2014-06-03T19:41:03Z</time>
</trkpt>
<trkpt lat="38.08740218" lon="-1.48891349">
<ele>793</ele>
<time>2014-06-03T19:41:05Z</time>
</trkpt>
<trkpt lat="38.08734114" lon="-1.48909098">
<ele>792</ele>
<time>2014-06-03T19:41:07Z</time>
</trkpt>
<trkpt lat="38.08730033" lon="-1.48924704">
<ele>793</ele>
<time>2014-06-03T19:41:09Z</time>
</trkpt>
<trkpt lat="38.08726183" lon="-1.48943075">
<ele>793</ele>
<time>2014-06-03T19:41:11Z</time>
</trkpt>
<trkpt lat="38.0872086" lon="-1.48959802">
<ele>794</ele>
<time>2014-06-03T19:41:13Z</time>
</trkpt>
<trkpt lat="38.08714395" lon="-1.48977145">
<ele>792</ele>
<time>2014-06-03T19:41:15Z</time>
</trkpt>
<trkpt lat="38.08711315" lon="-1.48993483">
<ele>791</ele>
<time>2014-06-03T19:41:17Z</time>
</trkpt>
<trkpt lat="38.08705691" lon="-1.49010233">
<ele>792</ele>
<time>2014-06-03T19:41:19Z</time>
</trkpt>
<trkpt lat="38.08702526" lon="-1.49030252">
<ele>789</ele>
<time>2014-06-03T19:41:21Z</time>
</trkpt>
<trkpt lat="38.08699832" lon="-1.49046642">
<ele>789</ele>
<time>2014-06-03T19:41:23Z</time>
</trkpt>
<trkpt lat="38.0869471" lon="-1.49066018">
<ele>790</ele>
<time>2014-06-03T19:41:25Z</time>
</trkpt>
<trkpt lat="38.08691696" lon="-1.49084166">
<ele>790</ele>
<time>2014-06-03T19:41:27Z</time>
</trkpt>
<trkpt lat="38.086879" lon="-1.49101269">
<ele>789</ele>
<time>2014-06-03T19:41:29Z</time>
</trkpt>
<trkpt lat="38.08683973" lon="-1.49118051">
<ele>788</ele>
<time>2014-06-03T19:41:31Z</time>
</trkpt>
<trkpt lat="38.08679078" lon="-1.49135945">
<ele>787</ele>
<time>2014-06-03T19:41:33Z</time>
</trkpt>
<trkpt lat="38.0867532" lon="-1.49151072">
<ele>785</ele>
<time>2014-06-03T19:41:35Z</time>
</trkpt>
<trkpt lat="38.08670533" lon="-1.49168742">
<ele>788</ele>
<time>2014-06-03T19:41:37Z</time>
</trkpt>
<trkpt lat="38.08664629" lon="-1.49186047">
<ele>791</ele>
<time>2014-06-03T19:41:39Z</time>
</trkpt>
<trkpt lat="38.0866096" lon="-1.49202628">
<ele>791</ele>
<time>2014-06-03T19:41:41Z</time>
</trkpt>
<trkpt lat="38.08656428" lon="-1.49221786">
<ele>787</ele>
<time>2014-06-03T19:41:43Z</time>
</trkpt>
<trkpt lat="38.08650487" lon="-1.49237947">
<ele>784</ele>
<time>2014-06-03T19:41:45Z</time>
</trkpt>
<trkpt lat="38.08647411" lon="-1.49254832">
<ele>783</ele>
<time>2014-06-03T19:41:47Z</time>
</trkpt>
<trkpt lat="38.08641259" lon="-1.49272798">
<ele>781</ele>
<time>2014-06-03T19:41:49Z</time>
</trkpt>
<trkpt lat="38.08636213" lon="-1.49288976">
<ele>781</ele>
<time>2014-06-03T19:41:51Z</time>
</trkpt>
<trkpt lat="38.0863165" lon="-1.4930631">
<ele>777</ele>
<time>2014-06-03T19:41:53Z</time>
</trkpt>
<trkpt lat="38.08625283" lon="-1.49324478">
<ele>772</ele>
<time>2014-06-03T19:41:55Z</time>
</trkpt>
<trkpt lat="38.08619249" lon="-1.49341789">
<ele>770</ele>
<time>2014-06-03T19:41:57Z</time>
</trkpt>
<trkpt lat="38.08612318" lon="-1.49358743">
<ele>770</ele>
<time>2014-06-03T19:41:59Z</time>
</trkpt>
<trkpt lat="38.08606904" lon="-1.49374227">
<ele>768</ele>
<time>2014-06-03T19:42:01Z</time>
</trkpt>
<trkpt lat="38.08601553" lon="-1.49392741">
<ele>767</ele>
<time>2014-06-03T19:42:03Z</time>
</trkpt>
<trkpt lat="38.08595787" lon="-1.49411527">
<ele>765</ele>
<time>2014-06-03T19:42:05Z</time>
</trkpt>
<trkpt lat="38.0858904" lon="-1.49428914">
<ele>765</ele>
<time>2014-06-03T19:42:07Z</time>
</trkpt>
<trkpt lat="38.08583376" lon="-1.4944471">
<ele>765</ele>
<time>2014-06-03T19:42:09Z</time>
</trkpt>
<trkpt lat="38.08576661" lon="-1.49462554">
<ele>766</ele>
<time>2014-06-03T19:42:11Z</time>
</trkpt>
<trkpt lat="38.08573096" lon="-1.49479144">
<ele>763</ele>
<time>2014-06-03T19:42:13Z</time>
</trkpt>
<trkpt lat="38.08568413" lon="-1.49497039">
<ele>764</ele>
<time>2014-06-03T19:42:15Z</time>
</trkpt>
<trkpt lat="38.08561794" lon="-1.49515864">
<ele>760</ele>
<time>2014-06-03T19:42:17Z</time>
</trkpt>
<trkpt lat="38.08555626" lon="-1.49533195">
<ele>757</ele>
<time>2014-06-03T19:42:19Z</time>
</trkpt>
<trkpt lat="38.0855089" lon="-1.49549877">
<ele>755</ele>
<time>2014-06-03T19:42:21Z</time>
</trkpt>
<trkpt lat="38.08543527" lon="-1.4956508">
<ele>756</ele>
<time>2014-06-03T19:42:23Z</time>
</trkpt>
<trkpt lat="38.08539679" lon="-1.49582401">
<ele>756</ele>
<time>2014-06-03T19:42:25Z</time>
</trkpt>
<trkpt lat="38.08535154" lon="-1.49600614">
<ele>752</ele>
<time>2014-06-03T19:42:27Z</time>
</trkpt>
<trkpt lat="38.08530917" lon="-1.49618304">
<ele>750</ele>
<time>2014-06-03T19:42:29Z</time>
</trkpt>
<trkpt lat="38.08525387" lon="-1.49634519">
<ele>749</ele>
<time>2014-06-03T19:42:31Z</time>
</trkpt>
<trkpt lat="38.08516978" lon="-1.49648508">
<ele>745</ele>
<time>2014-06-03T19:42:33Z</time>
</trkpt>
<trkpt lat="38.08510386" lon="-1.49660286">
<ele>745</ele>
<time>2014-06-03T19:42:35Z</time>
</trkpt>
<trkpt lat="38.08506068" lon="-1.49669292">
<ele>744</ele>
<time>2014-06-03T19:42:37Z</time>
</trkpt>
<trkpt lat="38.08498898" lon="-1.49678247">
<ele>742</ele>
<time>2014-06-03T19:42:39Z</time>
</trkpt>
<trkpt lat="38.08488689" lon="-1.49682089">
<ele>740</ele>
<time>2014-06-03T19:42:41Z</time>
</trkpt>
<trkpt lat="38.08480952" lon="-1.49676052">
<ele>738</ele>
<time>2014-06-03T19:42:43Z</time>
</trkpt>
<trkpt lat="38.08473202" lon="-1.49669502">
<ele>737</ele>
<time>2014-06-03T19:42:45Z</time>
</trkpt>
<trkpt lat="38.08464848" lon="-1.49658423">
<ele>733</ele>
<time>2014-06-03T19:42:47Z</time>
</trkpt>
<trkpt lat="38.08461199" lon="-1.49644441">
<ele>732</ele>
<time>2014-06-03T19:42:49Z</time>
</trkpt>
<trkpt lat="38.08455151" lon="-1.49629631">
<ele>731</ele>
<time>2014-06-03T19:42:51Z</time>
</trkpt>
<trkpt lat="38.08452651" lon="-1.4961275">
<ele>729</ele>
<time>2014-06-03T19:42:53Z</time>
</trkpt>
<trkpt lat="38.0844986" lon="-1.49592897">
<ele>727</ele>
<time>2014-06-03T19:42:55Z</time>
</trkpt>
<trkpt lat="38.08447349" lon="-1.49578518">
<ele>725</ele>
<time>2014-06-03T19:42:57Z</time>
</trkpt>
<trkpt lat="38.08445738" lon="-1.49562342">
<ele>717</ele>
<time>2014-06-03T19:42:59Z</time>
</trkpt>
<trkpt lat="38.08447508" lon="-1.49545121">
<ele>714</ele>
<time>2014-06-03T19:43:01Z</time>
</trkpt>
<trkpt lat="38.0844781" lon="-1.49528959">
<ele>713</ele>
<time>2014-06-03T19:43:03Z</time>
</trkpt>
<trkpt lat="38.08445803" lon="-1.4951973">
<ele>713</ele>
<time>2014-06-03T19:43:05Z</time>
</trkpt>
<trkpt lat="38.08444231" lon="-1.49505445">
<ele>711</ele>
<time>2014-06-03T19:43:07Z</time>
</trkpt>
<trkpt lat="38.08440653" lon="-1.49489857">
<ele>710</ele>
<time>2014-06-03T19:43:09Z</time>
</trkpt>
<trkpt lat="38.08437864" lon="-1.4947664">
<ele>710</ele>
<time>2014-06-03T19:43:11Z</time>
</trkpt>
<trkpt lat="38.08435029" lon="-1.49460553">
<ele>706</ele>
<time>2014-06-03T19:43:13Z</time>
</trkpt>
<trkpt lat="38.08431965" lon="-1.49442836">
<ele>701</ele>
<time>2014-06-03T19:43:15Z</time>
</trkpt>
<trkpt lat="38.08431162" lon="-1.49425947">
<ele>698</ele>
<time>2014-06-03T19:43:17Z</time>
</trkpt>
<trkpt lat="38.08430117" lon="-1.49409358">
<ele>695</ele>
<time>2014-06-03T19:43:19Z</time>
</trkpt>
<trkpt lat="38.08429819" lon="-1.49393113">
<ele>690</ele>
<time>2014-06-03T19:43:21Z</time>
</trkpt>
<trkpt lat="38.08428359" lon="-1.49375494">
<ele>689</ele>
<time>2014-06-03T19:43:23Z</time>
</trkpt>
<trkpt lat="38.08432748" lon="-1.49363089">
<ele>688</ele>
<time>2014-06-03T19:43:25Z</time>
</trkpt>
<trkpt lat="38.0843827" lon="-1.49347152">
<ele>686</ele>
<time>2014-06-03T19:43:27Z</time>
</trkpt>
<trkpt lat="38.08446159" lon="-1.4933253">
<ele>682</ele>
<time>2014-06-03T19:43:29Z</time>
</trkpt>
<trkpt lat="38.08455066" lon="-1.49315719">
<ele>680</ele>
<time>2014-06-03T19:43:31Z</time>
</trkpt>
<trkpt lat="38.08466144" lon="-1.49300908">
<ele>680</ele>
<time>2014-06-03T19:43:33Z</time>
</trkpt>
<trkpt lat="38.08483211" lon="-1.49287319">
<ele>680</ele>
<time>2014-06-03T19:43:35Z</time>
</trkpt>
<trkpt lat="38.08498728" lon="-1.49272642">
<ele>678</ele>
<time>2014-06-03T19:43:37Z</time>
</trkpt>
<trkpt lat="38.0851612" lon="-1.49259554">
<ele>678</ele>
<time>2014-06-03T19:43:39Z</time>
</trkpt>
<trkpt lat="38.08531813" lon="-1.49247931">
<ele>677</ele>
<time>2014-06-03T19:43:41Z</time>
</trkpt>
<trkpt lat="38.08545496" lon="-1.49232666">
<ele>677</ele>
<time>2014-06-03T19:43:43Z</time>
</trkpt>
<trkpt lat="38.08557636" lon="-1.49215886">
<ele>676</ele>
<time>2014-06-03T19:43:45Z</time>
</trkpt>
<trkpt lat="38.08569146" lon="-1.49198403">
<ele>679</ele>
<time>2014-06-03T19:43:47Z</time>
</trkpt>
<trkpt lat="38.08576458" lon="-1.49181339">
<ele>678</ele>
<time>2014-06-03T19:43:49Z</time>
</trkpt>
<trkpt lat="38.08581657" lon="-1.49164636">
<ele>680</ele>
<time>2014-06-03T19:43:51Z</time>
</trkpt>
<trkpt lat="38.08584486" lon="-1.49149584">
<ele>679</ele>
<time>2014-06-03T19:43:53Z</time>
</trkpt>
<trkpt lat="38.08584304" lon="-1.49131609">
<ele>677</ele>
<time>2014-06-03T19:43:55Z</time>
</trkpt>
<trkpt lat="38.08585155" lon="-1.49116334">
<ele>674</ele>
<time>2014-06-03T19:43:57Z</time>
</trkpt>
<trkpt lat="38.08588001" lon="-1.49102275">
<ele>674</ele>
<time>2014-06-03T19:43:59Z</time>
</trkpt>
<trkpt lat="38.08590624" lon="-1.49087949">
<ele>675</ele>
<time>2014-06-03T19:44:01Z</time>
</trkpt>
<trkpt lat="38.08592578" lon="-1.49070455">
<ele>674</ele>
<time>2014-06-03T19:44:03Z</time>
</trkpt>
<trkpt lat="38.08594766" lon="-1.49052339">
<ele>674</ele>
<time>2014-06-03T19:44:05Z</time>
</trkpt>
<trkpt lat="38.08598454" lon="-1.4903396">
<ele>675</ele>
<time>2014-06-03T19:44:07Z</time>
</trkpt>
<trkpt lat="38.0860348" lon="-1.49015871">
<ele>677</ele>
<time>2014-06-03T19:44:09Z</time>
</trkpt>
<trkpt lat="38.08611386" lon="-1.49001407">
<ele>676</ele>
<time>2014-06-03T19:44:11Z</time>
</trkpt>
<trkpt lat="38.08615003" lon="-1.48985592">
<ele>674</ele>
<time>2014-06-03T19:44:13Z</time>
</trkpt>
<trkpt lat="38.08616138" lon="-1.48968284">
<ele>674</ele>
<time>2014-06-03T19:44:15Z</time>
</trkpt>
<trkpt lat="38.08615861" lon="-1.48954453">
<ele>674</ele>
<time>2014-06-03T19:44:17Z</time>
</trkpt>
<trkpt lat="38.08619028" lon="-1.4894518">
<ele>679</ele>
<time>2014-06-03T19:44:19Z</time>
</trkpt>
<trkpt lat="38.08618265" lon="-1.48930443">
<ele>678</ele>
<time>2014-06-03T19:44:21Z</time>
</trkpt>
<trkpt lat="38.08616993" lon="-1.48911606">
<ele>677</ele>
<time>2014-06-03T19:44:23Z</time>
</trkpt>
<trkpt lat="38.0861445" lon="-1.48900351">
<ele>678</ele>
<time>2014-06-03T19:44:25Z</time>
</trkpt>
<trkpt lat="38.08614027" lon="-1.48891162">
<ele>678</ele>
<time>2014-06-03T19:44:27Z</time>
</trkpt>
<trkpt lat="38.08609848" lon="-1.48880663">
<ele>675</ele>
<time>2014-06-03T19:44:29Z</time>
</trkpt>
<trkpt lat="38.08606097" lon="-1.48867504">
<ele>674</ele>
<time>2014-06-03T19:44:31Z</time>
</trkpt>
<trkpt lat="38.08601253" lon="-1.48858185">
<ele>672</ele>
<time>2014-06-03T19:44:33Z</time>
</trkpt>
<trkpt lat="38.08596206" lon="-1.48848818">
<ele>672</ele>
<time>2014-06-03T19:44:35Z</time>
</trkpt>
<trkpt lat="38.08592423" lon="-1.48842722">
<ele>673</ele>
<time>2014-06-03T19:44:37Z</time>
</trkpt>
<trkpt lat="38.08586006" lon="-1.48835431">
<ele>673</ele>
<time>2014-06-03T19:44:39Z</time>
</trkpt>
<trkpt lat="38.08578287" lon="-1.48828825">
<ele>673</ele>
<time>2014-06-03T19:44:41Z</time>
</trkpt>
<trkpt lat="38.08572772" lon="-1.48821883">
<ele>671</ele>
<time>2014-06-03T19:44:43Z</time>
</trkpt>
<trkpt lat="38.08559091" lon="-1.48800427">
<ele>670</ele>
<time>2014-06-03T19:44:47Z</time>
</trkpt>
<trkpt lat="38.08556287" lon="-1.48787022">
<ele>672</ele>
<time>2014-06-03T19:44:49Z</time>
</trkpt>
<trkpt lat="38.08551501" lon="-1.4877393">
<ele>673</ele>
<time>2014-06-03T19:44:51Z</time>
</trkpt>
<trkpt lat="38.08547317" lon="-1.48764756">
<ele>673</ele>
<time>2014-06-03T19:44:53Z</time>
</trkpt>
<trkpt lat="38.08540506" lon="-1.48757894">
<ele>673</ele>
<time>2014-06-03T19:44:55Z</time>
</trkpt>
<trkpt lat="38.08533815" lon="-1.48754079">
<ele>672</ele>
<time>2014-06-03T19:44:57Z</time>
</trkpt>
<trkpt lat="38.08526949" lon="-1.48750538">
<ele>672</ele>
<time>2014-06-03T19:44:59Z</time>
</trkpt>
<trkpt lat="38.08520213" lon="-1.48744387">
<ele>672</ele>
<time>2014-06-03T19:45:01Z</time>
</trkpt>
<trkpt lat="38.08512615" lon="-1.48744215">
<ele>673</ele>
<time>2014-06-03T19:45:03Z</time>
</trkpt>
<trkpt lat="38.08506754" lon="-1.48742605">
<ele>670</ele>
<time>2014-06-03T19:45:05Z</time>
</trkpt>
<trkpt lat="38.08499169" lon="-1.48746465">
<ele>669</ele>
<time>2014-06-03T19:45:07Z</time>
</trkpt>
<trkpt lat="38.08492045" lon="-1.48755341">
<ele>665</ele>
<time>2014-06-03T19:45:09Z</time>
</trkpt>
<trkpt lat="38.08484077" lon="-1.48763624">
<ele>665</ele>
<time>2014-06-03T19:45:11Z</time>
</trkpt>
<trkpt lat="38.08475871" lon="-1.48773809">
<ele>665</ele>
<time>2014-06-03T19:45:13Z</time>
</trkpt>
<trkpt lat="38.0846729" lon="-1.48781529">
<ele>667</ele>
<time>2014-06-03T19:45:15Z</time>
</trkpt>
<trkpt lat="38.08458774" lon="-1.48792045">
<ele>666</ele>
<time>2014-06-03T19:45:17Z</time>
</trkpt>
<trkpt lat="38.08450446" lon="-1.48800101">
<ele>662</ele>
<time>2014-06-03T19:45:19Z</time>
</trkpt>
<trkpt lat="38.08441827" lon="-1.48811753">
<ele>663</ele>
<time>2014-06-03T19:45:21Z</time>
</trkpt>
<trkpt lat="38.08433193" lon="-1.48824901">
<ele>661</ele>
<time>2014-06-03T19:45:23Z</time>
</trkpt>
<trkpt lat="38.08424109" lon="-1.48837939">
<ele>658</ele>
<time>2014-06-03T19:45:25Z</time>
</trkpt>
<trkpt lat="38.08416539" lon="-1.48851248">
<ele>657</ele>
<time>2014-06-03T19:45:27Z</time>
</trkpt>
<trkpt lat="38.08410669" lon="-1.48863946">
<ele>656</ele>
<time>2014-06-03T19:45:29Z</time>
</trkpt>
<trkpt lat="38.08404272" lon="-1.48877103">
<ele>657</ele>
<time>2014-06-03T19:45:31Z</time>
</trkpt>
<trkpt lat="38.0839777" lon="-1.48889823">
<ele>656</ele>
<time>2014-06-03T19:45:33Z</time>
</trkpt>
<trkpt lat="38.08390128" lon="-1.4889588">
<ele>656</ele>
<time>2014-06-03T19:45:35Z</time>
</trkpt>
<trkpt lat="38.08383374" lon="-1.48894519">
<ele>658</ele>
<time>2014-06-03T19:45:37Z</time>
</trkpt>
<trkpt lat="38.08381573" lon="-1.48878527">
<ele>657</ele>
<time>2014-06-03T19:45:39Z</time>
</trkpt>
<trkpt lat="38.08396366" lon="-1.48859339">
<ele>654</ele>
<time>2014-06-03T19:45:41Z</time>
</trkpt>
<trkpt lat="38.0842121" lon="-1.48858257">
<ele>652</ele>
<time>2014-06-03T19:45:43Z</time>
</trkpt>
<trkpt lat="38.08437128" lon="-1.48879073">
<ele>650</ele>
<time>2014-06-03T19:45:45Z</time>
</trkpt>
<trkpt lat="38.08430843" lon="-1.48893522">
<ele>647</ele>
<time>2014-06-03T19:45:47Z</time>
</trkpt>
<trkpt lat="38.08429125" lon="-1.48877012">
<ele>641</ele>
<time>2014-06-03T19:45:49Z</time>
</trkpt>
<trkpt lat="38.08439524" lon="-1.48848702">
<ele>636</ele>
<time>2014-06-03T19:45:51Z</time>
</trkpt>
<trkpt lat="38.0846486" lon="-1.4889769">
<ele>634</ele>
<time>2014-06-03T19:45:53Z</time>
</trkpt>
<trkpt lat="38.08459827" lon="-1.48913082">
<ele>637</ele>
<time>2014-06-03T19:45:55Z</time>
</trkpt>
<trkpt lat="38.08454555" lon="-1.48918726">
<ele>636</ele>
<time>2014-06-03T19:45:57Z</time>
</trkpt>
<trkpt lat="38.08449307" lon="-1.4892452">
<ele>634</ele>
<time>2014-06-03T19:45:59Z</time>
</trkpt>
<trkpt lat="38.08442047" lon="-1.48925753">
<ele>633</ele>
<time>2014-06-03T19:46:01Z</time>
</trkpt>
<trkpt lat="38.08434807" lon="-1.48917711">
<ele>630</ele>
<time>2014-06-03T19:46:03Z</time>
</trkpt>
<trkpt lat="38.08428445" lon="-1.48904627">
<ele>628</ele>
<time>2014-06-03T19:46:05Z</time>
</trkpt>
<trkpt lat="38.0842429" lon="-1.4889323">
<ele>628</ele>
<time>2014-06-03T19:46:07Z</time>
</trkpt>
<trkpt lat="38.08417336" lon="-1.4888583">
<ele>628</ele>
<time>2014-06-03T19:46:09Z</time>
</trkpt>
<trkpt lat="38.08408926" lon="-1.48880309">
<ele>627</ele>
<time>2014-06-03T19:46:11Z</time>
</trkpt>
<trkpt lat="38.08405711" lon="-1.48864221">
<ele>626</ele>
<time>2014-06-03T19:46:13Z</time>
</trkpt>
<trkpt lat="38.08409435" lon="-1.48846954">
<ele>625</ele>
<time>2014-06-03T19:46:15Z</time>
</trkpt>
<trkpt lat="38.08420745" lon="-1.48831218">
<ele>624</ele>
<time>2014-06-03T19:46:17Z</time>
</trkpt>
<trkpt lat="38.08438515" lon="-1.48817899">
<ele>624</ele>
<time>2014-06-03T19:46:19Z</time>
</trkpt>
<trkpt lat="38.0845997" lon="-1.48810374">
<ele>623</ele>
<time>2014-06-03T19:46:21Z</time>
</trkpt>
<trkpt lat="38.08484073" lon="-1.48812365">
<ele>621</ele>
<time>2014-06-03T19:46:23Z</time>
</trkpt>
<trkpt lat="38.08504368" lon="-1.48822585">
<ele>622</ele>
<time>2014-06-03T19:46:25Z</time>
</trkpt>
<trkpt lat="38.08523684" lon="-1.48836423">
<ele>623</ele>
<time>2014-06-03T19:46:27Z</time>
</trkpt>
<trkpt lat="38.08536288" lon="-1.48861352">
<ele>620</ele>
<time>2014-06-03T19:46:29Z</time>
</trkpt>
<trkpt lat="38.08550366" lon="-1.48884902">
<ele>619</ele>
<time>2014-06-03T19:46:31Z</time>
</trkpt>
<trkpt lat="38.08561663" lon="-1.48910267">
<ele>619</ele>
<time>2014-06-03T19:46:33Z</time>
</trkpt>
<trkpt lat="38.08570952" lon="-1.48933476">
<ele>622</ele>
<time>2014-06-03T19:46:35Z</time>
</trkpt>
<trkpt lat="38.08577982" lon="-1.48953592">
<ele>624</ele>
<time>2014-06-03T19:46:37Z</time>
</trkpt>
<trkpt lat="38.08582449" lon="-1.48973793">
<ele>621</ele>
<time>2014-06-03T19:46:39Z</time>
</trkpt>
<trkpt lat="38.08587837" lon="-1.48995413">
<ele>620</ele>
<time>2014-06-03T19:46:41Z</time>
</trkpt>
<trkpt lat="38.08591555" lon="-1.49016993">
<ele>619</ele>
<time>2014-06-03T19:46:43Z</time>
</trkpt>
<trkpt lat="38.08594642" lon="-1.49038772">
<ele>618</ele>
<time>2014-06-03T19:46:45Z</time>
</trkpt>
<trkpt lat="38.08596453" lon="-1.49061091">
<ele>618</ele>
<time>2014-06-03T19:46:47Z</time>
</trkpt>
<trkpt lat="38.08597578" lon="-1.49082915">
<ele>619</ele>
<time>2014-06-03T19:46:49Z</time>
</trkpt>
<trkpt lat="38.08599146" lon="-1.49106617">
<ele>619</ele>
<time>2014-06-03T19:46:51Z</time>
</trkpt>
<trkpt lat="38.08601489" lon="-1.49127642">
<ele>618</ele>
<time>2014-06-03T19:46:53Z</time>
</trkpt>
<trkpt lat="38.08602251" lon="-1.49148678">
<ele>619</ele>
<time>2014-06-03T19:46:55Z</time>
</trkpt>
<trkpt lat="38.08596646" lon="-1.49168884">
<ele>618</ele>
<time>2014-06-03T19:46:57Z</time>
</trkpt>
<trkpt lat="38.08593178" lon="-1.49186411">
<ele>619</ele>
<time>2014-06-03T19:46:59Z</time>
</trkpt>
<trkpt lat="38.08587147" lon="-1.49201382">
<ele>620</ele>
<time>2014-06-03T19:47:01Z</time>
</trkpt>
<trkpt lat="38.08577826" lon="-1.49212045">
<ele>621</ele>
<time>2014-06-03T19:47:03Z</time>
</trkpt>
<trkpt lat="38.08570046" lon="-1.49210336">
<ele>618</ele>
<time>2014-06-03T19:47:05Z</time>
</trkpt>
<trkpt lat="38.0856651" lon="-1.49200031">
<ele>617</ele>
<time>2014-06-03T19:47:07Z</time>
</trkpt>
<trkpt lat="38.08569636" lon="-1.49184643">
<ele>617</ele>
<time>2014-06-03T19:47:09Z</time>
</trkpt>
<trkpt lat="38.08579202" lon="-1.49172359">
<ele>616</ele>
<time>2014-06-03T19:47:11Z</time>
</trkpt>
<trkpt lat="38.08590108" lon="-1.49160052">
<ele>614</ele>
<time>2014-06-03T19:47:13Z</time>
</trkpt>
<trkpt lat="38.08600693" lon="-1.49146168">
<ele>612</ele>
<time>2014-06-03T19:47:15Z</time>
</trkpt>
<trkpt lat="38.08609263" lon="-1.49130168">
<ele>612</ele>
<time>2014-06-03T19:47:17Z</time>
</trkpt>
<trkpt lat="38.08617945" lon="-1.49113848">
<ele>613</ele>
<time>2014-06-03T19:47:19Z</time>
</trkpt>
<trkpt lat="38.08626171" lon="-1.49096965">
<ele>613</ele>
<time>2014-06-03T19:47:21Z</time>
</trkpt>
<trkpt lat="38.0863651" lon="-1.49081939">
<ele>614</ele>
<time>2014-06-03T19:47:23Z</time>
</trkpt>
<trkpt lat="38.08644166" lon="-1.49062636">
<ele>615</ele>
<time>2014-06-03T19:47:25Z</time>
</trkpt>
<trkpt lat="38.08653262" lon="-1.49045958">
<ele>617</ele>
<time>2014-06-03T19:47:27Z</time>
</trkpt>
<trkpt lat="38.08663028" lon="-1.49030334">
<ele>616</ele>
<time>2014-06-03T19:47:29Z</time>
</trkpt>
<trkpt lat="38.08671722" lon="-1.49013136">
<ele>614</ele>
<time>2014-06-03T19:47:31Z</time>
</trkpt>
<trkpt lat="38.08681523" lon="-1.48994087">
<ele>613</ele>
<time>2014-06-03T19:47:33Z</time>
</trkpt>
<trkpt lat="38.08689379" lon="-1.48974865">
<ele>611</ele>
<time>2014-06-03T19:47:35Z</time>
</trkpt>
<trkpt lat="38.0869669" lon="-1.48954453">
<ele>610</ele>
<time>2014-06-03T19:47:37Z</time>
</trkpt>
<trkpt lat="38.08703087" lon="-1.48934027">
<ele>611</ele>
<time>2014-06-03T19:47:39Z</time>
</trkpt>
<trkpt lat="38.08706366" lon="-1.48917423">
<ele>613</ele>
<time>2014-06-03T19:47:41Z</time>
</trkpt>
<trkpt lat="38.08705521" lon="-1.48901018">
<ele>611</ele>
<time>2014-06-03T19:47:43Z</time>
</trkpt>
<trkpt lat="38.08704229" lon="-1.48886291">
<ele>614</ele>
<time>2014-06-03T19:47:45Z</time>
</trkpt>
<trkpt lat="38.087002" lon="-1.48871024">
<ele>618</ele>
<time>2014-06-03T19:47:47Z</time>
</trkpt>
<trkpt lat="38.08694861" lon="-1.48859917">
<ele>619</ele>
<time>2014-06-03T19:47:49Z</time>
</trkpt>
<trkpt lat="38.0868484" lon="-1.48851572">
<ele>618</ele>
<time>2014-06-03T19:47:51Z</time>
</trkpt>
<trkpt lat="38.08673026" lon="-1.48849527">
<ele>620</ele>
<time>2014-06-03T19:47:53Z</time>
</trkpt>
<trkpt lat="38.08665003" lon="-1.48851135">
<ele>619</ele>
<time>2014-06-03T19:47:55Z</time>
</trkpt>
<trkpt lat="38.08656352" lon="-1.48859401">
<ele>618</ele>
<time>2014-06-03T19:47:57Z</time>
</trkpt>
<trkpt lat="38.08648401" lon="-1.48873781">
<ele>617</ele>
<time>2014-06-03T19:47:59Z</time>
</trkpt>
<trkpt lat="38.08643626" lon="-1.48889093">
<ele>617</ele>
<time>2014-06-03T19:48:01Z</time>
</trkpt>
<trkpt lat="38.08638447" lon="-1.48905466">
<ele>616</ele>
<time>2014-06-03T19:48:03Z</time>
</trkpt>
<trkpt lat="38.08633412" lon="-1.48921594">
<ele>615</ele>
<time>2014-06-03T19:48:05Z</time>
</trkpt>
<trkpt lat="38.08628021" lon="-1.48936454">
<ele>615</ele>
<time>2014-06-03T19:48:07Z</time>
</trkpt>
<trkpt lat="38.08622578" lon="-1.48952231">
<ele>616</ele>
<time>2014-06-03T19:48:09Z</time>
</trkpt>
<trkpt lat="38.08613816" lon="-1.48969694">
<ele>615</ele>
<time>2014-06-03T19:48:11Z</time>
</trkpt>
<trkpt lat="38.08605591" lon="-1.48981865">
<ele>615</ele>
<time>2014-06-03T19:48:13Z</time>
</trkpt>
<trkpt lat="38.08598474" lon="-1.48995324">
<ele>616</ele>
<time>2014-06-03T19:48:15Z</time>
</trkpt>
<trkpt lat="38.08592441" lon="-1.4901219">
<ele>616</ele>
<time>2014-06-03T19:48:17Z</time>
</trkpt>
<trkpt lat="38.08585994" lon="-1.49030088">
<ele>616</ele>
<time>2014-06-03T19:48:19Z</time>
</trkpt>
<trkpt lat="38.08581239" lon="-1.49047416">
<ele>616</ele>
<time>2014-06-03T19:48:21Z</time>
</trkpt>
<trkpt lat="38.08576551" lon="-1.49065113">
<ele>616</ele>
<time>2014-06-03T19:48:23Z</time>
</trkpt>
<trkpt lat="38.08573212" lon="-1.49079501">
<ele>614</ele>
<time>2014-06-03T19:48:25Z</time>
</trkpt>
<trkpt lat="38.08570265" lon="-1.49096">
<ele>613</ele>
<time>2014-06-03T19:48:27Z</time>
</trkpt>
<trkpt lat="38.08570293" lon="-1.49117371">
<ele>612</ele>
<time>2014-06-03T19:48:29Z</time>
</trkpt>
<trkpt lat="38.08568111" lon="-1.49137234">
<ele>611</ele>
<time>2014-06-03T19:48:31Z</time>
</trkpt>
<trkpt lat="38.08565297" lon="-1.49160683">
<ele>608</ele>
<time>2014-06-03T19:48:33Z</time>
</trkpt>
<trkpt lat="38.08562839" lon="-1.49180804">
<ele>608</ele>
<time>2014-06-03T19:48:35Z</time>
</trkpt>
<trkpt lat="38.08558951" lon="-1.49198646">
<ele>606</ele>
<time>2014-06-03T19:48:37Z</time>
</trkpt>
<trkpt lat="38.08554682" lon="-1.49218794">
<ele>606</ele>
<time>2014-06-03T19:48:39Z</time>
</trkpt>
<trkpt lat="38.08549513" lon="-1.49235878">
<ele>606</ele>
<time>2014-06-03T19:48:41Z</time>
</trkpt>
<trkpt lat="38.08541965" lon="-1.49246512">
<ele>601</ele>
<time>2014-06-03T19:48:43Z</time>
</trkpt>
<trkpt lat="38.08532276" lon="-1.49259097">
<ele>599</ele>
<time>2014-06-03T19:48:45Z</time>
</trkpt>
<trkpt lat="38.0852192" lon="-1.49271903">
<ele>594</ele>
<time>2014-06-03T19:48:47Z</time>
</trkpt>
<trkpt lat="38.08508692" lon="-1.4927669">
<ele>591</ele>
<time>2014-06-03T19:48:49Z</time>
</trkpt>
<trkpt lat="38.08497889" lon="-1.49274192">
<ele>589</ele>
<time>2014-06-03T19:48:51Z</time>
</trkpt>
<trkpt lat="38.08490646" lon="-1.4926291">
<ele>585</ele>
<time>2014-06-03T19:48:53Z</time>
</trkpt>
<trkpt lat="38.08490072" lon="-1.49245865">
<ele>585</ele>
<time>2014-06-03T19:48:55Z</time>
</trkpt>
<trkpt lat="38.08495002" lon="-1.4923089">
<ele>586</ele>
<time>2014-06-03T19:48:57Z</time>
</trkpt>
<trkpt lat="38.08498663" lon="-1.49215733">
<ele>585</ele>
<time>2014-06-03T19:48:59Z</time>
</trkpt>
<trkpt lat="38.0850285" lon="-1.49199877">
<ele>583</ele>
<time>2014-06-03T19:49:01Z</time>
</trkpt>
<trkpt lat="38.08509461" lon="-1.49180812">
<ele>580</ele>
<time>2014-06-03T19:49:03Z</time>
</trkpt>
<trkpt lat="38.08514887" lon="-1.49164169">
<ele>580</ele>
<time>2014-06-03T19:49:05Z</time>
</trkpt>
<trkpt lat="38.08520567" lon="-1.4914739">
<ele>577</ele>
<time>2014-06-03T19:49:07Z</time>
</trkpt>
<trkpt lat="38.08528406" lon="-1.49132947">
<ele>575</ele>
<time>2014-06-03T19:49:09Z</time>
</trkpt>
<trkpt lat="38.08535322" lon="-1.49115201">
<ele>571</ele>
<time>2014-06-03T19:49:11Z</time>
</trkpt>
<trkpt lat="38.08539402" lon="-1.49099176">
<ele>570</ele>
<time>2014-06-03T19:49:13Z</time>
</trkpt>
<trkpt lat="38.08542943" lon="-1.49080965">
<ele>570</ele>
<time>2014-06-03T19:49:15Z</time>
</trkpt>
<trkpt lat="38.08545723" lon="-1.49059207">
<ele>571</ele>
<time>2014-06-03T19:49:17Z</time>
</trkpt>
<trkpt lat="38.08550106" lon="-1.49041678">
<ele>571</ele>
<time>2014-06-03T19:49:19Z</time>
</trkpt>
<trkpt lat="38.08558463" lon="-1.49022109">
<ele>572</ele>
<time>2014-06-03T19:49:21Z</time>
</trkpt>
<trkpt lat="38.08568656" lon="-1.49008336">
<ele>567</ele>
<time>2014-06-03T19:49:23Z</time>
</trkpt>
<trkpt lat="38.08577551" lon="-1.48990968">
<ele>564</ele>
<time>2014-06-03T19:49:25Z</time>
</trkpt>
<trkpt lat="38.08589903" lon="-1.48972288">
<ele>563</ele>
<time>2014-06-03T19:49:27Z</time>
</trkpt>
<trkpt lat="38.08598411" lon="-1.48955324">
<ele>561</ele>
<time>2014-06-03T19:49:29Z</time>
</trkpt>
<trkpt lat="38.08608241" lon="-1.48940515">
<ele>559</ele>
<time>2014-06-03T19:49:31Z</time>
</trkpt>
<trkpt lat="38.08614984" lon="-1.48922157">
<ele>555</ele>
<time>2014-06-03T19:49:33Z</time>
</trkpt>
<trkpt lat="38.08621782" lon="-1.48901944">
<ele>553</ele>
<time>2014-06-03T19:49:35Z</time>
</trkpt>
<trkpt lat="38.08625782" lon="-1.48883983">
<ele>554</ele>
<time>2014-06-03T19:49:37Z</time>
</trkpt>
<trkpt lat="38.08619174" lon="-1.48865329">
<ele>551</ele>
<time>2014-06-03T19:49:39Z</time>
</trkpt>
<trkpt lat="38.08605147" lon="-1.48859865">
<ele>551</ele>
<time>2014-06-03T19:49:41Z</time>
</trkpt>
<trkpt lat="38.08590322" lon="-1.48861542">
<ele>553</ele>
<time>2014-06-03T19:49:43Z</time>
</trkpt>
<trkpt lat="38.08587004" lon="-1.48883283">
<ele>549</ele>
<time>2014-06-03T19:49:45Z</time>
</trkpt>
<trkpt lat="38.08583252" lon="-1.48903529">
<ele>546</ele>
<time>2014-06-03T19:49:47Z</time>
</trkpt>
<trkpt lat="38.08574868" lon="-1.48917418">
<ele>545</ele>
<time>2014-06-03T19:49:49Z</time>
</trkpt>
<trkpt lat="38.08567285" lon="-1.48933869">
<ele>544</ele>
<time>2014-06-03T19:49:51Z</time>
</trkpt>
<trkpt lat="38.08558637" lon="-1.48948364">
<ele>542</ele>
<time>2014-06-03T19:49:53Z</time>
</trkpt>
<trkpt lat="38.08546079" lon="-1.48957546">
<ele>540</ele>
<time>2014-06-03T19:49:55Z</time>
</trkpt>
<trkpt lat="38.0853233" lon="-1.48963035">
<ele>539</ele>
<time>2014-06-03T19:49:57Z</time>
</trkpt>
<trkpt lat="38.08520284" lon="-1.48972103">
<ele>538</ele>
<time>2014-06-03T19:49:59Z</time>
</trkpt>
<trkpt lat="38.08509462" lon="-1.48981232">
<ele>536</ele>
<time>2014-06-03T19:50:01Z</time>
</trkpt>
<trkpt lat="38.08494789" lon="-1.48983639">
<ele>536</ele>
<time>2014-06-03T19:50:03Z</time>
</trkpt>
<trkpt lat="38.08481404" lon="-1.48986372">
<ele>535</ele>
<time>2014-06-03T19:50:05Z</time>
</trkpt>
<trkpt lat="38.08470484" lon="-1.4898238">
<ele>534</ele>
<time>2014-06-03T19:50:07Z</time>
</trkpt>
<trkpt lat="38.08462562" lon="-1.48965783">
<ele>531</ele>
<time>2014-06-03T19:50:09Z</time>
</trkpt>
<trkpt lat="38.08459704" lon="-1.48948112">
<ele>529</ele>
<time>2014-06-03T19:50:11Z</time>
</trkpt>
<trkpt lat="38.08459718" lon="-1.48929625">
<ele>527</ele>
<time>2014-06-03T19:50:13Z</time>
</trkpt>
<trkpt lat="38.08458921" lon="-1.48914589">
<ele>526</ele>
<time>2014-06-03T19:50:15Z</time>
</trkpt>
<trkpt lat="38.08457551" lon="-1.48900751">
<ele>522</ele>
<time>2014-06-03T19:50:17Z</time>
</trkpt>
<trkpt lat="38.08453596" lon="-1.4888763">
<ele>519</ele>
<time>2014-06-03T19:50:19Z</time>
</trkpt>
<trkpt lat="38.08448634" lon="-1.48873556">
<ele>516</ele>
<time>2014-06-03T19:50:21Z</time>
</trkpt>
<trkpt lat="38.08447562" lon="-1.4885839">
<ele>515</ele>
<time>2014-06-03T19:50:23Z</time>
</trkpt>
<trkpt lat="38.08444572" lon="-1.48844375">
<ele>514</ele>
<time>2014-06-03T19:50:25Z</time>
</trkpt>
<trkpt lat="38.08438081" lon="-1.48832435">
<ele>513</ele>
<time>2014-06-03T19:50:27Z</time>
</trkpt>
<trkpt lat="38.08433973" lon="-1.48820442">
<ele>513</ele>
<time>2014-06-03T19:50:29Z</time>
</trkpt>
<trkpt lat="38.08429193" lon="-1.48810623">
<ele>513</ele>
<time>2014-06-03T19:50:31Z</time>
</trkpt>
<trkpt lat="38.08425826" lon="-1.488003">
<ele>511</ele>
<time>2014-06-03T19:50:33Z</time>
</trkpt>
<trkpt lat="38.0842551" lon="-1.48800712">
<ele>511</ele>
<time>2014-06-03T19:50:35Z</time>
</trkpt>
<trkpt lat="38.08426087" lon="-1.48799579">
<ele>511</ele>
<time>2014-06-03T19:50:37Z</time>
</trkpt>
<trkpt lat="38.08425634" lon="-1.48799909">
<ele>511</ele>
<time>2014-06-03T19:50:39Z</time>
</trkpt>
<trkpt lat="38.08425634" lon="-1.48799909">
<ele>511</ele>
<time>2014-06-03T19:50:41Z</time>
</trkpt>
<trkpt lat="38.08426223" lon="-1.48799043">
<ele>511</ele>
<time>2014-06-03T19:50:43Z</time>
</trkpt>
<trkpt lat="38.08426198" lon="-1.48798269">
<ele>512</ele>
<time>2014-06-03T19:50:45Z</time>
</trkpt>
<trkpt lat="38.08425796" lon="-1.48797883">
<ele>512</ele>
<time>2014-06-03T19:50:47Z</time>
</trkpt>
<trkpt lat="38.08426126" lon="-1.48797251">
<ele>512</ele>
<time>2014-06-03T19:50:49Z</time>
</trkpt>
<trkpt lat="38.08426295" lon="-1.4879676">
<ele>512</ele>
<time>2014-06-03T19:50:51Z</time>
</trkpt>
<trkpt lat="38.0842647" lon="-1.48796604">
<ele>511</ele>
<time>2014-06-03T19:50:53Z</time>
</trkpt>
<trkpt lat="38.08426506" lon="-1.48796276">
<ele>511</ele>
<time>2014-06-03T19:50:55Z</time>
</trkpt>
<trkpt lat="38.08426531" lon="-1.48796119">
<ele>511</ele>
<time>2014-06-03T19:50:57Z</time>
</trkpt>
<trkpt lat="38.08426476" lon="-1.48796031">
<ele>511</ele>
<time>2014-06-03T19:50:59Z</time>
</trkpt>
<trkpt lat="38.08426476" lon="-1.48796031">
<ele>511</ele>
<time>2014-06-03T19:51:01Z</time>
</trkpt>
<trkpt lat="38.08426485" lon="-1.4879598">
<ele>511</ele>
<time>2014-06-03T19:51:03Z</time>
</trkpt>
<trkpt lat="38.08426489" lon="-1.48795973">
<ele>511</ele>
<time>2014-06-03T19:51:05Z</time>
</trkpt>
<trkpt lat="38.08426489" lon="-1.48795973">
<ele>511</ele>
<time>2014-06-03T19:51:07Z</time>
</trkpt>
<trkpt lat="38.08426492" lon="-1.48795972">
<ele>511</ele>
<time>2014-06-03T19:51:09Z</time>
</trkpt>
<trkpt lat="38.08426492" lon="-1.48795972">
<ele>511</ele>
<time>2014-06-03T19:51:11Z</time>
</trkpt>
<trkpt lat="38.08426554" lon="-1.48796025">
<ele>511</ele>
<time>2014-06-03T19:51:13Z</time>
</trkpt>
<trkpt lat="38.08426545" lon="-1.48796037">
<ele>511</ele>
<time>2014-06-03T19:51:15Z</time>
</trkpt>
<trkpt lat="38.08426545" lon="-1.48796037">
<ele>511</ele>
<time>2014-06-03T19:51:17Z</time>
</trkpt>
<trkpt lat="38.0842652" lon="-1.48796033">
<ele>511</ele>
<time>2014-06-03T19:51:19Z</time>
</trkpt>
<trkpt lat="38.08426526" lon="-1.48796058">
<ele>511</ele>
<time>2014-06-03T19:51:21Z</time>
</trkpt>
<trkpt lat="38.0842653" lon="-1.48796063">
<ele>511</ele>
<time>2014-06-03T19:51:23Z</time>
</trkpt>
<trkpt lat="38.08426545" lon="-1.48796063">
<ele>511</ele>
<time>2014-06-03T19:51:25Z</time>
</trkpt>
<trkpt lat="38.08426543" lon="-1.48796062">
<ele>511</ele>
<time>2014-06-03T19:51:27Z</time>
</trkpt>
<trkpt lat="38.08426551" lon="-1.4879606">
<ele>511</ele>
<time>2014-06-03T19:51:29Z</time>
</trkpt>
<trkpt lat="38.0842656" lon="-1.48796056">
<ele>511</ele>
<time>2014-06-03T19:51:31Z</time>
</trkpt>
<trkpt lat="38.0842656" lon="-1.48796056">
<ele>511</ele>
<time>2014-06-03T19:51:33Z</time>
</trkpt>
<trkpt lat="38.0842656" lon="-1.48796066">
<ele>511</ele>
<time>2014-06-03T19:51:35Z</time>
</trkpt>
<trkpt lat="38.08426566" lon="-1.48796046">
<ele>511</ele>
<time>2014-06-03T19:51:37Z</time>
</trkpt>
<trkpt lat="38.08426566" lon="-1.48796046">
<ele>511</ele>
<time>2014-06-03T19:51:39Z</time>
</trkpt>
<trkpt lat="38.08426567" lon="-1.48796045">
<ele>511</ele>
<time>2014-06-03T19:51:41Z</time>
</trkpt>
<trkpt lat="38.0842656" lon="-1.48796076">
<ele>511</ele>
<time>2014-06-03T19:51:43Z</time>
</trkpt>
<trkpt lat="38.08426552" lon="-1.4879611">
<ele>511</ele>
<time>2014-06-03T19:51:45Z</time>
</trkpt>
<trkpt lat="38.0842717" lon="-1.48795757">
<ele>511</ele>
<time>2014-06-03T19:51:47Z</time>
</trkpt>
<trkpt lat="38.08427789" lon="-1.48796975">
<ele>511</ele>
<time>2014-06-03T19:51:49Z</time>
</trkpt>
<trkpt lat="38.08428095" lon="-1.48796856">
<ele>510</ele>
<time>2014-06-03T19:51:51Z</time>
</trkpt>
<trkpt lat="38.08428347" lon="-1.48796719">
<ele>510</ele>
<time>2014-06-03T19:51:53Z</time>
</trkpt>
<trkpt lat="38.08429004" lon="-1.48797105">
<ele>510</ele>
<time>2014-06-03T19:51:55Z</time>
</trkpt>
<trkpt lat="38.08428749" lon="-1.48796976">
<ele>510</ele>
<time>2014-06-03T19:51:57Z</time>
</trkpt>
<trkpt lat="38.08428991" lon="-1.48797228">
<ele>509</ele>
<time>2014-06-03T19:51:59Z</time>
</trkpt>
<trkpt lat="38.08429028" lon="-1.48797317">
<ele>509</ele>
<time>2014-06-03T19:52:01Z</time>
</trkpt>
<trkpt lat="38.08429057" lon="-1.48797373">
<ele>509</ele>
<time>2014-06-03T19:52:03Z</time>
</trkpt>
<trkpt lat="38.08429053" lon="-1.4879738">
<ele>509</ele>
<time>2014-06-03T19:52:05Z</time>
</trkpt>
<trkpt lat="38.08429053" lon="-1.48797383">
<ele>509</ele>
<time>2014-06-03T19:52:07Z</time>
</trkpt>
<trkpt lat="38.08429057" lon="-1.48797387">
<ele>509</ele>
<time>2014-06-03T19:52:09Z</time>
</trkpt>
<trkpt lat="38.0842904" lon="-1.48797396">
<ele>509</ele>
<time>2014-06-03T19:52:11Z</time>
</trkpt>
<trkpt lat="38.08429049" lon="-1.48797405">
<ele>509</ele>
<time>2014-06-03T19:52:13Z</time>
</trkpt>
<trkpt lat="38.08429075" lon="-1.48797408">
<ele>509</ele>
<time>2014-06-03T19:52:15Z</time>
</trkpt>
<trkpt lat="38.08429078" lon="-1.48797408">
<ele>509</ele>
<time>2014-06-03T19:52:17Z</time>
</trkpt>
<trkpt lat="38.08429078" lon="-1.48797408">
<ele>509</ele>
<time>2014-06-03T19:52:19Z</time>
</trkpt>
<trkpt lat="38.08429083" lon="-1.4879741">
<ele>509</ele>
<time>2014-06-03T19:52:21Z</time>
</trkpt>
<trkpt lat="38.08429081" lon="-1.48797412">
<ele>509</ele>
<time>2014-06-03T19:52:23Z</time>
</trkpt>
<trkpt lat="38.08429085" lon="-1.48797414">
<ele>509</ele>
<time>2014-06-03T19:52:25Z</time>
</trkpt>
<trkpt lat="38.08429109" lon="-1.48797435">
<ele>509</ele>
<time>2014-06-03T19:52:27Z</time>
</trkpt>
<trkpt lat="38.08429109" lon="-1.48797435">
<ele>509</ele>
<time>2014-06-03T19:52:29Z</time>
</trkpt>
<trkpt lat="38.08427671" lon="-1.48799998">
<ele>509</ele>
<time>2014-06-03T19:52:31Z</time>
</trkpt>
<trkpt lat="38.0842933" lon="-1.48802076">
<ele>505</ele>
<time>2014-06-03T19:52:33Z</time>
</trkpt>
<trkpt lat="38.08428967" lon="-1.48804215">
<ele>505</ele>
<time>2014-06-03T19:52:35Z</time>
</trkpt>
<trkpt lat="38.08428472" lon="-1.48807418">
<ele>504</ele>
<time>2014-06-03T19:52:37Z</time>
</trkpt>
<trkpt lat="38.08428333" lon="-1.48809268">
<ele>506</ele>
<time>2014-06-03T19:52:39Z</time>
</trkpt>
<trkpt lat="38.08427503" lon="-1.48811195">
<ele>506</ele>
<time>2014-06-03T19:52:41Z</time>
</trkpt>
<trkpt lat="38.08426593" lon="-1.48811989">
<ele>506</ele>
<time>2014-06-03T19:52:43Z</time>
</trkpt>
<trkpt lat="38.08427014" lon="-1.48815422">
<ele>507</ele>
<time>2014-06-03T19:52:45Z</time>
</trkpt>
<trkpt lat="38.08427567" lon="-1.48818158">
<ele>507</ele>
<time>2014-06-03T19:52:47Z</time>
</trkpt>
<trkpt lat="38.08427566" lon="-1.48818921">
<ele>508</ele>
<time>2014-06-03T19:52:49Z</time>
</trkpt>
<trkpt lat="38.08428342" lon="-1.4881889">
<ele>507</ele>
<time>2014-06-03T19:52:51Z</time>
</trkpt>
<trkpt lat="38.08429108" lon="-1.48815948">
<ele>503</ele>
<time>2014-06-03T19:52:53Z</time>
</trkpt>
<trkpt lat="38.08429756" lon="-1.48817376">
<ele>504</ele>
<time>2014-06-03T19:52:55Z</time>
</trkpt>
<trkpt lat="38.08430069" lon="-1.4881773">
<ele>504</ele>
<time>2014-06-03T19:52:57Z</time>
</trkpt>
<trkpt lat="38.08429815" lon="-1.4881707">
<ele>504</ele>
<time>2014-06-03T19:52:59Z</time>
</trkpt>
<trkpt lat="38.0842896" lon="-1.48816808">
<ele>504</ele>
<time>2014-06-03T19:53:01Z</time>
</trkpt>
<trkpt lat="38.08428263" lon="-1.48816702">
<ele>504</ele>
<time>2014-06-03T19:53:03Z</time>
</trkpt>
<trkpt lat="38.08428101" lon="-1.48817419">
<ele>503</ele>
<time>2014-06-03T19:53:05Z</time>
</trkpt>
<trkpt lat="38.08428538" lon="-1.4882035">
<ele>504</ele>
<time>2014-06-03T19:53:07Z</time>
</trkpt>
<trkpt lat="38.08428947" lon="-1.48822547">
<ele>505</ele>
<time>2014-06-03T19:53:09Z</time>
</trkpt>
<trkpt lat="38.08429311" lon="-1.48823172">
<ele>507</ele>
<time>2014-06-03T19:53:11Z</time>
</trkpt>
<trkpt lat="38.08431303" lon="-1.48824445">
<ele>507</ele>
<time>2014-06-03T19:53:13Z</time>
</trkpt>
<trkpt lat="38.08430547" lon="-1.48826933">
<ele>505</ele>
<time>2014-06-03T19:53:15Z</time>
</trkpt>
<trkpt lat="38.08430437" lon="-1.48828624">
<ele>505</ele>
<time>2014-06-03T19:53:17Z</time>
</trkpt>
<trkpt lat="38.08431244" lon="-1.48830683">
<ele>506</ele>
<time>2014-06-03T19:53:19Z</time>
</trkpt>
<trkpt lat="38.0843105" lon="-1.48831663">
<ele>506</ele>
<time>2014-06-03T19:53:21Z</time>
</trkpt>
<trkpt lat="38.08432561" lon="-1.48833063">
<ele>504</ele>
<time>2014-06-03T19:53:23Z</time>
</trkpt>
<trkpt lat="38.08433042" lon="-1.48834654">
<ele>504</ele>
<time>2014-06-03T19:53:25Z</time>
</trkpt>
<trkpt lat="38.08433818" lon="-1.48836918">
<ele>503</ele>
<time>2014-06-03T19:53:27Z</time>
</trkpt>
<trkpt lat="38.08435436" lon="-1.48839023">
<ele>506</ele>
<time>2014-06-03T19:53:29Z</time>
</trkpt>
<trkpt lat="38.0843449" lon="-1.48841722">
<ele>505</ele>
<time>2014-06-03T19:53:31Z</time>
</trkpt>
<trkpt lat="38.08433724" lon="-1.48843752">
<ele>505</ele>
<time>2014-06-03T19:53:33Z</time>
</trkpt>
<trkpt lat="38.08434326" lon="-1.48844173">
<ele>505</ele>
<time>2014-06-03T19:53:35Z</time>
</trkpt>
<trkpt lat="38.08434836" lon="-1.48846987">
<ele>504</ele>
<time>2014-06-03T19:53:37Z</time>
</trkpt>
<trkpt lat="38.08436215" lon="-1.48849317">
<ele>503</ele>
<time>2014-06-03T19:53:39Z</time>
</trkpt>
<trkpt lat="38.08437744" lon="-1.48851531">
<ele>503</ele>
<time>2014-06-03T19:53:41Z</time>
</trkpt>
<trkpt lat="38.08438556" lon="-1.4885293">
<ele>503</ele>
<time>2014-06-03T19:53:43Z</time>
</trkpt>
<trkpt lat="38.0844009" lon="-1.48854137">
<ele>503</ele>
<time>2014-06-03T19:53:45Z</time>
</trkpt>
<trkpt lat="38.08442094" lon="-1.48853149">
<ele>504</ele>
<time>2014-06-03T19:53:47Z</time>
</trkpt>
<trkpt lat="38.0844331" lon="-1.48853404">
<ele>504</ele>
<time>2014-06-03T19:53:49Z</time>
</trkpt>
<trkpt lat="38.08444201" lon="-1.48856462">
<ele>504</ele>
<time>2014-06-03T19:53:51Z</time>
</trkpt>
<trkpt lat="38.08445586" lon="-1.48857869">
<ele>506</ele>
<time>2014-06-03T19:53:53Z</time>
</trkpt>
<trkpt lat="38.08446541" lon="-1.48859276">
<ele>506</ele>
<time>2014-06-03T19:53:55Z</time>
</trkpt>
<trkpt lat="38.0844666" lon="-1.48861678">
<ele>507</ele>
<time>2014-06-03T19:53:57Z</time>
</trkpt>
<trkpt lat="38.08448556" lon="-1.48863818">
<ele>508</ele>
<time>2014-06-03T19:53:59Z</time>
</trkpt>
<trkpt lat="38.08449853" lon="-1.488661">
<ele>507</ele>
<time>2014-06-03T19:54:01Z</time>
</trkpt>
<trkpt lat="38.08450126" lon="-1.48868378">
<ele>507</ele>
<time>2014-06-03T19:54:03Z</time>
</trkpt>
<trkpt lat="38.08451016" lon="-1.48870375">
<ele>507</ele>
<time>2014-06-03T19:54:05Z</time>
</trkpt>
<trkpt lat="38.08451162" lon="-1.48872976">
<ele>508</ele>
<time>2014-06-03T19:54:07Z</time>
</trkpt>
<trkpt lat="38.08452201" lon="-1.48874364">
<ele>508</ele>
<time>2014-06-03T19:54:09Z</time>
</trkpt>
<trkpt lat="38.08451794" lon="-1.48877013">
<ele>507</ele>
<time>2014-06-03T19:54:11Z</time>
</trkpt>
<trkpt lat="38.08451704" lon="-1.488792">
<ele>507</ele>
<time>2014-06-03T19:54:13Z</time>
</trkpt>
<trkpt lat="38.08450321" lon="-1.48880739">
<ele>507</ele>
<time>2014-06-03T19:54:15Z</time>
</trkpt>
<trkpt lat="38.08449421" lon="-1.48882548">
<ele>506</ele>
<time>2014-06-03T19:54:17Z</time>
</trkpt>
<trkpt lat="38.08449086" lon="-1.48882819">
<ele>506</ele>
<time>2014-06-03T19:54:19Z</time>
</trkpt>
<trkpt lat="38.08448981" lon="-1.48886281">
<ele>504</ele>
<time>2014-06-03T19:54:21Z</time>
</trkpt>
<trkpt lat="38.08449425" lon="-1.48888592">
<ele>505</ele>
<time>2014-06-03T19:54:23Z</time>
</trkpt>
<trkpt lat="38.08450563" lon="-1.48889779">
<ele>504</ele>
<time>2014-06-03T19:54:25Z</time>
</trkpt>
<trkpt lat="38.08451454" lon="-1.48891389">
<ele>503</ele>
<time>2014-06-03T19:54:27Z</time>
</trkpt>
<trkpt lat="38.08451283" lon="-1.48892477">
<ele>504</ele>
<time>2014-06-03T19:54:29Z</time>
</trkpt>
<trkpt lat="38.08451469" lon="-1.4889397">
<ele>505</ele>
<time>2014-06-03T19:54:31Z</time>
</trkpt>
<trkpt lat="38.08452178" lon="-1.4889625">
<ele>506</ele>
<time>2014-06-03T19:54:33Z</time>
</trkpt>
<trkpt lat="38.08452054" lon="-1.48898484">
<ele>504</ele>
<time>2014-06-03T19:54:35Z</time>
</trkpt>
<trkpt lat="38.08451255" lon="-1.48900176">
<ele>503</ele>
<time>2014-06-03T19:54:37Z</time>
</trkpt>
<trkpt lat="38.08451703" lon="-1.48902306">
<ele>504</ele>
<time>2014-06-03T19:54:39Z</time>
</trkpt>
<trkpt lat="38.08451856" lon="-1.48904044">
<ele>504</ele>
<time>2014-06-03T19:54:41Z</time>
</trkpt>
<trkpt lat="38.08451223" lon="-1.48906263">
<ele>504</ele>
<time>2014-06-03T19:54:43Z</time>
</trkpt>
<trkpt lat="38.08450419" lon="-1.48907878">
<ele>504</ele>
<time>2014-06-03T19:54:45Z</time>
</trkpt>
<trkpt lat="38.08449843" lon="-1.48910147">
<ele>504</ele>
<time>2014-06-03T19:54:47Z</time>
</trkpt>
<trkpt lat="38.08449751" lon="-1.48914112">
<ele>506</ele>
<time>2014-06-03T19:54:49Z</time>
</trkpt>
<trkpt lat="38.08449633" lon="-1.48916511">
<ele>506</ele>
<time>2014-06-03T19:54:51Z</time>
</trkpt>
<trkpt lat="38.08449533" lon="-1.4891799">
<ele>506</ele>
<time>2014-06-03T19:54:53Z</time>
</trkpt>
<trkpt lat="38.08450297" lon="-1.48918697">
<ele>505</ele>
<time>2014-06-03T19:54:55Z</time>
</trkpt>
<trkpt lat="38.08450658" lon="-1.48919974">
<ele>504</ele>
<time>2014-06-03T19:54:57Z</time>
</trkpt>
<trkpt lat="38.08450587" lon="-1.48923252">
<ele>504</ele>
<time>2014-06-03T19:54:59Z</time>
</trkpt>
<trkpt lat="38.08451012" lon="-1.48924896">
<ele>504</ele>
<time>2014-06-03T19:55:01Z</time>
</trkpt>
<trkpt lat="38.08451395" lon="-1.4893075">
<ele>503</ele>
<time>2014-06-03T19:55:03Z</time>
</trkpt>
<trkpt lat="38.08450159" lon="-1.48930403">
<ele>502</ele>
<time>2014-06-03T19:55:05Z</time>
</trkpt>
<trkpt lat="38.08451319" lon="-1.48930964">
<ele>502</ele>
<time>2014-06-03T19:55:07Z</time>
</trkpt>
<trkpt lat="38.08452343" lon="-1.48932339">
<ele>502</ele>
<time>2014-06-03T19:55:09Z</time>
</trkpt>
<trkpt lat="38.08452615" lon="-1.48934478">
<ele>504</ele>
<time>2014-06-03T19:55:11Z</time>
</trkpt>
<trkpt lat="38.08452291" lon="-1.48936289">
<ele>504</ele>
<time>2014-06-03T19:55:13Z</time>
</trkpt>
<trkpt lat="38.08453078" lon="-1.48939326">
<ele>503</ele>
<time>2014-06-03T19:55:15Z</time>
</trkpt>
<trkpt lat="38.08455339" lon="-1.48938219">
<ele>507</ele>
<time>2014-06-03T19:55:17Z</time>
</trkpt>
<trkpt lat="38.08455742" lon="-1.48937229">
<ele>507</ele>
<time>2014-06-03T19:55:19Z</time>
</trkpt>
<trkpt lat="38.08454975" lon="-1.48937244">
<ele>507</ele>
<time>2014-06-03T19:55:21Z</time>
</trkpt>
<trkpt lat="38.08454593" lon="-1.48937158">
<ele>507</ele>
<time>2014-06-03T19:55:23Z</time>
</trkpt>
<trkpt lat="38.08454911" lon="-1.48937051">
<ele>507</ele>
<time>2014-06-03T19:55:25Z</time>
</trkpt>
<trkpt lat="38.08454901" lon="-1.48937488">
<ele>508</ele>
<time>2014-06-03T19:55:27Z</time>
</trkpt>
<trkpt lat="38.08455166" lon="-1.48937691">
<ele>507</ele>
<time>2014-06-03T19:55:29Z</time>
</trkpt>
<trkpt lat="38.08454798" lon="-1.48937679">
<ele>508</ele>
<time>2014-06-03T19:55:31Z</time>
</trkpt>
<trkpt lat="38.0845452" lon="-1.48937761">
<ele>508</ele>
<time>2014-06-03T19:55:33Z</time>
</trkpt>
<trkpt lat="38.08454513" lon="-1.48937768">
<ele>508</ele>
<time>2014-06-03T19:55:35Z</time>
</trkpt>
<trkpt lat="38.08454607" lon="-1.48938044">
<ele>508</ele>
<time>2014-06-03T19:55:37Z</time>
</trkpt>
<trkpt lat="38.08454669" lon="-1.48938188">
<ele>509</ele>
<time>2014-06-03T19:55:39Z</time>
</trkpt>
<trkpt lat="38.08454683" lon="-1.4893824">
<ele>509</ele>
<time>2014-06-03T19:55:41Z</time>
</trkpt>
<trkpt lat="38.08454702" lon="-1.48938267">
<ele>509</ele>
<time>2014-06-03T19:55:43Z</time>
</trkpt>
<trkpt lat="38.0845466" lon="-1.48938199">
<ele>509</ele>
<time>2014-06-03T19:55:45Z</time>
</trkpt>
<trkpt lat="38.0845462" lon="-1.48938162">
<ele>509</ele>
<time>2014-06-03T19:55:47Z</time>
</trkpt>
<trkpt lat="38.0845462" lon="-1.48938162">
<ele>509</ele>
<time>2014-06-03T19:55:49Z</time>
</trkpt>
<trkpt lat="38.08454597" lon="-1.48938137">
<ele>509</ele>
<time>2014-06-03T19:55:51Z</time>
</trkpt>
<trkpt lat="38.08454586" lon="-1.48938136">
<ele>509</ele>
<time>2014-06-03T19:55:53Z</time>
</trkpt>
<trkpt lat="38.08454586" lon="-1.48938136">
<ele>509</ele>
<time>2014-06-03T19:55:55Z</time>
</trkpt>
<trkpt lat="38.08454571" lon="-1.4893813">
<ele>509</ele>
<time>2014-06-03T19:55:57Z</time>
</trkpt>
<trkpt lat="38.08454565" lon="-1.48938124">
<ele>509</ele>
<time>2014-06-03T19:55:59Z</time>
</trkpt>
<trkpt lat="38.08454565" lon="-1.48938124">
<ele>509</ele>
<time>2014-06-03T19:56:01Z</time>
</trkpt>
<trkpt lat="38.0845456" lon="-1.48938128">
<ele>509</ele>
<time>2014-06-03T19:56:03Z</time>
</trkpt>
<trkpt lat="38.08454547" lon="-1.48938136">
<ele>509</ele>
<time>2014-06-03T19:56:05Z</time>
</trkpt>
<trkpt lat="38.08454533" lon="-1.48938132">
<ele>509</ele>
<time>2014-06-03T19:56:07Z</time>
</trkpt>
<trkpt lat="38.08454529" lon="-1.48938137">
<ele>509</ele>
<time>2014-06-03T19:56:09Z</time>
</trkpt>
<trkpt lat="38.08454519" lon="-1.48938135">
<ele>509</ele>
<time>2014-06-03T19:56:11Z</time>
</trkpt>
<trkpt lat="38.08454519" lon="-1.48938135">
<ele>509</ele>
<time>2014-06-03T19:56:13Z</time>
</trkpt>
<trkpt lat="38.08454518" lon="-1.48938136">
<ele>509</ele>
<time>2014-06-03T19:56:15Z</time>
</trkpt>
<trkpt lat="38.08454512" lon="-1.48938138">
<ele>509</ele>
<time>2014-06-03T19:56:17Z</time>
</trkpt>
<trkpt lat="38.08454512" lon="-1.48938138">
<ele>509</ele>
<time>2014-06-03T19:56:19Z</time>
</trkpt>
<trkpt lat="38.08454504" lon="-1.48938129">
<ele>509</ele>
<time>2014-06-03T19:56:21Z</time>
</trkpt>
<trkpt lat="38.08454504" lon="-1.48938129">
<ele>509</ele>
<time>2014-06-03T19:56:23Z</time>
</trkpt>
<trkpt lat="38.08454491" lon="-1.48938117">
<ele>509</ele>
<time>2014-06-03T19:56:25Z</time>
</trkpt>
<trkpt lat="38.08454491" lon="-1.48938117">
<ele>509</ele>
<time>2014-06-03T19:56:27Z</time>
</trkpt>
<trkpt lat="38.0845449" lon="-1.48938116">
<ele>509</ele>
<time>2014-06-03T19:56:29Z</time>
</trkpt>
<trkpt lat="38.08454489" lon="-1.48938111">
<ele>509</ele>
<time>2014-06-03T19:56:31Z</time>
</trkpt>
<trkpt lat="38.0845449" lon="-1.48938109">
<ele>509</ele>
<time>2014-06-03T19:56:33Z</time>
</trkpt>
<trkpt lat="38.08454473" lon="-1.48938096">
<ele>509</ele>
<time>2014-06-03T19:56:35Z</time>
</trkpt>
<trkpt lat="38.08454458" lon="-1.48938081">
<ele>509</ele>
<time>2014-06-03T19:56:37Z</time>
</trkpt>
<trkpt lat="38.08454444" lon="-1.48938082">
<ele>509</ele>
<time>2014-06-03T19:56:39Z</time>
</trkpt>
<trkpt lat="38.08454336" lon="-1.4893752">
<ele>509</ele>
<time>2014-06-03T19:56:41Z</time>
</trkpt>
<trkpt lat="38.08452602" lon="-1.48937105">
<ele>509</ele>
<time>2014-06-03T19:56:43Z</time>
</trkpt>
<trkpt lat="38.08452651" lon="-1.48936856">
<ele>509</ele>
<time>2014-06-03T19:56:45Z</time>
</trkpt>
<trkpt lat="38.08452474" lon="-1.48937077">
<ele>509</ele>
<time>2014-06-03T19:56:47Z</time>
</trkpt>
<trkpt lat="38.08452737" lon="-1.48936994">
<ele>509</ele>
<time>2014-06-03T19:56:49Z</time>
</trkpt>
<trkpt lat="38.08452848" lon="-1.48936964">
<ele>509</ele>
<time>2014-06-03T19:56:51Z</time>
</trkpt>
<trkpt lat="38.08452846" lon="-1.48936914">
<ele>509</ele>
<time>2014-06-03T19:56:53Z</time>
</trkpt>
<trkpt lat="38.08452869" lon="-1.48936816">
<ele>509</ele>
<time>2014-06-03T19:56:55Z</time>
</trkpt>
<trkpt lat="38.08453113" lon="-1.48936289">
<ele>509</ele>
<time>2014-06-03T19:56:57Z</time>
</trkpt>
<trkpt lat="38.0845314" lon="-1.48936135">
<ele>510</ele>
<time>2014-06-03T19:56:59Z</time>
</trkpt>
<trkpt lat="38.08453055" lon="-1.48936285">
<ele>510</ele>
<time>2014-06-03T19:57:01Z</time>
</trkpt>
<trkpt lat="38.084524" lon="-1.48936811">
<ele>510</ele>
<time>2014-06-03T19:57:03Z</time>
</trkpt>
<trkpt lat="38.08452139" lon="-1.48936481">
<ele>510</ele>
<time>2014-06-03T19:57:05Z</time>
</trkpt>
<trkpt lat="38.08452017" lon="-1.48936248">
<ele>511</ele>
<time>2014-06-03T19:57:07Z</time>
</trkpt>
<trkpt lat="38.08452107" lon="-1.4893624">
<ele>511</ele>
<time>2014-06-03T19:57:09Z</time>
</trkpt>
<trkpt lat="38.08452107" lon="-1.4893624">
<ele>511</ele>
<time>2014-06-03T19:57:11Z</time>
</trkpt>
<trkpt lat="38.08451616" lon="-1.48932287">
<ele>513</ele>
<time>2014-06-03T19:57:13Z</time>
</trkpt>
<trkpt lat="38.08453757" lon="-1.48933419">
<ele>513</ele>
<time>2014-06-03T19:57:15Z</time>
</trkpt>
<trkpt lat="38.08453943" lon="-1.48932809">
<ele>515</ele>
<time>2014-06-03T19:57:17Z</time>
</trkpt>
<trkpt lat="38.08451781" lon="-1.48932156">
<ele>514</ele>
<time>2014-06-03T19:57:19Z</time>
</trkpt>
<trkpt lat="38.08451773" lon="-1.48933113">
<ele>514</ele>
<time>2014-06-03T19:57:21Z</time>
</trkpt>
<trkpt lat="38.08451681" lon="-1.48934119">
<ele>513</ele>
<time>2014-06-03T19:57:23Z</time>
</trkpt>
<trkpt lat="38.08451797" lon="-1.4893407">
<ele>514</ele>
<time>2014-06-03T19:57:25Z</time>
</trkpt>
<trkpt lat="38.08451891" lon="-1.4893382">
<ele>514</ele>
<time>2014-06-03T19:57:27Z</time>
</trkpt>
<trkpt lat="38.08452174" lon="-1.48934112">
<ele>516</ele>
<time>2014-06-03T19:57:29Z</time>
</trkpt>
<trkpt lat="38.08451389" lon="-1.4893377">
<ele>517</ele>
<time>2014-06-03T19:57:31Z</time>
</trkpt>
<trkpt lat="38.08451666" lon="-1.48933666">
<ele>517</ele>
<time>2014-06-03T19:57:33Z</time>
</trkpt>
<trkpt lat="38.08451576" lon="-1.48933187">
<ele>516</ele>
<time>2014-06-03T19:57:35Z</time>
</trkpt>
<trkpt lat="" lon="">
<ele></ele>
<time>2014-06-03TZ</time>
</trkpt>
</trkseg>
</trk>
<wpt lat="" lon="">
	<name></name>
	<desc></desc>
	<cmt></cmt>
	<photoid></photoid>
	<type></type>
</wpt>
</gpx>
